Provisional Data: Baldwin Creek near Lowman, NY


Please select a monitoring station.
Please select start date.
Please select start date.

Toggle Unit: C/F Toggle Unit: C/F
Sample Time Temperature (C) Temperature (F) Specific Conductivity (mS/cm) pH   Turbidity (NTU+) DO (mg/L)
8/9/2021 12:00:00 AM 22.24 72.032 0.214 8.4 3.26 7.2
8/9/2021 12:15:00 AM 22.2 71.96 0.215 8.4 3.43 7.19
8/9/2021 12:30:00 AM 22.16 71.888 0.215 8.39 3.19 7.19
8/9/2021 12:45:00 AM 22.11 71.798 0.215 8.38 3.15 7.2
8/9/2021 1:00:00 AM 22.06 71.708 0.215 8.37 3.22 7.21
8/9/2021 1:15:00 AM 22.02 71.636 0.216 8.37 3.17 7.24
8/9/2021 1:30:00 AM 21.97 71.546 0.216 8.37 3.26 7.26
8/9/2021 1:45:00 AM 21.92 71.456 0.216 8.37 3.34 7.3
8/9/2021 2:00:00 AM 21.87 71.366 0.217 8.36 3.41 7.29
8/9/2021 2:15:00 AM 21.81 71.258 0.217 8.35 3.29 7.3
8/9/2021 2:30:00 AM 21.76 71.168 0.217 8.34 3.27 7.32
8/9/2021 2:45:00 AM 21.71 71.078 0.217 8.33 3.34 7.33
8/9/2021 3:00:00 AM 21.65 70.97 0.218 8.32 3.45 7.34
8/9/2021 3:15:00 AM 21.6 70.88 0.218 8.32 3.53 7.34
8/9/2021 3:30:00 AM 21.54 70.772 0.218 8.31 3.32 7.32
8/9/2021 3:45:00 AM 21.49 70.682 0.218 8.3 3.59 7.34
8/9/2021 4:00:00 AM 21.44 70.592 0.218 8.29 3.58 7.35
8/9/2021 4:15:00 AM 21.4 70.52 0.218 8.29 3.44 7.36
8/9/2021 4:30:00 AM 21.36 70.448 0.218 8.29 3.42 7.35
8/9/2021 4:45:00 AM 21.32 70.376 0.218 8.29 3.3 7.36
8/9/2021 5:00:00 AM 21.28 70.304 0.218 8.28 3.66 7.34
8/9/2021 5:15:00 AM 21.25 70.25 0.218 8.28 3.65 7.37
8/9/2021 5:30:00 AM 21.22 70.196 0.218 8.28 3.44 7.4
8/9/2021 5:45:00 AM 21.18 70.124 0.218 8.27 3.64 7.4
8/9/2021 6:00:00 AM 21.15 70.07 0.218 8.27 3.72 7.41
8/9/2021 6:15:00 AM 21.12 70.016 0.218 8.26 3.85 7.41
8/9/2021 6:30:00 AM 21.09 69.962 0.218 8.26 3.71 7.43
8/9/2021 6:45:00 AM 21.06 69.908 0.218 8.26 3.76 7.43
8/9/2021 7:00:00 AM 21.04 69.872 0.218 8.26 3.77 7.45
8/9/2021 7:15:00 AM 21.02 69.836 0.218 8.27 3.91 7.52
8/9/2021 7:30:00 AM 21.01 69.818 0.218 8.26 3.86 7.56
8/9/2021 7:45:00 AM 21 69.8 0.218 8.28 3.71 7.64
8/9/2021 8:00:00 AM 21 69.8 0.218 8.3 3.7 7.76
8/9/2021 8:15:00 AM 21.02 69.836 0.218 8.32 3.83 7.87
8/9/2021 8:30:00 AM 21.05 69.89 0.218 8.35 3.62 8.02
8/9/2021 8:45:00 AM 21.09 69.962 0.218 8.39 3.79 8.18
8/9/2021 9:00:00 AM 21.16 70.088 0.218 8.43 3.69 8.36
8/9/2021 9:15:00 AM 21.22 70.196 0.217 8.48 3.77 8.5
8/9/2021 9:30:00 AM 21.26 70.268 0.217 8.49 3.72 8.62
8/9/2021 9:45:00 AM 21.32 70.376 0.217 8.53 3.67 8.71
8/9/2021 10:00:00 AM 21.37 70.466 0.217 8.56 3.69 8.76
8/9/2021 10:15:00 AM 21.45 70.61 0.216 8.59 3.69 8.81
8/9/2021 10:30:00 AM 21.56 70.808 0.216 8.62 3.71 8.86
8/9/2021 10:45:00 AM 21.81 71.258 0.216 8.67 3.8 8.95
8/9/2021 11:00:00 AM 22.05 71.69 0.216 8.73 3.71 9.04
8/9/2021 11:15:00 AM 22.32 72.176 0.216 8.79 3.72 9.15
8/9/2021 11:30:00 AM 22.6 72.68 0.216 8.85 3.67 9.22
8/9/2021 11:45:00 AM 22.85 73.13 0.215 8.9 3.61 9.26
8/9/2021 12:00:00 PM 23.14 73.652 0.215 8.95 3.67 9.31
8/9/2021 12:15:00 PM 23.46 74.228 0.215 9.02 4.15 9.33
8/9/2021 12:30:00 PM 23.8 74.84 0.215 9.07 3.47 9.33
8/9/2021 12:45:00 PM 24.13 75.434 0.216 9.13 3.55 9.32
8/9/2021 1:00:00 PM 24.46 76.028 0.216 9.18 3.33 9.29
8/9/2021 1:15:00 PM 24.8 76.64 0.216 9.24 3.42 9.27
8/9/2021 1:30:00 PM 25.06 77.108 0.216 9.28 3.2 9.25
8/9/2021 1:45:00 PM 25.25 77.45 0.216 9.3 3.28 9.17
8/9/2021 2:00:00 PM 25.33 77.594 0.216 9.33 3.17 9.13
8/9/2021 2:15:00 PM 25.47 77.846 0.216 9.34 3.21 9.07
8/9/2021 2:30:00 PM 25.58 78.044 0.216 9.35 3.36 9
8/9/2021 2:45:00 PM 25.68 78.224 0.216 9.35 3.43 8.97
8/9/2021 3:00:00 PM 25.73 78.314 0.217 9.36 3.24 8.92
8/9/2021 3:15:00 PM 25.79 78.422 0.217 9.36 3.13 8.89
8/9/2021 3:30:00 PM 25.8 78.44 0.217 9.36 3.09 8.85
8/9/2021 3:45:00 PM 25.84 78.512 0.217 9.36 3.28 8.84
8/9/2021 4:00:00 PM 25.8 78.44 0.217 9.35 3.05 8.77
8/9/2021 4:15:00 PM 25.71 78.278 0.217 9.34 3.1 8.7
8/9/2021 4:30:00 PM 25.66 78.188 0.217 9.32 3.07 8.65
8/9/2021 4:45:00 PM 25.6 78.08 0.217 9.31 3.17 8.6
8/9/2021 5:00:00 PM 25.54 77.972 0.217 9.3 3.15 8.5
8/9/2021 5:15:00 PM 25.48 77.864 0.217 9.25 3.16 8.44
8/9/2021 5:30:00 PM 25.43 77.774 0.217 9.2 3.35 8.36
8/9/2021 5:45:00 PM 25.36 77.648 0.217 9.17 3.24 8.27
8/9/2021 6:00:00 PM 25.27 77.486 0.217 9.11 3.2 8.15
8/9/2021 6:15:00 PM 25.19 77.342 0.217 9.06 3.18 8.05
8/9/2021 6:30:00 PM 25.1 77.18 0.217 9.01 3.29 7.95
8/9/2021 6:45:00 PM 25.01 77.018 0.217 8.97 3.28 7.86
8/9/2021 7:00:00 PM 24.91 76.838 0.217 8.93 3.14 7.78
8/9/2021 7:15:00 PM 24.81 76.658 0.218 8.89 3.19 7.71
8/9/2021 7:30:00 PM 24.69 76.442 0.218 8.84 3.14 7.63
8/9/2021 7:45:00 PM 24.58 76.244 0.218 8.81 3.19 7.54
8/9/2021 8:00:00 PM 24.48 76.064 0.218 8.77 3.12 7.46
8/9/2021 8:15:00 PM 24.37 75.866 0.218 8.75 3.23 7.38
8/9/2021 8:30:00 PM 24.28 75.704 0.219 8.71 3.42 7.27
8/9/2021 8:45:00 PM 24.18 75.524 0.219 8.68 3.11 7.19
8/9/2021 9:00:00 PM 24.08 75.344 0.219 8.65 3.17 7.13
8/9/2021 9:15:00 PM 23.99 75.182 0.219 8.63 3.37 7.08
8/9/2021 9:30:00 PM 23.9 75.02 0.219 8.6 3.22 7.02
8/9/2021 9:45:00 PM 23.8 74.84 0.219 8.58 3.35 7
8/9/2021 10:00:00 PM 23.71 74.67799 0.219 8.56 3.25 6.97
8/9/2021 10:15:00 PM 23.62 74.516 0.22 8.55 3.29 6.96
8/9/2021 10:30:00 PM 23.53 74.354 0.22 8.53 3.26 6.96
8/9/2021 10:45:00 PM 23.45 74.21 0.22 8.53 3.28 6.92
8/9/2021 11:00:00 PM 23.36 74.048 0.22 8.51 3.25 6.94
8/9/2021 11:15:00 PM 23.29 73.922 0.22 8.5 3.39 6.95
8/9/2021 11:30:00 PM 23.21 73.778 0.22 8.49 3.23 6.95
8/9/2021 11:45:00 PM 23.13 73.634 0.22 8.48 3.31 6.93
8/10/2021 12:00:00 AM 23.06 73.508 0.22 8.47 3.29 6.97
8/10/2021 12:15:00 AM 22.99 73.382 0.22 8.46 3.33 6.98
8/10/2021 12:30:00 AM 22.92 73.256 0.22 8.46 3.28 6.98
8/10/2021 12:45:00 AM 22.85 73.13 0.22 8.44 3.36 7.01
8/10/2021 1:00:00 AM 22.79 73.022 0.22 8.44 3.15 6.99
8/10/2021 1:15:00 AM 22.72 72.896 0.22 8.43 3.31 7.01
8/10/2021 1:30:00 AM 22.66 72.788 0.22 8.42 3.38 7
8/10/2021 1:45:00 AM 22.6 72.68 0.221 8.41 3.28 7.01
8/10/2021 2:00:00 AM 22.54 72.57201 0.221 8.4 3.32 7.02
8/10/2021 2:15:00 AM 22.48 72.464 0.221 8.39 3.24 7.04
8/10/2021 2:30:00 AM 22.43 72.374 0.221 8.38 3.62 7.04
8/10/2021 2:45:00 AM 22.37 72.266 0.221 8.38 3.33 7.04
8/10/2021 3:00:00 AM 22.31 72.158 0.221 8.37 3.24 7.06
8/10/2021 3:15:00 AM 22.25 72.05 0.221 8.36 3.37 7.06
8/10/2021 3:30:00 AM 22.18 71.924 0.221 8.36 3.26 7.08
8/10/2021 3:45:00 AM 22.13 71.834 0.221 8.35 3.69 7.1
8/10/2021 4:00:00 AM 22.07 71.726 0.221 8.35 3.37 7.08
8/10/2021 4:15:00 AM 22.01 71.618 0.221 8.34 3.15 7.11
8/10/2021 4:30:00 AM 21.95 71.51 0.221 8.34 3.36 7.13
8/10/2021 4:45:00 AM 21.89 71.402 0.221 8.31 3.39 7.12
8/10/2021 5:00:00 AM 21.84 71.312 0.221 8.32 3.25 7.13
8/10/2021 5:15:00 AM 21.79 71.222 0.221 8.32 3.2 7.14
8/10/2021 5:30:00 AM 21.74 71.132 0.221 8.32 3.13 7.16
8/10/2021 5:45:00 AM 21.69 71.042 0.221 8.32 3.19 7.14
8/10/2021 6:00:00 AM 21.63 70.934 0.221 8.32 3.14 7.17
8/10/2021 6:15:00 AM 21.58 70.844 0.221 8.32 3.22 7.18
8/10/2021 6:30:00 AM 21.53 70.754 0.221 8.32 3.21 7.19
8/10/2021 6:45:00 AM 21.5 70.7 0.221 8.33 3.08 7.23
8/10/2021 7:00:00 AM 21.46 70.628 0.221 8.34 3.21 7.3
8/10/2021 7:15:00 AM 21.44 70.592 0.221 8.34 3.17 7.36
8/10/2021 7:30:00 AM 21.45 70.61 0.221 8.37 3.14 7.45
8/10/2021 7:45:00 AM 21.48 70.664 0.221 8.37 3.09 7.6
8/10/2021 8:00:00 AM 21.55 70.79 0.221 8.42 3.28 7.77
8/10/2021 8:15:00 AM 21.61 70.898 0.221 8.45 3.52 7.89
8/10/2021 8:30:00 AM 21.63 70.934 0.221 8.46 3.37 8.01
8/10/2021 8:45:00 AM 21.67 71.006 0.221 8.48 3.37 8.08
8/10/2021 9:00:00 AM 21.75 71.15 0.221 8.51 3.03 8.19
8/10/2021 9:15:00 AM 21.85 71.33 0.221 8.55 3.18 8.36
8/10/2021 9:30:00 AM 21.91 71.438 0.221 8.55 3.27 8.37
8/10/2021 9:45:00 AM 21.94 71.492 0.221 8.57 3.17 8.39
8/10/2021 10:00:00 AM 22 71.6 0.221 8.59 3.12 8.43
8/10/2021 10:15:00 AM 22.07 71.726 0.221 8.61 3.22 8.49
8/10/2021 10:30:00 AM 22.15 71.87 0.221 8.63 3.29 8.54
8/10/2021 10:45:00 AM 22.24 72.032 0.221 8.66 3 8.59
8/10/2021 11:00:00 AM 22.32 72.176 0.221 8.68 3.1 8.63
8/10/2021 11:15:00 AM 22.43 72.374 0.221 8.7 3.06 8.68
8/10/2021 11:30:00 AM 22.64 72.752 0.221 8.76 3.15 8.83
8/10/2021 11:45:00 AM 22.89 73.202 0.221 8.83 3.05 8.98
8/10/2021 12:00:00 PM 23 73.4 0.221 8.87 3.1 9.03
8/10/2021 12:15:00 PM 23.1 73.58 0.22 8.9 3.11 9.08
8/10/2021 12:30:00 PM 23.26 73.868 0.22 8.96 3.04 9.17
8/10/2021 12:45:00 PM 23.41 74.138 0.22 9.01 3.16 9.23
8/10/2021 1:00:00 PM 23.53 74.354 0.22 9.06 2.99 9.24
8/10/2021 1:15:00 PM 23.69 74.642 0.22 9.11 3.04 9.29
8/10/2021 1:30:00 PM 23.79 74.82201 0.22 9.14 3.01 9.28
8/10/2021 1:45:00 PM 23.88 74.984 0.22 9.17 3.18 9.28
8/10/2021 2:00:00 PM 24 75.2 0.22 9.19 3.01 9.29
8/10/2021 2:15:00 PM 24.16 75.488 0.22 9.24 3.06 9.33
8/10/2021 2:30:00 PM 24.36 75.848 0.22 9.29 3.09 9.3
8/10/2021 2:45:00 PM 24.57 76.226 0.22 9.32 2.98 9.3
8/10/2021 3:00:00 PM 24.62 76.316 0.22 9.32 3.07 9.22
8/10/2021 3:15:00 PM 24.7 76.46 0.22 9.32 3.25 9.16
8/10/2021 3:30:00 PM 24.81 76.658 0.22 9.35 3.06 9.2
8/10/2021 3:45:00 PM 24.96 76.92799 0.22 9.37 2.95 9.17
8/10/2021 4:00:00 PM 25.06 77.108 0.22 9.38 2.91 9.09
8/10/2021 4:15:00 PM 25.07 77.126 0.22 9.36 3.18 9.02
8/10/2021 4:30:00 PM 25.04 77.07201 0.22 9.34 2.97 8.96
8/10/2021 4:45:00 PM 25.01 77.018 0.22 9.3 3.14 8.88
8/10/2021 5:00:00 PM 25.01 77.018 0.22 9.28 3.15 8.84
8/10/2021 5:15:00 PM 24.99 76.982 0.22 9.26 3.14 8.73
8/10/2021 5:30:00 PM 24.96 76.92799 0.22 9.23 3.02 8.61
8/10/2021 5:45:00 PM 24.91 76.838 0.22 9.18 3.13 8.5
8/10/2021 6:00:00 PM 24.87 76.766 0.22 9.13 3.16 8.41
8/10/2021 6:15:00 PM 24.85 76.73 0.22 9.09 2.94 8.35
8/10/2021 6:30:00 PM 24.81 76.658 0.221 9.04 2.99 8.23
8/10/2021 6:45:00 PM 24.75 76.55 0.221 8.99 3.03 8.13
8/10/2021 7:00:00 PM 24.69 76.442 0.221 8.92 3.2 8.01
8/10/2021 7:15:00 PM 24.62 76.316 0.221 8.87 3.25 7.9
8/10/2021 7:30:00 PM 24.53 76.154 0.221 8.79 3.01 7.74
8/10/2021 7:45:00 PM 24.44 75.992 0.221 8.76 3.04 7.65
8/10/2021 8:00:00 PM 24.35 75.83 0.221 8.71 2.97 7.51
8/10/2021 8:15:00 PM 24.27 75.686 0.221 8.66 3.44 7.37
8/10/2021 8:30:00 PM 24.16 75.488 0.221 8.62 3.12 7.26
8/10/2021 8:45:00 PM 24.09 75.362 0.222 8.58 3.08 7.13
8/10/2021 9:00:00 PM 24.01 75.218 0.222 8.55 3.15 7.05
8/10/2021 9:15:00 PM 23.94 75.092 0.222 8.53 3.02 6.96
8/10/2021 9:30:00 PM 23.87 74.966 0.222 8.51 3.16 6.91
8/10/2021 9:45:00 PM 23.81 74.858 0.222 8.47 3.3 6.84
8/10/2021 10:00:00 PM 23.73 74.714 0.222 8.47 3.31 6.83
8/10/2021 10:15:00 PM 23.67 74.606 0.222 8.46 3.3 6.79
8/10/2021 10:30:00 PM 23.59 74.462 0.222 8.44 3.33 6.78
8/10/2021 10:45:00 PM 23.51 74.318 0.222 8.42 3.14 6.74
8/10/2021 11:00:00 PM 23.44 74.192 0.221 8.42 3.13 6.77
8/10/2021 11:15:00 PM 23.37 74.066 0.221 8.41 3.17 6.77
8/10/2021 11:30:00 PM 23.3 73.94 0.221 8.4 3.18 6.76
8/10/2021 11:45:00 PM 23.23 73.814 0.221 8.38 3.12 6.8
8/11/2021 12:00:00 AM 23.19 73.742 0.221 8.39 3.23 6.79
8/11/2021 12:15:00 AM 23.13 73.634 0.221 8.38 3.08 6.78
8/11/2021 12:30:00 AM 23.08 73.544 0.221 8.38 3.28 6.78
8/11/2021 12:45:00 AM 23.03 73.454 0.221 8.38 3.22 6.82
8/11/2021 1:00:00 AM 22.98 73.364 0.221 8.37 3.32 6.79
8/11/2021 1:15:00 AM 22.93 73.274 0.221 8.37 3.28 6.83
8/11/2021 1:30:00 AM 22.88 73.184 0.22 8.36 3.52 6.83
8/11/2021 1:45:00 AM 22.84 73.112 0.22 8.36 3.24 6.83
8/11/2021 2:00:00 AM 22.8 73.04 0.22 8.35 3.03 6.81
8/11/2021 2:15:00 AM 22.75 72.95 0.22 8.35 3.3 6.84
8/11/2021 2:30:00 AM 22.71 72.878 0.22 8.35 3.35 6.86
8/11/2021 2:45:00 AM 22.67 72.806 0.22 8.34 3.45 6.84
8/11/2021 3:00:00 AM 22.63 72.734 0.22 8.33 3.23 6.87
8/11/2021 3:15:00 AM 22.59 72.662 0.22 8.33 3.36 6.88
8/11/2021 3:30:00 AM 22.55 72.59 0.22 8.33 3.28 6.88
8/11/2021 3:45:00 AM 22.52 72.536 0.22 8.32 3.31 6.88
8/11/2021 4:00:00 AM 22.49 72.482 0.22 8.32 3.38 6.89
8/11/2021 4:15:00 AM 22.45 72.41 0.22 8.32 3.12 6.85
8/11/2021 4:30:00 AM 22.42 72.356 0.22 8.32 3.08 6.9
8/11/2021 4:45:00 AM 22.37 72.266 0.22 8.32 3.14 6.92
8/11/2021 5:00:00 AM 22.33 72.194 0.22 8.31 3.05 6.94
8/11/2021 5:15:00 AM 22.29 72.122 0.22 8.3 3.09 6.94
8/11/2021 5:30:00 AM 22.25 72.05 0.22 8.3 3.26 6.93
8/11/2021 5:45:00 AM 22.2 71.96 0.22 8.29 3.5 6.94
8/11/2021 6:00:00 AM 22.16 71.888 0.22 8.29 3.05 6.93
8/11/2021 6:15:00 AM 22.12 71.816 0.22 8.29 3.06 6.98
8/11/2021 6:30:00 AM 22.09 71.762 0.22 8.28 3.21 6.97
8/11/2021 6:45:00 AM 22.05 71.69 0.22 8.29 3.22 7.02
8/11/2021 7:00:00 AM 22.03 71.654 0.22 8.29 3.58 7.05
8/11/2021 7:15:00 AM 22.01 71.618 0.219 8.29 3.29 7.1
8/11/2021 7:30:00 AM 22.01 71.618 0.219 8.31 3.08 7.19
8/11/2021 7:45:00 AM 22.01 71.618 0.219 8.31 3.12 7.27
8/11/2021 8:00:00 AM 22.01 71.618 0.219 8.31 3.23 7.29
8/11/2021 8:15:00 AM 22.03 71.654 0.219 8.33 3.17 7.35
8/11/2021 8:30:00 AM 22.1 71.78 0.219 8.36 3.27 7.54
8/11/2021 8:45:00 AM 22.19 71.942 0.219 8.42 3.05 7.75
8/11/2021 9:00:00 AM 22.27 72.086 0.219 8.43 3.24 7.87
8/11/2021 9:15:00 AM 22.33 72.194 0.219 8.46 3.4 7.97
8/11/2021 9:30:00 AM 22.37 72.266 0.219 8.46 3.16 8.05
8/11/2021 9:45:00 AM 22.42 72.356 0.219 8.48 3.24 8.1
8/11/2021 10:00:00 AM 22.53 72.554 0.219 8.52 3.18 8.29
8/11/2021 10:15:00 AM 22.64 72.752 0.219 8.55 3.26 8.41
8/11/2021 10:30:00 AM 22.75 72.95 0.218 8.58 3.21 8.53
8/11/2021 10:45:00 AM 22.9 73.22 0.218 8.62 3.15 8.6
8/11/2021 11:00:00 AM 23.1 73.58 0.218 8.67 3.21 8.75
8/11/2021 11:15:00 AM 23.3 73.94 0.218 8.72 3.11 8.85
8/11/2021 11:30:00 AM 23.5 74.3 0.218 8.77 3.25 8.91
8/11/2021 11:45:00 AM 23.69 74.642 0.218 8.83 3.22 9.02
8/11/2021 12:00:00 PM 23.96 75.128 0.218 8.91 3.08 9.1
8/11/2021 12:15:00 PM 24.18 75.524 0.217 8.98 3.18 9.19
8/11/2021 12:30:00 PM 24.33 75.794 0.217 9.01 3.12 9.19
8/11/2021 12:45:00 PM 24.43 75.974 0.217 9.06 3.23 9.2
8/11/2021 1:00:00 PM 24.61 76.298 0.217 9.11 3.13 9.22
8/11/2021 1:15:00 PM 24.88 76.784 0.217 9.16 2.98 9.23
8/11/2021 1:30:00 PM 25.07 77.126 0.217 9.21 3.1 9.2
8/11/2021 1:45:00 PM 25.2 77.36 0.217 9.23 3.07 9.14
8/11/2021 2:00:00 PM 25.35 77.63 0.217 9.25 2.93 9.12
8/11/2021 2:15:00 PM 25.46 77.828 0.217 9.27 3.03 9.09
8/11/2021 2:30:00 PM 25.63 78.134 0.217 9.31 3.01 9.1
8/11/2021 2:45:00 PM 25.79 78.422 0.217 9.33 3.05 9.1
8/11/2021 3:00:00 PM 25.92 78.656 0.217 9.36 3.07 9.03
8/11/2021 3:15:00 PM 26.02 78.836 0.217 9.37 3.08 8.99
8/11/2021 3:30:00 PM 26.1 78.98 0.217 9.38 3.32 8.95
8/11/2021 3:45:00 PM 26.12 79.016 0.217 9.39 3.2 8.93
8/11/2021 4:00:00 PM 26.16 79.088 0.217 9.41 3.02 8.95
8/11/2021 4:15:00 PM 26.18 79.124 0.217 9.4 3.1 8.89
8/11/2021 4:30:00 PM 26.18 79.124 0.217 9.4 3.16 8.83
8/11/2021 4:45:00 PM 26.17 79.106 0.217 9.38 3.15 8.76
8/11/2021 5:00:00 PM 26.15 79.07 0.218 9.35 3.15 8.65
8/11/2021 5:15:00 PM 26.12 79.016 0.218 9.32 3.47 8.61
8/11/2021 5:30:00 PM 26.08 78.944 0.218 9.29 3.19 8.51
8/11/2021 5:45:00 PM 26.03 78.854 0.218 9.24 3.26 8.44
8/11/2021 6:00:00 PM 25.98 78.764 0.218 9.18 3.1 8.28
8/11/2021 6:15:00 PM 25.92 78.656 0.218 9.13 3.1 8.19
8/11/2021 6:30:00 PM 25.86 78.548 0.219 9.07 3.2 8.05
8/11/2021 6:45:00 PM 25.78 78.404 0.219 9 3.28 7.93
8/11/2021 7:00:00 PM 25.68 78.224 0.219 8.94 3.09 7.81
8/11/2021 7:15:00 PM 25.57 78.026 0.219 8.87 3.2 7.67
8/11/2021 7:30:00 PM 25.47 77.846 0.22 8.82 3.29 7.55
8/11/2021 7:45:00 PM 25.37 77.666 0.22 8.76 3.35 7.42
8/11/2021 8:00:00 PM 25.27 77.486 0.22 8.72 3.19 7.32
8/11/2021 8:15:00 PM 25.16 77.288 0.22 8.67 3.29 7.21
8/11/2021 8:30:00 PM 25.07 77.126 0.221 8.63 3 7.09
8/11/2021 8:45:00 PM 24.96 76.92799 0.221 8.59 3.18 6.98
8/11/2021 9:00:00 PM 24.87 76.766 0.221 8.55 3.29 6.86
8/11/2021 9:15:00 PM 24.78 76.604 0.221 8.53 3.23 6.8
8/11/2021 9:30:00 PM 24.71 76.478 0.221 8.51 3.13 6.73
8/11/2021 9:45:00 PM 24.62 76.316 0.221 8.49 3.24 6.66
8/11/2021 10:00:00 PM 24.52 76.136 0.221 8.46 3.1 6.62
8/11/2021 10:15:00 PM 24.44 75.992 0.222 8.45 3.08 6.58
8/11/2021 10:30:00 PM 24.34 75.812 0.222 8.44 3.18 6.54
8/11/2021 10:45:00 PM 24.26 75.668 0.222 8.41 3.42 6.53
8/11/2021 11:00:00 PM 24.17 75.506 0.222 8.4 3.22 6.5
8/11/2021 11:15:00 PM 24.08 75.344 0.222 8.4 3.44 6.5
8/11/2021 11:30:00 PM 23.99 75.182 0.222 8.37 3.18 6.51
8/11/2021 11:45:00 PM 23.9 75.02 0.222 8.34 3.48 6.49
8/12/2021 12:00:00 AM 23.81 74.858 0.222 8.35 3.33 6.53
8/12/2021 12:15:00 AM 23.72 74.696 0.222 8.33 3.29 6.54
8/12/2021 12:30:00 AM 23.65 74.57 0.222 8.33 3.03 6.49
8/12/2021 12:45:00 AM 23.59 74.462 0.222 8.32 3.08 6.51
8/12/2021 1:00:00 AM 23.51 74.318 0.222 8.33 3.37 6.56
8/12/2021 1:15:00 AM 23.46 74.228 0.222 8.32 3.36 6.54
8/12/2021 1:30:00 AM 23.38 74.084 0.222 8.31 3.29 6.58
8/12/2021 1:45:00 AM 23.31 73.958 0.222 8.3 3.44 6.6
8/12/2021 2:00:00 AM 23.24 73.832 0.222 8.29 3.26 6.62
8/12/2021 2:15:00 AM 23.16 73.688 0.222 8.28 3.31 6.62
8/12/2021 2:30:00 AM 23.11 73.598 0.222 8.28 3.32 6.63
8/12/2021 2:45:00 AM 23.05 73.49 0.222 8.27 3.01 6.64
8/12/2021 3:00:00 AM 22.98 73.364 0.222 8.27 3.19 6.66
8/12/2021 3:15:00 AM 22.92 73.256 0.222 8.26 3.38 6.67
8/12/2021 3:30:00 AM 22.85 73.13 0.222 8.26 3.56 6.69
8/12/2021 3:45:00 AM 22.79 73.022 0.222 8.27 3.18 6.68
8/12/2021 4:00:00 AM 22.72 72.896 0.222 8.24 3.61 6.73
8/12/2021 4:15:00 AM 22.67 72.806 0.222 8.24 3.54 6.72
8/12/2021 4:30:00 AM 22.61 72.698 0.222 8.24 3.19 6.71
8/12/2021 4:45:00 AM 22.56 72.608 0.222 8.23 3.23 6.72
8/12/2021 5:00:00 AM 22.5 72.5 0.222 8.24 3.11 6.75
8/12/2021 5:15:00 AM 22.45 72.41 0.222 8.22 3.15 6.76
8/12/2021 5:30:00 AM 22.41 72.338 0.222 8.22 3.3 6.76
8/12/2021 5:45:00 AM 22.35 72.23 0.222 8.22 3.08 6.79
8/12/2021 6:00:00 AM 22.31 72.158 0.222 8.21 3.33 6.78
8/12/2021 6:15:00 AM 22.25 72.05 0.222 8.21 3.21 6.8
8/12/2021 6:30:00 AM 22.21 71.978 0.222 8.2 3.31 6.81
8/12/2021 6:45:00 AM 22.17 71.906 0.222 8.21 3.04 6.83
8/12/2021 7:00:00 AM 22.13 71.834 0.222 8.2 3.4 6.88
8/12/2021 7:15:00 AM 22.11 71.798 0.222 8.21 3.46 6.96
8/12/2021 7:30:00 AM 22.1 71.78 0.222 8.22 3.2 7.01
8/12/2021 7:45:00 AM 22.1 71.78 0.222 8.24 3.22 7.12
8/12/2021 8:00:00 AM 22.12 71.816 0.222 8.25 3.23 7.23
8/12/2021 8:15:00 AM 22.17 71.906 0.222 8.27 3.16 7.34
8/12/2021 8:30:00 AM 22.24 72.032 0.222 8.3 3.17 7.5
8/12/2021 8:45:00 AM 22.31 72.158 0.222 8.32 3.23 7.59
8/12/2021 9:00:00 AM 22.4 72.32 0.222 8.36 3.64 7.74
8/12/2021 9:15:00 AM 22.52 72.536 0.222 8.39 3.33 7.87
8/12/2021 9:30:00 AM 22.66 72.788 0.222 8.42 3.17 7.98
8/12/2021 9:45:00 AM 22.83 73.094 0.222 8.46 3.26 8.09
8/12/2021 10:00:00 AM 23.02 73.436 0.222 8.49 3.15 8.21
8/12/2021 10:15:00 AM 23.21 73.778 0.222 8.5 3.19 8.29
8/12/2021 10:30:00 AM 23.35 74.03 0.222 8.55 3.19 8.4
8/12/2021 10:45:00 AM 23.53 74.354 0.222 8.59 3.27 8.49
8/12/2021 11:00:00 AM 23.65 74.57 0.221 8.62 3.67 8.57
8/12/2021 11:15:00 AM 23.78 74.804 0.221 8.66 3.34 8.66
8/12/2021 11:30:00 AM 23.9 75.02 0.221 8.69 3.15 8.73
8/12/2021 11:45:00 AM 23.99 75.182 0.221 8.71 3.22 8.78
8/12/2021 12:00:00 PM 24.03 75.254 0.221 8.73 3.21 8.75
8/12/2021 12:15:00 PM 24.1 75.38 0.221 8.75 3.19 8.79
8/12/2021 12:30:00 PM 24.34 75.812 0.221 8.81 3.13 8.87
8/12/2021 12:45:00 PM 24.64 76.352 0.221 8.89 3 8.95
8/12/2021 1:00:00 PM 24.93 76.874 0.221 8.93 3 8.95
8/12/2021 1:15:00 PM 25.15 77.27 0.22 8.98 3.06 8.94
8/12/2021 1:30:00 PM 25.36 77.648 0.221 9.03 3.18 8.89
8/12/2021 1:45:00 PM 25.56 78.008 0.221 9.04 3.1 8.88
8/12/2021 2:00:00 PM 25.75 78.35 0.22 9.08 2.97 8.89
8/12/2021 2:15:00 PM 25.87 78.566 0.22 9.12 3.07 8.83
8/12/2021 2:30:00 PM 25.97 78.746 0.22 9.13 3.03 8.75
8/12/2021 2:45:00 PM 26.07 78.926 0.221 9.15 3.19 8.6
8/12/2021 3:00:00 PM 26.1 78.98 0.221 9.11 3.08 8.45
8/12/2021 3:15:00 PM 26.1 78.98 0.221 9.08 3.39 8.24
8/12/2021 3:30:00 PM 26.08 78.944 0.221 9.03 3.04 8.09
8/12/2021 3:45:00 PM 26.05 78.89 0.221 9.01 3.1 8.02
8/12/2021 4:00:00 PM 26.01 78.818 0.222 8.99 2.93 8
8/12/2021 4:15:00 PM 25.97 78.746 0.222 8.97 3.02 8
8/12/2021 4:30:00 PM 25.9 78.62 0.222 8.93 2.96 7.96
8/12/2021 4:45:00 PM 25.85 78.53 0.222 8.88 3.08 7.89
8/12/2021 5:00:00 PM 25.82 78.476 0.223 8.86 3.05 7.84
8/12/2021 5:15:00 PM 25.8 78.44 0.223 8.85 2.9 7.84
8/12/2021 5:30:00 PM 25.76 78.368 0.223 8.85 3.01 7.88
8/12/2021 5:45:00 PM 25.68 78.224 0.223 8.84 3.03 7.87
8/12/2021 6:00:00 PM 25.6 78.08 0.223 8.82 3.2 7.82
8/12/2021 6:15:00 PM 25.51 77.918 0.223 8.8 3.26 7.77
8/12/2021 6:30:00 PM 25.42 77.756 0.224 8.77 3.2 7.71
8/12/2021 6:45:00 PM 25.34 77.612 0.224 8.74 3.17 7.62
8/12/2021 7:00:00 PM 25.28 77.504 0.224 8.72 3.09 7.64
8/12/2021 7:15:00 PM 25.2 77.36 0.224 8.71 3.07 7.59
8/12/2021 7:30:00 PM 25.1 77.18 0.224 8.68 3.18 7.49
8/12/2021 7:45:00 PM 24.97 76.946 0.224 8.63 3.38 7.32
8/12/2021 8:00:00 PM 24.86 76.748 0.224 8.64 3.19 7.22
8/12/2021 8:15:00 PM 24.77 76.586 0.224 8.57 3.19 7.15
8/12/2021 8:30:00 PM 24.69 76.442 0.225 8.54 3.37 7.04
8/12/2021 8:45:00 PM 24.6 76.28 0.225 8.52 3.28 6.99
8/12/2021 9:00:00 PM 24.52 76.136 0.225 8.5 3.08 6.91
8/12/2021 9:15:00 PM 24.44 75.992 0.225 8.47 3.42 6.82
8/12/2021 9:30:00 PM 24.36 75.848 0.225 8.45 3.27 6.74
8/12/2021 9:45:00 PM 24.29 75.722 0.225 8.43 3.37 6.66
8/12/2021 10:00:00 PM 24.23 75.614 0.226 8.41 3.42 6.6
8/12/2021 10:15:00 PM 24.16 75.488 0.226 8.4 3.21 6.58
8/12/2021 10:30:00 PM 24.09 75.362 0.226 8.38 3.33 6.55
8/12/2021 10:45:00 PM 24.04 75.272 0.226 8.37 3.23 6.51
8/12/2021 11:00:00 PM 23.98 75.164 0.226 8.36 3.36 6.51
8/12/2021 11:15:00 PM 23.93 75.074 0.226 8.36 3.27 6.51
8/12/2021 11:30:00 PM 23.87 74.966 0.226 8.34 3.14 6.5
8/12/2021 11:45:00 PM 23.82 74.876 0.226 8.33 3.45 6.49
8/13/2021 12:00:00 AM 23.76 74.768 0.226 8.32 3.1 6.51
8/13/2021 12:15:00 AM 23.72 74.696 0.226 8.33 3.2 6.47
8/13/2021 12:30:00 AM 23.67 74.606 0.226 8.31 3.19 6.51
8/13/2021 12:45:00 AM 23.62 74.516 0.226 8.31 3.17 6.53
8/13/2021 1:00:00 AM 23.58 74.444 0.226 8.3 3.1 6.51
8/13/2021 1:15:00 AM 23.53 74.354 0.226 8.3 3.09 6.53
8/13/2021 1:30:00 AM 23.49 74.282 0.226 8.3 3.33 6.54
8/13/2021 1:45:00 AM 23.45 74.21 0.226 8.29 3.19 6.51
8/13/2021 2:00:00 AM 23.4 74.12 0.226 8.29 3.31 6.53
8/13/2021 2:15:00 AM 23.35 74.03 0.226 8.29 3.43 6.54
8/13/2021 2:30:00 AM 23.3 73.94 0.226 8.28 3.23 6.58
8/13/2021 2:45:00 AM 23.26 73.868 0.226 8.27 3.45 6.53
8/13/2021 3:00:00 AM 23.21 73.778 0.226 8.27 3.61 6.55
8/13/2021 3:15:00 AM 23.15 73.67 0.226 8.26 3.42 6.56
8/13/2021 3:30:00 AM 23.09 73.562 0.226 8.26 3.33 6.62
8/13/2021 3:45:00 AM 23.05 73.49 0.226 8.25 3.34 6.6
8/13/2021 4:00:00 AM 22.99 73.382 0.226 8.24 3.46 6.61
8/13/2021 4:15:00 AM 22.93 73.274 0.226 8.23 3.4 6.63
8/13/2021 4:30:00 AM 22.88 73.184 0.226 8.23 3.43 6.62
8/13/2021 4:45:00 AM 22.82 73.076 0.226 8.22 3.33 6.61
8/13/2021 5:00:00 AM 22.75 72.95 0.226 8.22 3.32 6.66
8/13/2021 5:15:00 AM 22.7 72.86 0.226 8.21 3.47 6.63
8/13/2021 5:30:00 AM 22.63 72.734 0.226 8.2 3.28 6.69
8/13/2021 5:45:00 AM 22.56 72.608 0.226 8.19 3.35 6.68
8/13/2021 6:00:00 AM 22.51 72.518 0.226 8.19 3.4 6.65
8/13/2021 6:15:00 AM 22.44 72.392 0.226 8.19 3.29 6.7
8/13/2021 6:30:00 AM 22.39 72.302 0.226 8.19 3.45 6.69
8/13/2021 6:45:00 AM 22.33 72.194 0.226 8.19 3.36 6.73
8/13/2021 7:00:00 AM 22.29 72.122 0.226 8.18 3.27 6.76
8/13/2021 7:15:00 AM 22.26 72.068 0.226 8.19 3.44 6.86
8/13/2021 7:30:00 AM 22.26 72.068 0.226 8.2 3.38 6.98
8/13/2021 7:45:00 AM 22.27 72.086 0.226 8.22 3.44 7.06
8/13/2021 8:00:00 AM 22.29 72.122 0.226 8.24 3.45 7.19
8/13/2021 8:15:00 AM 22.3 72.14 0.226 8.25 3.41 7.29
8/13/2021 8:30:00 AM 22.32 72.176 0.226 8.27 3.31 7.37
8/13/2021 8:45:00 AM 22.35 72.23 0.226 8.3 3.17 7.49
8/13/2021 9:00:00 AM 22.4 72.32 0.226 8.31 3.5 7.64
8/13/2021 9:15:00 AM 22.46 72.42799 0.226 8.34 3.44 7.78
8/13/2021 9:30:00 AM 22.59 72.662 0.226 8.38 3.27 7.94
8/13/2021 9:45:00 AM 22.8 73.04 0.225 8.43 3.39 8.06
8/13/2021 10:00:00 AM 22.97 73.346 0.225 8.47 3.35 8.2
8/13/2021 10:15:00 AM 23.14 73.652 0.225 8.5 3.19 8.28
8/13/2021 10:30:00 AM 23.3 73.94 0.225 8.53 3.12 8.41
8/13/2021 10:45:00 AM 23.39 74.102 0.225 8.55 3.35 8.51
8/13/2021 11:00:00 AM 23.45 74.21 0.225 8.57 3.36 8.56
8/13/2021 11:15:00 AM 23.59 74.462 0.225 8.61 3.38 8.67
8/13/2021 11:30:00 AM 23.77 74.786 0.224 8.65 3.18 8.73
8/13/2021 11:45:00 AM 24 75.2 0.224 8.71 3.15 8.84
8/13/2021 12:00:00 PM 24.25 75.65 0.224 8.74 3.33 8.91
8/13/2021 12:15:00 PM 24.5 76.1 0.224 8.8 3.23 8.99
8/13/2021 12:30:00 PM 24.7 76.46 0.224 8.84 3.33 9
8/13/2021 12:45:00 PM 24.83 76.694 0.224 8.87 3.07 9.02
8/13/2021 1:00:00 PM 25.13 77.234 0.224 8.93 3.21 9.05
8/13/2021 1:15:00 PM 25.45 77.81 0.224 8.99 3.16 9.1
8/13/2021 1:30:00 PM 25.8 78.44 0.223 9.07 3.25 9.11
8/13/2021 1:45:00 PM 26.15 79.07 0.223 9.13 3.12 9.08
8/13/2021 2:00:00 PM 26.47 79.646 0.223 9.2 3.16 9.07
8/13/2021 2:15:00 PM 26.65 79.97 0.223 9.22 3.24 8.99
8/13/2021 2:30:00 PM 26.88 80.384 0.223 9.26 3.4 8.92
8/13/2021 2:45:00 PM 27.06 80.708 0.223 9.3 3.28 8.87
8/13/2021 3:00:00 PM 27.16 80.888 0.223 9.32 3.25 8.84
8/13/2021 3:15:00 PM 27.32 81.176 0.223 9.36 3.43 8.8
8/13/2021 3:30:00 PM 27.44 81.392 0.223 9.38 3.24 8.77
8/13/2021 3:45:00 PM 27.46 81.42799 0.224 9.39 3.6 8.73
8/13/2021 4:00:00 PM 27.48 81.464 0.224 9.38 3.29 8.64
8/13/2021 4:15:00 PM 27.41 81.338 0.224 9.39 3.38 8.51
8/13/2021 4:30:00 PM 27.36 81.248 0.224 9.36 3.23 8.44
8/13/2021 4:45:00 PM 27.25 81.05 0.224 9.31 3.08 8.27
8/13/2021 5:00:00 PM 27.12 80.816 0.225 9.25 3.33 8.17
8/13/2021 5:15:00 PM 27 80.6 0.225 9.21 3.14 8
8/13/2021 5:30:00 PM 26.83 80.294 0.225 9.1 3.17 7.79
8/13/2021 5:45:00 PM 26.68 80.024 0.225 9.01 3.21 7.64
8/13/2021 6:00:00 PM 26.54 79.772 0.225 8.95 3.13 7.52
8/13/2021 6:15:00 PM 26.44 79.592 0.225 8.9 3.24 7.45
8/13/2021 6:30:00 PM 26.31 79.358 0.225 8.88 3.54 7.46
8/13/2021 6:45:00 PM 26.18 79.124 0.226 8.83 2.95 7.42
8/13/2021 7:00:00 PM 26.04 78.872 0.226 8.79 3.21 7.33
8/13/2021 7:15:00 PM 25.9 78.62 0.226 8.75 3.03 7.25
8/13/2021 7:30:00 PM 25.73 78.314 0.226 8.71 3.48 7.22
8/13/2021 7:45:00 PM 25.58 78.044 0.226 8.68 3.23 7.19
8/13/2021 8:00:00 PM 25.46 77.828 0.226 8.65 3.07 7.14
8/13/2021 8:15:00 PM 25.3 77.54 0.226 8.62 3.47 7.11
8/13/2021 8:30:00 PM 25.18 77.324 0.226 8.59 3.31 7.01
8/13/2021 8:45:00 PM 25.04 77.07201 0.226 8.57 3.15 6.94
8/13/2021 9:00:00 PM 24.9 76.82 0.226 8.54 3.27 6.9
8/13/2021 9:15:00 PM 24.77 76.586 0.226 8.51 3.32 6.82
8/13/2021 9:30:00 PM 24.64 76.352 0.226 8.48 3.31 6.75
8/13/2021 9:45:00 PM 24.53 76.154 0.226 8.45 3.5 6.66
8/13/2021 10:00:00 PM 24.39 75.902 0.226 8.43 3.25 6.63
8/13/2021 10:15:00 PM 24.28 75.704 0.226 8.42 3.54 6.56
8/13/2021 10:30:00 PM 24.18 75.524 0.226 8.4 3.82 6.58
8/13/2021 10:45:00 PM 24.09 75.362 0.226 8.39 3.7 6.57
8/13/2021 11:00:00 PM 24.01 75.218 0.226 8.37 3.53 6.58
8/13/2021 11:15:00 PM 23.93 75.074 0.226 8.36 3.23 6.57
8/13/2021 11:30:00 PM 23.86 74.948 0.227 8.35 3.47 6.58
8/13/2021 11:45:00 PM 23.79 74.82201 0.227 8.35 3.69 6.57
8/14/2021 12:00:00 AM 23.73 74.714 0.227 8.34 3.32 6.58
8/14/2021 12:15:00 AM 23.65 74.57 0.227 8.33 3.36 6.61
8/14/2021 12:30:00 AM 23.58 74.444 0.227 8.32 3.46 6.59
8/14/2021 12:45:00 AM 23.51 74.318 0.227 8.32 3.39 6.61
8/14/2021 1:00:00 AM 23.47 74.246 0.227 8.3 3.49 6.61
8/14/2021 1:15:00 AM 23.4 74.12 0.226 8.31 3.23 6.66
8/14/2021 1:30:00 AM 23.35 74.03 0.226 8.31 3.35 6.66
8/14/2021 1:45:00 AM 23.3 73.94 0.226 8.3 3.35 6.68
8/14/2021 2:00:00 AM 23.27 73.886 0.227 8.29 3.48 6.64
8/14/2021 2:15:00 AM 23.22 73.796 0.227 8.29 3.29 6.66
8/14/2021 2:30:00 AM 23.18 73.724 0.227 8.28 3.27 6.66
8/14/2021 2:45:00 AM 23.15 73.67 0.227 8.28 3.23 6.69
8/14/2021 3:00:00 AM 23.11 73.598 0.227 8.27 3.35 6.64
8/14/2021 3:15:00 AM 23.07 73.526 0.227 8.26 3.52 6.7
8/14/2021 3:30:00 AM 23.03 73.454 0.226 8.27 3.58 6.66
8/14/2021 3:45:00 AM 23 73.4 0.227 8.26 3.52 6.69
8/14/2021 4:00:00 AM 22.96 73.328 0.226 8.25 3.63 6.7
8/14/2021 4:15:00 AM 22.93 73.274 0.227 8.24 3.62 6.69
8/14/2021 4:30:00 AM 22.89 73.202 0.227 8.24 4.05 6.7
8/14/2021 4:45:00 AM 22.85 73.13 0.227 8.23 3.52 6.68
8/14/2021 5:00:00 AM 22.81 73.058 0.227 8.22 3.7 6.69
8/14/2021 5:15:00 AM 22.78 73.004 0.227 8.22 3.73 6.69
8/14/2021 5:30:00 AM 22.74 72.932 0.227 8.22 3.55 6.68
8/14/2021 5:45:00 AM 22.71 72.878 0.227 8.21 3.91 6.69
8/14/2021 6:00:00 AM 22.68 72.824 0.227 8.22 3.61 6.75
8/14/2021 6:15:00 AM 22.65 72.77 0.227 8.21 3.41 6.72
8/14/2021 6:30:00 AM 22.63 72.734 0.227 8.22 3.4 6.73
8/14/2021 6:45:00 AM 22.59 72.662 0.227 8.22 3.79 6.76
8/14/2021 7:00:00 AM 22.57 72.626 0.227 8.23 3.56 6.73
8/14/2021 7:15:00 AM 22.52 72.536 0.227 8.23 3.55 6.79
8/14/2021 7:30:00 AM 22.47 72.446 0.227 8.23 3.53 6.81
8/14/2021 7:45:00 AM 22.44 72.392 0.227 8.23 3.52 6.81
8/14/2021 8:00:00 AM 22.4 72.32 0.227 8.24 3.46 6.9
8/14/2021 8:15:00 AM 22.38 72.284 0.227 8.24 3.53 6.96
8/14/2021 8:30:00 AM 22.35 72.23 0.227 8.24 3.63 7
8/14/2021 8:45:00 AM 22.33 72.194 0.227 8.24 3.45 7.07
8/14/2021 9:00:00 AM 22.31 72.158 0.227 8.26 3.32 7.21
8/14/2021 9:15:00 AM 22.3 72.14 0.227 8.26 3.32 7.26
8/14/2021 9:30:00 AM 22.29 72.122 0.227 8.28 3.42 7.37
8/14/2021 9:45:00 AM 22.29 72.122 0.227 8.29 3.4 7.54
8/14/2021 10:00:00 AM 22.28 72.104 0.227 8.31 3.42 7.65
8/14/2021 10:15:00 AM 22.27 72.086 0.227 8.32 3.38 7.81
8/14/2021 10:30:00 AM 22.27 72.086 0.227 8.34 3.25 7.97
8/14/2021 10:45:00 AM 22.25 72.05 0.226 8.35 3.33 8
8/14/2021 11:00:00 AM 22.24 72.032 0.226 8.37 3.18 8.1
8/14/2021 11:15:00 AM 22.27 72.086 0.226 8.39 3.21 8.21
8/14/2021 11:30:00 AM 22.31 72.158 0.226 8.43 3.33 8.36
8/14/2021 11:45:00 AM 22.39 72.302 0.226 8.48 3.38 8.55
8/14/2021 12:00:00 PM 22.47 72.446 0.226 8.5 3.13 8.62
8/14/2021 12:15:00 PM 22.56 72.608 0.226 8.55 3.26 8.75
8/14/2021 12:30:00 PM 22.64 72.752 0.226 8.58 3.4 8.87
8/14/2021 12:45:00 PM 22.71 72.878 0.225 8.61 3.41 8.92
8/14/2021 1:00:00 PM 22.79 73.022 0.225 8.65 3.42 9.02
8/14/2021 1:15:00 PM 22.92 73.256 0.225 8.71 3.55 9.12
8/14/2021 1:30:00 PM 23.06 73.508 0.225 8.75 3.35 9.2
8/14/2021 1:45:00 PM 23.19 73.742 0.225 8.78 3.26 9.22
8/14/2021 2:00:00 PM 23.38 74.084 0.225 8.84 3.27 9.25
8/14/2021 2:15:00 PM 23.64 74.552 0.224 8.9 3.3 9.3
8/14/2021 2:30:00 PM 23.85 74.93 0.224 8.93 3.39 9.29
8/14/2021 2:45:00 PM 24.05 75.29 0.224 8.96 3.4 9.26
8/14/2021 3:00:00 PM 24.23 75.614 0.224 9.01 3.4 9.23
8/14/2021 3:15:00 PM 24.37 75.866 0.224 9.03 3.3 9.19
8/14/2021 3:30:00 PM 24.49 76.082 0.224 9.04 3.33 9.16
8/14/2021 3:45:00 PM 24.6 76.28 0.224 9.06 3.12 9.12
8/14/2021 4:00:00 PM 24.62 76.316 0.224 9.06 3.72 9.08
8/14/2021 4:15:00 PM 24.66 76.388 0.224 9.05 3.38 8.98
8/14/2021 4:30:00 PM 24.61 76.298 0.225 9.04 3.42 8.88
8/14/2021 4:45:00 PM 24.54 76.172 0.225 8.99 3.23 8.79
8/14/2021 5:00:00 PM 24.51 76.118 0.225 8.97 3.18 8.7
8/14/2021 5:15:00 PM 24.44 75.992 0.225 8.93 3.1 8.6
8/14/2021 5:30:00 PM 24.38 75.884 0.225 8.89 3.15 8.56
8/14/2021 5:45:00 PM 24.34 75.812 0.225 8.84 3.09 8.43
8/14/2021 6:00:00 PM 24.26 75.668 0.225 8.81 3.05 8.34
8/14/2021 6:15:00 PM 24.2 75.56 0.226 8.77 2.99 8.28
8/14/2021 6:30:00 PM 24.13 75.434 0.226 8.71 3.03 8.15
8/14/2021 6:45:00 PM 24.06 75.308 0.226 8.66 3.23 8.04
8/14/2021 7:00:00 PM 23.99 75.182 0.226 8.62 3.18 7.92
8/14/2021 7:15:00 PM 23.91 75.038 0.226 8.57 3.17 7.77
8/14/2021 7:30:00 PM 23.81 74.858 0.226 8.53 3.25 7.7
8/14/2021 7:45:00 PM 23.7 74.66 0.227 8.49 3.12 7.6
8/14/2021 8:00:00 PM 23.56 74.408 0.227 8.44 3.23 7.48
8/14/2021 8:15:00 PM 23.43 74.174 0.227 8.4 3.5 7.41
8/14/2021 8:30:00 PM 23.29 73.922 0.227 8.36 3.3 7.29
8/14/2021 8:45:00 PM 23.16 73.688 0.227 8.31 3.29 7.18
8/14/2021 9:00:00 PM 23.01 73.418 0.227 8.29 3.48 7.13
8/14/2021 9:15:00 PM 22.87 73.166 0.228 8.27 3.58 7.09
8/14/2021 9:30:00 PM 22.76 72.968 0.228 8.24 3.4 7.01
8/14/2021 9:45:00 PM 22.65 72.77 0.228 8.22 3.52 6.98
8/14/2021 10:00:00 PM 22.52 72.536 0.228 8.21 3.53 6.93
8/14/2021 10:15:00 PM 22.41 72.338 0.228 8.19 3.7 6.9
8/14/2021 10:30:00 PM 22.31 72.158 0.228 8.18 4.49 6.87
8/14/2021 10:45:00 PM 22.19 71.942 0.228 8.19 3.48 6.89
8/14/2021 11:00:00 PM 22.09 71.762 0.228 8.15 3.6 6.9
8/14/2021 11:15:00 PM 22 71.6 0.228 8.14 3.94 6.85
8/14/2021 11:30:00 PM 21.88 71.384 0.228 8.14 3.57 6.88
8/14/2021 11:45:00 PM 21.77 71.186 0.228 8.12 3.62 6.92
8/15/2021 12:00:00 AM 21.65 70.97 0.228 8.12 3.69 6.91
8/15/2021 12:15:00 AM 21.56 70.808 0.228 8.1 3.49 6.87
8/15/2021 12:30:00 AM 21.44 70.592 0.228 8.08 3.77 6.93
8/15/2021 12:45:00 AM 21.34 70.412 0.228 8.09 3.76 6.96
8/15/2021 1:00:00 AM 21.24 70.232 0.228 8.07 4.05 6.95
8/15/2021 1:15:00 AM 21.11 69.998 0.228 8.07 3.84 6.98
8/15/2021 1:30:00 AM 21 69.8 0.228 8.06 3.52 6.99
8/15/2021 1:45:00 AM 20.89 69.602 0.228 8.05 3.63 7.02
8/15/2021 2:00:00 AM 20.78 69.404 0.228 8.06 3.73 7.04
8/15/2021 2:15:00 AM 20.68 69.224 0.228 8.05 3.91 7.05
8/15/2021 2:30:00 AM 20.55 68.99 0.228 8.04 3.84 7.08
8/15/2021 2:45:00 AM 20.44 68.792 0.228 8.03 3.72 7.12
8/15/2021 3:00:00 AM 20.34 68.612 0.228 8.03 3.68 7.14
8/15/2021 3:15:00 AM 20.22 68.396 0.228 8.02 3.54 7.16
8/15/2021 3:30:00 AM 20.13 68.234 0.228 8.02 3.69 7.2
8/15/2021 3:45:00 AM 20.02 68.036 0.228 8.02 3.6 7.22
8/15/2021 4:00:00 AM 19.94 67.892 0.228 8.01 3.67 7.22
8/15/2021 4:15:00 AM 19.83 67.694 0.228 8.01 3.62 7.22
8/15/2021 4:30:00 AM 19.72 67.496 0.228 8 3.87 7.27
8/15/2021 4:45:00 AM 19.64 67.352 0.228 7.99 3.82 7.28
8/15/2021 5:00:00 AM 19.52 67.136 0.228 8 3.63 7.31
8/15/2021 5:15:00 AM 19.44 66.992 0.228 7.99 3.52 7.31
8/15/2021 5:30:00 AM 19.36 66.848 0.228 7.99 3.49 7.37
8/15/2021 5:45:00 AM 19.27 66.686 0.228 7.99 3.49 7.39
8/15/2021 6:00:00 AM 19.19 66.542 0.228 7.98 3.69 7.37
8/15/2021 6:15:00 AM 19.11 66.398 0.228 7.98 3.82 7.4
8/15/2021 6:30:00 AM 19 66.2 0.228 7.98 3.85 7.44
8/15/2021 6:45:00 AM 18.93 66.074 0.228 7.98 3.86 7.44
8/15/2021 7:00:00 AM 18.86 65.948 0.228 7.98 3.7 7.49
8/15/2021 7:15:00 AM 18.81 65.858 0.228 7.98 3.68 7.56
8/15/2021 7:30:00 AM 18.78 65.804 0.228 7.99 3.55 7.65
8/15/2021 7:45:00 AM 18.76 65.768 0.228 7.99 3.43 7.75
8/15/2021 8:00:00 AM 18.75 65.75 0.228 8.02 3.5 7.89
8/15/2021 8:15:00 AM 18.73 65.714 0.227 8.04 3.4 8.05
8/15/2021 8:30:00 AM 18.77 65.786 0.227 8.06 3.54 8.15
8/15/2021 8:45:00 AM 18.83 65.894 0.227 8.1 3.6 8.32
8/15/2021 9:00:00 AM 18.85 65.93 0.227 8.1 3.52 8.47
8/15/2021 9:15:00 AM 18.89 66.002 0.227 8.15 3.46 8.54
8/15/2021 9:30:00 AM 19.03 66.254 0.227 8.18 3.48 8.67
8/15/2021 9:45:00 AM 19.22 66.596 0.227 8.23 3.37 8.75
8/15/2021 10:00:00 AM 19.42 66.956 0.227 8.27 3.55 8.92
8/15/2021 10:15:00 AM 19.54 67.172 0.227 8.29 3.55 8.97
8/15/2021 10:30:00 AM 19.69 67.442 0.227 8.3 3.45 9.07
8/15/2021 10:45:00 AM 19.86 67.748 0.227 8.34 3.71 9.15
8/15/2021 11:00:00 AM 20.12 68.216 0.227 8.37 3.37 9.22
8/15/2021 11:15:00 AM 20.37 68.666 0.227 8.41 3.22 9.28
8/15/2021 11:30:00 AM 20.66 69.188 0.227 8.43 3.29 9.31
8/15/2021 11:45:00 AM 20.98 69.764 0.227 8.45 3.31 9.34
8/15/2021 12:00:00 PM 21.23 70.214 0.227 8.49 3.24 9.37
8/15/2021 12:15:00 PM 21.44 70.592 0.227 8.52 3.2 9.4
8/15/2021 12:30:00 PM 21.63 70.934 0.227 8.54 3.39 9.41
8/15/2021 12:45:00 PM 21.75 71.15 0.227 8.57 3.44 9.42
8/15/2021 1:00:00 PM 21.96 71.528 0.226 8.6 3.24 9.47
8/15/2021 1:15:00 PM 22.29 72.122 0.226 8.68 3.41 9.48
8/15/2021 1:30:00 PM 22.4 72.32 0.226 8.7 3.2 9.51
8/15/2021 1:45:00 PM 22.53 72.554 0.226 8.73 3.33 9.53
8/15/2021 2:00:00 PM 22.68 72.824 0.226 8.76 3.28 9.49
8/15/2021 2:15:00 PM 22.79 73.022 0.226 8.78 3.33 9.49
8/15/2021 2:30:00 PM 22.86 73.148 0.226 8.81 3.37 9.51
8/15/2021 2:45:00 PM 23.04 73.472 0.226 8.86 3.52 9.57
8/15/2021 3:00:00 PM 23.12 73.616 0.226 8.9 3.39 9.55
8/15/2021 3:15:00 PM 23.23 73.814 0.226 8.92 3.29 9.5
8/15/2021 3:30:00 PM 23.44 74.192 0.225 8.98 3.35 9.48
8/15/2021 3:45:00 PM 23.6 74.48 0.226 9.01 3.24 9.44
8/15/2021 4:00:00 PM 23.55 74.39 0.226 9.03 3.31 9.39
8/15/2021 4:15:00 PM 23.55 74.39 0.226 9 3.31 9.37
8/15/2021 4:30:00 PM 23.52 74.336 0.226 8.99 3.14 9.31
8/15/2021 4:45:00 PM 23.5 74.3 0.226 8.96 3.39 9.23
8/15/2021 5:00:00 PM 23.49 74.282 0.226 8.97 3.17 9.19
8/15/2021 5:15:00 PM 23.47 74.246 0.226 8.96 3.42 9.12
8/15/2021 5:30:00 PM 23.45 74.21 0.226 8.94 3.07 9.05
8/15/2021 5:45:00 PM 23.4 74.12 0.226 8.92 3.36 9.01
8/15/2021 6:00:00 PM 23.36 74.048 0.226 8.88 3.34 8.87
8/15/2021 6:15:00 PM 23.29 73.922 0.227 8.85 3.3 8.8
8/15/2021 6:30:00 PM 23.21 73.778 0.227 8.81 3.49 8.73
8/15/2021 6:45:00 PM 23.14 73.652 0.227 8.77 3.26 8.67
8/15/2021 7:00:00 PM 23.04 73.472 0.227 8.71 3.56 8.59
8/15/2021 7:15:00 PM 22.97 73.346 0.227 8.68 3.42 8.52
8/15/2021 7:30:00 PM 22.89 73.202 0.227 8.62 3.31 8.4
8/15/2021 7:45:00 PM 22.78 73.004 0.228 8.58 3.22 8.3
8/15/2021 8:00:00 PM 22.67 72.806 0.228 8.51 3.28 8.15
8/15/2021 8:15:00 PM 22.55 72.59 0.228 8.45 3.23 8.04
8/15/2021 8:30:00 PM 22.43 72.374 0.228 8.39 3.39 7.92
8/15/2021 8:45:00 PM 22.31 72.158 0.229 8.34 3.31 7.81
8/15/2021 9:00:00 PM 22.2 71.96 0.229 8.3 3.42 7.67
8/15/2021 9:15:00 PM 22.08 71.744 0.229 8.26 3.79 7.55
8/15/2021 9:30:00 PM 21.98 71.564 0.229 8.23 3.57 7.45
8/15/2021 9:45:00 PM 21.86 71.348 0.23 8.2 3.41 7.39
8/15/2021 10:00:00 PM 21.75 71.15 0.23 8.17 3.67 7.32
8/15/2021 10:15:00 PM 21.66 70.988 0.23 8.15 3.31 7.2
8/15/2021 10:30:00 PM 21.55 70.79 0.23 8.12 3.32 7.14
8/15/2021 10:45:00 PM 21.45 70.61 0.23 8.1 3.31 7.1
8/15/2021 11:00:00 PM 21.34 70.412 0.23 8.09 3.33 7.07
8/15/2021 11:15:00 PM 21.25 70.25 0.231 8.07 3.38 7.03
8/15/2021 11:30:00 PM 21.16 70.088 0.23 8.06 3.46 7.01
8/15/2021 11:45:00 PM 21.06 69.908 0.231 8.05 3.61 7.01
8/16/2021 12:00:00 AM 20.96 69.728 0.231 8.04 3.61 7.01
8/16/2021 12:15:00 AM 20.87 69.566 0.231 8.04 3.76 7.02
8/16/2021 12:30:00 AM 20.78 69.404 0.231 8.02 3.38 6.97
8/16/2021 12:45:00 AM 20.68 69.224 0.231 8.01 3.51 7.04
8/16/2021 1:00:00 AM 20.57 69.026 0.231 8.02 4.43 7.08
8/16/2021 1:15:00 AM 20.48 68.864 0.231 8.01 3.99 7.08
8/16/2021 1:30:00 AM 20.39 68.702 0.231 8.01 3.83 7.12
8/16/2021 1:45:00 AM 20.31 68.558 0.231 7.99 3.86 7.05
8/16/2021 2:00:00 AM 20.21 68.378 0.231 7.99 6.12 7.13
8/16/2021 2:15:00 AM 20.12 68.216 0.231 7.98 4.17 7.12
8/16/2021 2:30:00 AM 20.05 68.09 0.231 7.98 3.8 7.12
8/16/2021 2:45:00 AM 19.95 67.91 0.231 7.95 3.63 7.15
8/16/2021 3:00:00 AM 19.88 67.784 0.231 7.97 3.49 7.14
8/16/2021 3:15:00 AM 19.8 67.64 0.231 7.96 3.65 7.12
8/16/2021 3:30:00 AM 19.71 67.478 0.231 7.96 3.81 7.19
8/16/2021 3:45:00 AM 19.63 67.334 0.23 7.96 3.64 7.19
8/16/2021 4:00:00 AM 19.56 67.208 0.231 7.95 3.45 7.2
8/16/2021 4:15:00 AM 19.48 67.064 0.23 7.95 3.57 7.27
8/16/2021 4:30:00 AM 19.4 66.92 0.231 7.95 3.58 7.26
8/16/2021 4:45:00 AM 19.32 66.776 0.231 7.94 3.65 7.28
8/16/2021 5:00:00 AM 19.25 66.65 0.231 7.94 3.98 7.28
8/16/2021 5:15:00 AM 19.17 66.506 0.231 7.94 3.36 7.32
8/16/2021 5:30:00 AM 19.1 66.38 0.23 7.94 3.37 7.3
8/16/2021 5:45:00 AM 19.03 66.254 0.231 7.94 3.48 7.33
8/16/2021 6:00:00 AM 18.97 66.146 0.231 7.93 3.82 7.37
8/16/2021 6:15:00 AM 18.91 66.038 0.231 7.93 3.42 7.36
8/16/2021 6:30:00 AM 18.86 65.948 0.23 7.91 3.51 7.4
8/16/2021 6:45:00 AM 18.82 65.876 0.231 7.93 3.39 7.38
8/16/2021 7:00:00 AM 18.78 65.804 0.23 7.93 3.41 7.37
8/16/2021 7:15:00 AM 18.75 65.75 0.23 7.94 3.44 7.43
8/16/2021 7:30:00 AM 18.72 65.696 0.23 7.93 3.34 7.47
8/16/2021 7:45:00 AM 18.71 65.67799 0.23 7.95 3.4 7.57
8/16/2021 8:00:00 AM 18.71 65.67799 0.23 7.97 3.37 7.8
8/16/2021 8:15:00 AM 18.75 65.75 0.23 7.99 3.37 7.87
8/16/2021 8:30:00 AM 18.8 65.84 0.23 8.02 3.25 8.02
8/16/2021 8:45:00 AM 18.85 65.93 0.23 8.04 3.51 8.11
8/16/2021 9:00:00 AM 18.9 66.02 0.23 8.06 3.28 8.23
8/16/2021 9:15:00 AM 18.94 66.092 0.23 8.06 3.26 8.3
8/16/2021 9:30:00 AM 19.01 66.218 0.23 8.08 3.08 8.46
8/16/2021 9:45:00 AM 19.1 66.38 0.229 8.13 3.26 8.6
8/16/2021 10:00:00 AM 19.19 66.542 0.229 8.16 3.15 8.75
8/16/2021 10:15:00 AM 19.29 66.722 0.229 8.2 3.17 8.93
8/16/2021 10:30:00 AM 19.36 66.848 0.229 8.18 3.23 9.01
8/16/2021 10:45:00 AM 19.45 67.01 0.229 8.24 3.08 9.1
8/16/2021 11:00:00 AM 19.52 67.136 0.229 8.26 3.1 9.17
8/16/2021 11:15:00 AM 19.61 67.298 0.228 8.3 3.16 9.26
8/16/2021 11:30:00 AM 19.69 67.442 0.228 8.32 3.15 9.28
8/16/2021 11:45:00 AM 19.82 67.676 0.228 8.34 3.21 9.41
8/16/2021 12:00:00 PM 19.98 67.964 0.228 8.41 3.12 9.49
8/16/2021 12:15:00 PM 20.15 68.27 0.228 8.44 3.21 9.58
8/16/2021 12:30:00 PM 20.32 68.576 0.228 8.51 3.21 9.67
8/16/2021 12:45:00 PM 20.58 69.044 0.228 8.56 3.19 9.72
8/16/2021 1:00:00 PM 20.8 69.44 0.227 8.62 3.29 9.77
8/16/2021 1:15:00 PM 21.1 69.98 0.228 8.65 3.22 9.81
8/16/2021 1:30:00 PM 21.3 70.34 0.227 8.69 3.17 9.82
8/16/2021 1:45:00 PM 21.47 70.646 0.227 8.72 3.13 9.85
8/16/2021 2:00:00 PM 21.66 70.988 0.227 8.75 3.17 9.83
8/16/2021 2:15:00 PM 21.76 71.168 0.227 8.77 3.15 9.82
8/16/2021 2:30:00 PM 21.86 71.348 0.227 8.81 2.99 9.85
8/16/2021 2:45:00 PM 21.97 71.546 0.227 8.86 3.13 9.85
8/16/2021 3:00:00 PM 22.05 71.69 0.227 8.91 3.33 9.85
8/16/2021 3:15:00 PM 22.11 71.798 0.227 8.93 3.18 9.83
8/16/2021 3:30:00 PM 22.18 71.924 0.227 8.97 3.33 9.77
8/16/2021 3:45:00 PM 22.2 71.96 0.227 8.94 3.02 9.59
8/16/2021 4:00:00 PM 22.21 71.978 0.227 8.92 3.13 9.41
8/16/2021 4:15:00 PM 22.21 71.978 0.227 8.88 3.09 9.22
8/16/2021 4:30:00 PM 22.21 71.978 0.227 8.84 3.2 9.08
8/16/2021 4:45:00 PM 22.21 71.978 0.227 8.81 3.29 9
8/16/2021 5:00:00 PM 22.21 71.978 0.227 8.8 3.13 8.94
8/16/2021 5:15:00 PM 22.21 71.978 0.227 8.77 3.1 8.88
8/16/2021 5:30:00 PM 22.19 71.942 0.227 8.75 3.08 8.84
8/16/2021 5:45:00 PM 22.17 71.906 0.228 8.69 3.14 8.74
8/16/2021 6:00:00 PM 22.15 71.87 0.228 8.62 3.12 8.59
8/16/2021 6:15:00 PM 22.12 71.816 0.228 8.55 3.15 8.47
8/16/2021 6:30:00 PM 22.1 71.78 0.229 8.49 3.12 8.36
8/16/2021 6:45:00 PM 22.08 71.744 0.229 8.45 3.14 8.27
8/16/2021 7:00:00 PM 22.07 71.726 0.229 8.41 3.1 8.16
8/16/2021 7:15:00 PM 22.06 71.708 0.23 8.38 3.17 8.13
8/16/2021 7:30:00 PM 22.05 71.69 0.23 8.35 3.23 8.06
8/16/2021 7:45:00 PM 22.03 71.654 0.23 8.33 3.2 8
8/16/2021 8:00:00 PM 21.99 71.582 0.23 8.31 3.2 7.91
8/16/2021 8:15:00 PM 21.96 71.528 0.23 8.28 3.18 7.84
8/16/2021 8:30:00 PM 21.91 71.438 0.231 8.24 3.25 7.72
8/16/2021 8:45:00 PM 21.86 71.348 0.231 8.22 3.27 7.61
8/16/2021 9:00:00 PM 21.81 71.258 0.231 8.18 3.31 7.53
8/16/2021 9:15:00 PM 21.76 71.168 0.232 8.16 3.29 7.45
8/16/2021 9:30:00 PM 21.72 71.096 0.232 8.14 3.47 7.39
8/16/2021 9:45:00 PM 21.67 71.006 0.232 8.11 3.44 7.28
8/16/2021 10:00:00 PM 21.62 70.916 0.232 8.1 3.21 7.3
8/16/2021 10:15:00 PM 21.57 70.826 0.232 8.08 3.31 7.22
8/16/2021 10:30:00 PM 21.53 70.754 0.232 8.06 3.41 7.12
8/16/2021 10:45:00 PM 21.49 70.682 0.232 8.05 3.37 7.09
8/16/2021 11:00:00 PM 21.45 70.61 0.232 8.04 3.1 7.04
8/16/2021 11:15:00 PM 21.41 70.538 0.232 8.03 3.42 7
8/16/2021 11:30:00 PM 21.37 70.466 0.232 8.03 3.05 6.98
8/16/2021 11:45:00 PM 21.34 70.412 0.232 8.01 3.33 6.91
8/17/2021 12:00:00 AM 21.3 70.34 0.232 8.01 3.2 6.9
8/17/2021 12:15:00 AM 21.27 70.286 0.232 8 3.13 6.88
8/17/2021 12:30:00 AM 21.24 70.232 0.232 8 3.53 6.92
8/17/2021 12:45:00 AM 21.21 70.17799 0.232 7.99 3.36 6.89
8/17/2021 1:00:00 AM 21.17 70.106 0.232 7.98 3.28 6.88
8/17/2021 1:15:00 AM 21.14 70.052 0.232 7.96 3.55 6.88
8/17/2021 1:30:00 AM 21.11 69.998 0.232 7.98 3.24 6.86
8/17/2021 1:45:00 AM 21.08 69.944 0.232 7.97 3.4 6.87
8/17/2021 2:00:00 AM 21.06 69.908 0.232 7.97 3.17 6.85
8/17/2021 2:15:00 AM 21.04 69.872 0.232 7.97 3.44 6.88
8/17/2021 2:30:00 AM 21.01 69.818 0.232 7.97 3.39 6.89
8/17/2021 2:45:00 AM 20.99 69.782 0.232 7.97 3.47 6.9
8/17/2021 3:00:00 AM 20.96 69.728 0.232 7.97 3.24 6.88
8/17/2021 3:15:00 AM 20.94 69.692 0.232 7.96 3.33 6.86
8/17/2021 3:30:00 AM 20.92 69.656 0.232 7.97 3.28 6.87
8/17/2021 3:45:00 AM 20.9 69.62 0.232 7.96 3.18 6.9
8/17/2021 4:00:00 AM 20.88 69.584 0.232 7.96 3.54 6.88
8/17/2021 4:15:00 AM 20.86 69.548 0.232 7.96 3.28 6.88
8/17/2021 4:30:00 AM 20.84 69.512 0.232 7.97 3.66 6.94
8/17/2021 4:45:00 AM 20.83 69.494 0.232 7.97 3.37 6.95
8/17/2021 5:00:00 AM 20.81 69.458 0.232 7.97 3.7 6.89
8/17/2021 5:15:00 AM 20.8 69.44 0.232 7.96 3.71 6.9
8/17/2021 5:30:00 AM 20.79 69.422 0.232 7.96 3.51 6.91
8/17/2021 5:45:00 AM 20.77 69.386 0.232 7.97 3.39 6.89
8/17/2021 6:00:00 AM 20.76 69.368 0.232 7.96 3.33 6.92
8/17/2021 6:15:00 AM 20.75 69.35 0.232 7.96 3.35 6.92
8/17/2021 6:30:00 AM 20.74 69.332 0.232 7.96 3.33 6.97
8/17/2021 6:45:00 AM 20.73 69.314 0.231 7.96 3.54 6.96
8/17/2021 7:00:00 AM 20.72 69.296 0.231 7.97 3.42 7.01
8/17/2021 7:15:00 AM 20.72 69.296 0.231 7.97 3.27 7.01
8/17/2021 7:30:00 AM 20.71 69.278 0.23 7.97 3.4 7.01
8/17/2021 7:45:00 AM 20.71 69.278 0.23 7.97 3.6 7.07
8/17/2021 8:00:00 AM 20.73 69.314 0.231 7.98 3.6 7.12
8/17/2021 8:15:00 AM 20.74 69.332 0.231 7.98 3.42 7.15
8/17/2021 8:30:00 AM 20.77 69.386 0.23 8 3.34 7.27
8/17/2021 8:45:00 AM 20.81 69.458 0.23 8.02 3.47 7.41
8/17/2021 9:00:00 AM 20.86 69.548 0.23 8.03 3.35 7.49
8/17/2021 9:15:00 AM 20.91 69.638 0.229 8.05 3.37 7.57
8/17/2021 9:30:00 AM 20.98 69.764 0.229 8.07 3.4 7.75
8/17/2021 9:45:00 AM 21.04 69.872 0.229 8.09 3.29 7.84
8/17/2021 10:00:00 AM 21.14 70.052 0.228 8.13 3.61 8.03
8/17/2021 10:15:00 AM 21.2 70.16 0.228 8.14 3.27 8.12
8/17/2021 10:30:00 AM 21.29 70.32201 0.228 8.18 3.39 8.27
8/17/2021 10:45:00 AM 21.35 70.43 0.229 8.2 3.41 8.35
8/17/2021 11:00:00 AM 21.41 70.538 0.229 8.23 3.51 8.54
8/17/2021 11:15:00 AM 21.49 70.682 0.228 8.26 3.52 8.62
8/17/2021 11:30:00 AM 21.55 70.79 0.228 8.29 3.45 8.72
8/17/2021 11:45:00 AM 21.61 70.898 0.228 8.31 3.58 8.79
8/17/2021 12:00:00 PM 21.73 71.114 0.228 8.35 3.53 8.88
8/17/2021 12:15:00 PM 21.87 71.366 0.228 8.39 3.32 8.98
8/17/2021 12:30:00 PM 22.05 71.69 0.228 8.45 3.35 9.06
8/17/2021 12:45:00 PM 22.22 71.996 0.229 8.49 3.36 9.15
8/17/2021 1:00:00 PM 22.35 72.23 0.229 8.54 3.51 9.23
8/17/2021 1:15:00 PM 22.45 72.41 0.229 8.56 3.27 9.24
8/17/2021 1:30:00 PM 22.53 72.554 0.229 8.59 3.31 9.25
8/17/2021 1:45:00 PM 22.7 72.86 0.229 8.64 3.21 9.32
8/17/2021 2:00:00 PM 22.82 73.076 0.229 8.68 3.29 9.35
8/17/2021 2:15:00 PM 22.94 73.292 0.229 8.74 3.23 9.44
8/17/2021 2:30:00 PM 23.1 73.58 0.229 8.8 3.15 9.5
8/17/2021 2:45:00 PM 23.24 73.832 0.229 8.88 3.16 9.55
8/17/2021 3:00:00 PM 23.34 74.012 0.229 8.93 3.14 9.57
8/17/2021 3:15:00 PM 23.42 74.156 0.229 8.94 3.09 9.52
8/17/2021 3:30:00 PM 23.47 74.246 0.229 8.95 3.3 9.48
8/17/2021 3:45:00 PM 23.56 74.408 0.229 8.99 3.17 9.49
8/17/2021 4:00:00 PM 23.61 74.498 0.229 9.01 3.33 9.47
8/17/2021 4:15:00 PM 23.65 74.57 0.229 9.01 3.24 9.45
8/17/2021 4:30:00 PM 23.67 74.606 0.229 9.04 3.23 9.39
8/17/2021 4:45:00 PM 23.69 74.642 0.229 9.04 3.21 9.34
8/17/2021 5:00:00 PM 23.72 74.696 0.229 9.04 3.11 9.27
8/17/2021 5:15:00 PM 23.74 74.732 0.23 9.06 3.02 9.22
8/17/2021 5:30:00 PM 23.74 74.732 0.23 9.04 2.99 9.15
8/17/2021 5:45:00 PM 23.74 74.732 0.23 9.01 3.19 9.04
8/17/2021 6:00:00 PM 23.74 74.732 0.23 8.99 3.06 9.01
8/17/2021 6:15:00 PM 23.73 74.714 0.23 8.96 3.17 8.92
8/17/2021 6:30:00 PM 23.72 74.696 0.231 8.94 3.16 8.82
8/17/2021 6:45:00 PM 23.69 74.642 0.231 8.87 3.29 8.64
8/17/2021 7:00:00 PM 23.63 74.534 0.231 9.48 3.25 8.47
8/17/2021 7:15:00 PM 23.57 74.426 0.232 9.58 3.26 8.3
8/17/2021 7:30:00 PM 23.5 74.3 0.233 9.48 3.15 8.12
8/17/2021 7:45:00 PM 23.42 74.156 0.233 9.39 3.29 7.97
8/17/2021 8:00:00 PM 23.33 73.994 0.234 9.3 3.08 7.79
8/17/2021 8:15:00 PM 23.24 73.832 0.234 9.24 3.2 7.64
8/17/2021 8:30:00 PM 23.15 73.67 0.234 9.2 3.21 7.56
8/17/2021 8:45:00 PM 23.07 73.526 0.235 9.15 3.3 7.47
8/17/2021 9:00:00 PM 22.99 73.382 0.235 9.12 3.46 7.4
8/17/2021 9:15:00 PM 22.91 73.238 0.235 9.1 3.41 7.36
8/17/2021 9:30:00 PM 22.81 73.058 0.235 9.07 3.44 7.31
8/17/2021 9:45:00 PM 22.73 72.914 0.235 9.05 3.34 7.27
8/17/2021 10:00:00 PM 22.66 72.788 0.236 9.04 3.3 7.24
8/17/2021 10:15:00 PM 22.59 72.662 0.236 9.04 3.46 7.24
8/17/2021 10:30:00 PM 22.52 72.536 0.236 9.05 3.2 7.22
8/17/2021 10:45:00 PM 22.47 72.446 0.236 9.06 3.42 7.24
8/17/2021 11:00:00 PM 22.4 72.32 0.237 8.98 3.33 7.23
8/17/2021 11:15:00 PM 22.34 72.212 0.237 8.89 3.31 7.25
8/17/2021 11:30:00 PM 22.29 72.122 0.237 8.81 3.65 7.22
8/17/2021 11:45:00 PM 22.25 72.05 0.237 8.73 3.62 7.23
8/18/2021 12:00:00 AM 22.2 71.96 0.237 8.68 3.62 7.25
8/18/2021 12:15:00 AM 22.16 71.888 0.237 8.62 3.31 7.25
8/18/2021 12:30:00 AM 22.12 71.816 0.238 8.58 3.36 7.25
8/18/2021 12:45:00 AM 22.08 71.744 0.238 8.54 3.37 7.27
8/18/2021 1:00:00 AM 22.04 71.672 0.238 8.49 3.5 7.28
8/18/2021 1:15:00 AM 22 71.6 0.238 8.47 3.4 7.29
8/18/2021 1:30:00 AM 21.96 71.528 0.238 8.45 3.71 7.3
8/18/2021 1:45:00 AM 21.91 71.438 0.238 8.42 3.54 7.3
8/18/2021 2:00:00 AM 21.88 71.384 0.238 8.41 3.39 7.35
8/18/2021 2:15:00 AM 21.85 71.33 0.238 8.4 3.29 7.37
8/18/2021 2:30:00 AM 21.83 71.294 0.238 8.38 3.32 7.39
8/18/2021 2:45:00 AM 21.8 71.24 0.238 8.35 3.68 7.41
8/18/2021 3:00:00 AM 21.78 71.204 0.238 8.35 3.47 7.43
8/18/2021 3:15:00 AM 21.76 71.168 0.238 8.34 3.7 7.42
8/18/2021 3:30:00 AM 21.74 71.132 0.238 8.33 3.74 7.43
8/18/2021 3:45:00 AM 21.72 71.096 0.238 8.33 3.62 7.43
8/18/2021 4:00:00 AM 21.71 71.078 0.238 8.31 4.15 7.44
8/18/2021 4:15:00 AM 21.7 71.06 0.238 8.29 3.85 7.41
8/18/2021 4:30:00 AM 21.69 71.042 0.238 8.29 3.88 7.44
8/18/2021 4:45:00 AM 21.68 71.024 0.237 8.29 3.7 7.46
8/18/2021 5:00:00 AM 21.67 71.006 0.237 8.28 3.78 7.49
8/18/2021 5:15:00 AM 21.66 70.988 0.237 8.27 3.66 7.45
8/18/2021 5:30:00 AM 21.65 70.97 0.237 8.27 3.79 7.48
8/18/2021 5:45:00 AM 21.65 70.97 0.237 8.26 3.6 7.47
8/18/2021 6:00:00 AM 21.64 70.952 0.236 8.23 3.34 7.45
8/18/2021 6:15:00 AM 21.63 70.934 0.236 8.24 3.66 7.45
8/18/2021 6:30:00 AM 21.62 70.916 0.236 8.23 3.77 7.45
8/18/2021 6:45:00 AM 21.61 70.898 0.236 8.23 3.36 7.46
8/18/2021 7:00:00 AM 21.61 70.898 0.235 8.22 3.35 7.47
8/18/2021 7:15:00 AM 21.6 70.88 0.235 8.22 3.46 7.48
8/18/2021 7:30:00 AM 21.59 70.862 0.235 8.23 3.61 7.54
8/18/2021 7:45:00 AM 21.59 70.862 0.234 8.24 3.57 7.56
8/18/2021 8:00:00 AM 21.59 70.862 0.233 8.23 3.54 7.59
8/18/2021 8:15:00 AM 21.59 70.862 0.233 8.23 3.5 7.65
8/18/2021 8:30:00 AM 21.6 70.88 0.232 8.23 3.52 7.67
8/18/2021 8:45:00 AM 21.62 70.916 0.232 8.24 3.42 7.73
8/18/2021 9:00:00 AM 21.64 70.952 0.231 8.26 3.31 7.82
8/18/2021 9:15:00 AM 21.68 71.024 0.231 8.27 3.54 7.93
8/18/2021 9:30:00 AM 21.73 71.114 0.231 8.3 3.57 8.03
8/18/2021 9:45:00 AM 21.8 71.24 0.23 8.33 3.74 8.17
8/18/2021 10:00:00 AM 21.89 71.402 0.231 8.36 3.69 8.33
8/18/2021 10:15:00 AM 21.95 71.51 0.231 8.4 3.8 8.44
8/18/2021 10:30:00 AM 21.99 71.582 0.231 8.42 3.62 8.52
8/18/2021 10:45:00 AM 22.05 71.69 0.231 8.46 3.61 8.6
8/18/2021 11:00:00 AM 22.09 71.762 0.231 8.49 3.51 8.68
8/18/2021 11:15:00 AM 22.12 71.816 0.231 8.51 3.48 8.64
8/18/2021 11:30:00 AM 22.15 71.87 0.232 8.51 3.49 8.65
8/18/2021 11:45:00 AM 22.2 71.96 0.232 8.53 3.34 8.66
8/18/2021 12:00:00 PM 22.25 72.05 0.232 8.55 3.31 8.71
8/18/2021 12:15:00 PM 22.3 72.14 0.232 8.55 3.35 8.7
8/18/2021 12:30:00 PM 22.35 72.23 0.232 8.56 3.46 8.71
8/18/2021 12:45:00 PM 22.38 72.284 0.232 8.56 3.41 8.71
8/18/2021 1:00:00 PM 22.4 72.32 0.232 8.58 3.51 8.71
8/18/2021 1:15:00 PM 22.42 72.356 0.232 8.59 3.37 8.72
8/18/2021 1:30:00 PM 22.44 72.392 0.232 8.58 3.35 8.69
8/18/2021 1:45:00 PM 22.47 72.446 0.232 8.59 3.31 8.68
8/18/2021 2:00:00 PM 22.5 72.5 0.231 8.59 3.54 8.69
8/18/2021 2:15:00 PM 22.53 72.554 0.231 8.6 3.35 8.7
8/18/2021 2:30:00 PM 22.58 72.644 0.231 8.61 3.27 8.73
8/18/2021 2:45:00 PM 22.63 72.734 0.231 8.63 3.28 8.76
8/18/2021 3:00:00 PM 22.67 72.806 0.231 8.66 3.32 8.81
8/18/2021 3:15:00 PM 22.69 72.842 0.231 8.65 3.42 8.83
8/18/2021 3:30:00 PM 22.71 72.878 0.231 8.7 3.43 8.82
8/18/2021 3:45:00 PM 22.7 72.86 0.231 8.71 3.51 8.79
8/18/2021 4:00:00 PM 22.67 72.806 0.23 8.69 3.26 8.65
8/18/2021 4:15:00 PM 22.65 72.77 0.23 9.14 3.46 8.53
8/18/2021 4:30:00 PM 22.63 72.734 0.23 8.6 3.44 8.39
8/18/2021 4:45:00 PM 22.59 72.662 0.229 8.55 3.58 8.25
8/18/2021 5:00:00 PM 22.56 72.608 0.229 8.51 3.66 8.14
8/18/2021 5:15:00 PM 22.52 72.536 0.229 8.46 3.64 8.07
8/18/2021 5:30:00 PM 22.48 72.464 0.229 8.45 3.58 8.02
8/18/2021 5:45:00 PM 22.44 72.392 0.228 8.42 3.82 7.95
8/18/2021 6:00:00 PM 22.4 72.32 0.226 8.4 3.84 7.91
8/18/2021 6:15:00 PM 22.37 72.266 0.226 8.39 4.06 7.87
8/18/2021 6:30:00 PM 22.33 72.194 0.225 8.37 4.23 7.84
8/18/2021 6:45:00 PM 22.3 72.14 0.224 8.34 4.42 7.79
8/18/2021 7:00:00 PM 22.26 72.068 0.223 8.32 5.09 7.76
8/18/2021 7:15:00 PM 22.23 72.014 0.221 8.32 6.43 7.77
8/18/2021 7:30:00 PM 22.19 71.942 0.217 8.32 7.2 7.79
8/18/2021 7:45:00 PM 22.15 71.87 0.217 8.31 9.13 7.79
8/18/2021 8:00:00 PM 22.12 71.816 0.214 8.3 9.46 7.8
8/18/2021 8:15:00 PM 22.09 71.762 0.21 8.28 14.02 7.79
8/18/2021 8:30:00 PM 22.05 71.69 0.205 8.27 19.06 7.81
8/18/2021 8:45:00 PM 22.02 71.636 0.202 8.24 18.9 7.81
8/18/2021 9:00:00 PM 21.99 71.582 0.199 8.23 37.04 7.83
8/18/2021 9:15:00 PM 21.96 71.528 0.202 8.18 34.28 7.82
8/18/2021 9:30:00 PM 21.85 71.33 0.202 8.13 55.6 7.84
8/18/2021 9:45:00 PM 21.45 70.61 0.192 7.99 90.34 7.94
8/18/2021 10:00:00 PM 21.12 70.016 0.169 7.86 235.96 8.02
8/18/2021 10:15:00 PM 21.07 69.926 0.148 7.84 358.51 8.04
8/18/2021 10:30:00 PM 21.1 69.98 0.139 7.83 370.03 8
8/18/2021 10:45:00 PM 21.1 69.98 0.136 7.83 437.25 7.99
8/18/2021 11:00:00 PM 21.05 69.89 0.129 7.81 344.59 7.99
8/18/2021 11:15:00 PM 20.98 69.764 0.122 7.77 357.55 8.01
8/18/2021 11:30:00 PM 20.91 69.638 0.116 7.74 357.31 8.01
8/18/2021 11:45:00 PM 20.85 69.53 0.112 7.67 360.07 8.01
8/19/2021 12:00:00 AM 20.79 69.422 0.11 7.65 317.98 8.01
8/19/2021 12:15:00 AM 20.72 69.296 0.105 7.64 296.85 8.02
8/19/2021 12:30:00 AM 20.65 69.17 0.1 7.61 370.75 8.02
8/19/2021 12:45:00 AM 20.6 69.08 0.096 7.58 298.4 8.02
8/19/2021 1:00:00 AM 20.55 68.99 0.094 7.54 267.27 8.03
8/19/2021 1:15:00 AM 20.52 68.936 0.093 7.55 248.79 8.03
8/19/2021 1:30:00 AM 20.48 68.864 0.092 7.56 219.38 8.03
8/19/2021 1:45:00 AM 20.43 68.774 0.091 7.52 221.18 8.04
8/19/2021 2:00:00 AM 20.4 68.72 0.09 7.53 175.81 8.03
8/19/2021 2:15:00 AM 20.36 68.648 0.088 7.52 204.42 8.04
8/19/2021 2:30:00 AM 20.33 68.594 0.086 7.47 207.69 8.05
8/19/2021 2:45:00 AM 20.3 68.54 0.084 7.49 199.73 8.05
8/19/2021 3:00:00 AM 20.28 68.504 0.082 7.48 190.6 8.05
8/19/2021 3:15:00 AM 20.26 68.468 0.081 7.47 204.55 8.05
8/19/2021 3:30:00 AM 20.24 68.432 0.079 7.46 265.37 8.05
8/19/2021 3:45:00 AM 20.22 68.396 0.079 7.45 232.46 8.06
8/19/2021 4:00:00 AM 20.2 68.36 0.078 7.45 238.51 8.05
8/19/2021 4:15:00 AM 20.18 68.324 0.078 7.42 234.08 8.06
8/19/2021 4:30:00 AM 20.16 68.288 0.079 7.44 197.82 8.06
8/19/2021 4:45:00 AM 20.14 68.252 0.08 7.44 298.65 8.07
8/19/2021 5:00:00 AM 20.12 68.216 0.081 7.4 235.1 8.08
8/19/2021 5:15:00 AM 20.11 68.198 0.082 7.45 200.27 8.09
8/19/2021 5:30:00 AM 20.09 68.162 0.084 7.46 186.14 8.1
8/19/2021 5:45:00 AM 20.08 68.144 0.085 7.46 179.02 8.12
8/19/2021 6:00:00 AM 20.06 68.108 0.087 7.49 146.88 8.13
8/19/2021 6:15:00 AM 20.05 68.09 0.088 7.48 109.71 8.14
8/19/2021 6:30:00 AM 20.03 68.054 0.09 7.52 128.92 8.15
8/19/2021 6:45:00 AM 20.02 68.036 0.091 7.51 127.77 8.16
8/19/2021 7:00:00 AM 20.01 68.018 0.093 7.49 150.88 8.17
8/19/2021 7:15:00 AM 19.99 67.982 0.094 7.54 121.61 8.18
8/19/2021 7:30:00 AM 19.99 67.982 0.096 7.57 139.2 8.19
8/19/2021 7:45:00 AM 19.98 67.964 0.097 7.58 78.94 8.2
8/19/2021 8:00:00 AM 19.98 67.964 0.098 7.59 76.53 8.21
8/19/2021 8:15:00 AM 19.98 67.964 0.1 7.61 97.86 8.22
8/19/2021 8:30:00 AM 19.99 67.982 0.101 7.62 91.33 8.23
8/19/2021 8:45:00 AM 20.01 68.018 0.102 7.62 78.36 8.24
8/19/2021 9:00:00 AM 20.03 68.054 0.104 7.64 64.85 8.25
8/19/2021 9:15:00 AM 20.05 68.09 0.105 7.66 80.24 8.26
8/19/2021 9:30:00 AM 20.07 68.126 0.106 7.67 74.45 8.26
8/19/2021 9:45:00 AM 20.11 68.198 0.108 7.69 67.9 8.27
8/19/2021 10:00:00 AM 20.17 68.306 0.109 7.72 100.51 8.28
8/19/2021 10:15:00 AM 20.21 68.378 0.11 7.72 46.54 8.28
8/19/2021 10:30:00 AM 20.25 68.45 0.111 7.73 47.41 8.28
8/19/2021 10:45:00 AM 20.28 68.504 0.112 7.73 38.85 8.28
8/19/2021 11:00:00 AM 20.31 68.558 0.113 7.74 45.29 8.28
8/19/2021 11:15:00 AM 20.37 68.666 0.114 7.75 64.51 8.29
8/19/2021 11:30:00 AM 20.47 68.846 0.115 7.78 43.64 8.29
8/19/2021 11:45:00 AM 20.52 68.936 0.115 7.79 67.6 8.29
8/19/2021 12:00:00 PM 20.55 68.99 0.116 7.76 44.06 8.29
8/19/2021 12:15:00 PM 20.57 69.026 0.117 7.79 38.66 8.28
8/19/2021 12:30:00 PM 20.59 69.062 0.117 7.79 36.38 8.27
8/19/2021 12:45:00 PM 20.61 69.098 0.118 7.79 32.9 8.27
8/19/2021 1:00:00 PM 20.67 69.206 0.119 7.8 27.61 8.27
8/19/2021 1:15:00 PM 20.71 69.278 0.119 7.81 34.68 8.28
8/19/2021 1:30:00 PM 20.74 69.332 0.119 7.81 33.93 8.27
8/19/2021 1:45:00 PM 20.76 69.368 0.12 7.8 31.19 8.26
8/19/2021 2:00:00 PM 20.78 69.404 0.12 7.81 28.83 8.26
8/19/2021 2:15:00 PM 20.79 69.422 0.12 7.81 27.47 8.26
8/19/2021 2:30:00 PM 20.87 69.566 0.121 7.82 28.24 8.26
8/19/2021 2:45:00 PM 20.98 69.764 0.121 7.84 81.44 8.27
8/19/2021 3:00:00 PM 21.04 69.872 0.122 7.85 27.12 8.26
8/19/2021 3:15:00 PM 21.09 69.962 0.122 7.86 22.07 8.25
8/19/2021 3:30:00 PM 21.09 69.962 0.122 7.84 25.98 8.25
8/19/2021 3:45:00 PM 21.15 70.07 0.123 7.85 24.89 8.24
8/19/2021 4:00:00 PM 21.19 70.142 0.123 7.85 23.27 8.24
8/19/2021 4:15:00 PM 21.24 70.232 0.123 7.86 22.4 8.22
8/19/2021 4:30:00 PM 21.24 70.232 0.124 7.85 22.85 8.21
8/19/2021 4:45:00 PM 21.25 70.25 0.124 7.85 21.88 8.21
8/19/2021 5:00:00 PM 21.27 70.286 0.124 7.85 22.91 8.19
8/19/2021 5:15:00 PM 21.3 70.34 0.125 7.84 21.96 8.17
8/19/2021 5:30:00 PM 21.32 70.376 0.125 7.87 20.11 8.16
8/19/2021 5:45:00 PM 21.33 70.394 0.125 7.85 21.17 8.15
8/19/2021 6:00:00 PM 21.34 70.412 0.126 7.85 21.33 8.13
8/19/2021 6:15:00 PM 21.36 70.448 0.126 7.86 21.19 8.12
8/19/2021 6:30:00 PM 21.37 70.466 0.127 7.85 19.52 8.1
8/19/2021 6:45:00 PM 21.37 70.466 0.127 7.86 21.52 8.1
8/19/2021 7:00:00 PM 21.37 70.466 0.127 7.84 19.52 8.08
8/19/2021 7:15:00 PM 21.35 70.43 0.127 7.83 19.77 8.08
8/19/2021 7:30:00 PM 21.32 70.376 0.128 7.83 22.13 8.07
8/19/2021 7:45:00 PM 21.29 70.32201 0.128 7.83 19.23 8.06
8/19/2021 8:00:00 PM 21.25 70.25 0.128 7.82 19.5 8.06
8/19/2021 8:15:00 PM 21.21 70.17799 0.128 7.81 19.06 8.06
8/19/2021 8:30:00 PM 21.17 70.106 0.129 7.81 18.61 8.06
8/19/2021 8:45:00 PM 21.12 70.016 0.129 7.81 19.17 8.06
8/19/2021 9:00:00 PM 21.08 69.944 0.129 7.81 19.3 8.06
8/19/2021 9:15:00 PM 21.03 69.854 0.129 7.8 18.4 8.06
8/19/2021 9:30:00 PM 20.98 69.764 0.13 7.79 18.38 8.07
8/19/2021 9:45:00 PM 20.92 69.656 0.13 7.78 17.9 8.08
8/19/2021 10:00:00 PM 20.86 69.548 0.13 7.78 18.13 8.08
8/19/2021 10:15:00 PM 20.81 69.458 0.131 7.77 17.14 8.09
8/19/2021 10:30:00 PM 20.75 69.35 0.131 7.76 17.56 8.1
8/19/2021 10:45:00 PM 20.69 69.242 0.131 7.75 17.03 8.11
8/19/2021 11:00:00 PM 20.64 69.152 0.131 7.76 16.7 8.12
8/19/2021 11:15:00 PM 20.58 69.044 0.132 7.76 16.71 8.13
8/19/2021 11:30:00 PM 20.53 68.954 0.132 7.73 16.09 8.14
8/19/2021 11:45:00 PM 20.48 68.864 0.132 7.75 16.39 8.15
8/20/2021 12:00:00 AM 20.43 68.774 0.133 7.75 15.46 8.15
8/20/2021 12:15:00 AM 20.38 68.684 0.133 7.73 15.24 8.16
8/20/2021 12:30:00 AM 20.34 68.612 0.133 7.76 15.13 8.17
8/20/2021 12:45:00 AM 20.31 68.558 0.133 7.76 14.78 8.18
8/20/2021 1:00:00 AM 20.28 68.504 0.134 7.75 14.65 8.18
8/20/2021 1:15:00 AM 20.25 68.45 0.134 7.75 14.3 8.19
8/20/2021 1:30:00 AM 20.22 68.396 0.134 7.76 14.46 8.19
8/20/2021 1:45:00 AM 20.19 68.342 0.135 7.76 14.14 8.2
8/20/2021 2:00:00 AM 20.16 68.288 0.135 7.76 14.67 8.2
8/20/2021 2:15:00 AM 20.13 68.234 0.135 7.76 14.15 8.21
8/20/2021 2:30:00 AM 20.1 68.18 0.136 7.76 14.01 8.21
8/20/2021 2:45:00 AM 20.07 68.126 0.136 7.76 13.67 8.21
8/20/2021 3:00:00 AM 20.04 68.07201 0.137 7.76 14.03 8.22
8/20/2021 3:15:00 AM 20.02 68.036 0.137 7.76 13.31 8.22
8/20/2021 3:30:00 AM 19.99 67.982 0.137 7.76 13.07 8.23
8/20/2021 3:45:00 AM 19.96 67.92799 0.137 7.75 13.54 8.24
8/20/2021 4:00:00 AM 19.93 67.874 0.138 7.77 12.94 8.24
8/20/2021 4:15:00 AM 19.91 67.838 0.138 7.76 12.98 8.25
8/20/2021 4:30:00 AM 19.88 67.784 0.138 7.75 13.95 8.25
8/20/2021 4:45:00 AM 19.85 67.73 0.138 7.75 13.6 8.26
8/20/2021 5:00:00 AM 19.83 67.694 0.139 7.76 12.91 8.27
8/20/2021 5:15:00 AM 19.8 67.64 0.139 7.76 13.11 8.27
8/20/2021 5:30:00 AM 19.77 67.586 0.139 7.77 12.47 8.28
8/20/2021 5:45:00 AM 19.75 67.55 0.139 7.76 12.09 8.28
8/20/2021 6:00:00 AM 19.72 67.496 0.139 7.76 12.29 8.28
8/20/2021 6:15:00 AM 19.69 67.442 0.14 7.76 12.37 8.28
8/20/2021 6:30:00 AM 19.67 67.406 0.14 7.76 12.27 8.29
8/20/2021 6:45:00 AM 19.64 67.352 0.14 7.76 12.35 8.3
8/20/2021 7:00:00 AM 19.62 67.316 0.14 7.76 12.18 8.31
8/20/2021 7:15:00 AM 19.6 67.28 0.14 7.77 11.78 8.32
8/20/2021 7:30:00 AM 19.59 67.262 0.14 7.77 11.18 8.34
8/20/2021 7:45:00 AM 19.6 67.28 0.14 7.78 10.8 8.36
8/20/2021 8:00:00 AM 19.6 67.28 0.141 7.79 11.07 8.38
8/20/2021 8:15:00 AM 19.61 67.298 0.141 7.8 10.68 8.4
8/20/2021 8:30:00 AM 19.63 67.334 0.141 7.81 10.75 8.42
8/20/2021 8:45:00 AM 19.65 67.37 0.141 7.78 10.2 8.44
8/20/2021 9:00:00 AM 19.67 67.406 0.141 7.82 10.19 8.46
8/20/2021 9:15:00 AM 19.7 67.46 0.141 7.83 10.39 8.47
8/20/2021 9:30:00 AM 19.74 67.532 0.142 7.84 9.85 8.48
8/20/2021 9:45:00 AM 19.79 67.622 0.142 7.84 9.42 8.49
8/20/2021 10:00:00 AM 19.85 67.73 0.142 7.86 9.97 8.51
8/20/2021 10:15:00 AM 19.94 67.892 0.142 7.88 9.82 8.53
8/20/2021 10:30:00 AM 20.02 68.036 0.142 7.89 9.36 8.54
8/20/2021 10:45:00 AM 20.09 68.162 0.142 7.9 9.55 8.54
8/20/2021 11:00:00 AM 20.17 68.306 0.142 7.91 9.25 8.54
8/20/2021 11:15:00 AM 20.29 68.522 0.142 7.9 9.11 8.55
8/20/2021 11:30:00 AM 20.47 68.846 0.142 7.96 8.79 8.54
8/20/2021 11:45:00 AM 20.56 69.008 0.143 7.96 8.86 8.53
8/20/2021 12:00:00 PM 20.73 69.314 0.143 7.97 8.68 8.53
8/20/2021 12:15:00 PM 20.85 69.53 0.143 7.98 8.71 8.51
8/20/2021 12:30:00 PM 20.9 69.62 0.143 7.97 8.55 8.49
8/20/2021 12:45:00 PM 20.92 69.656 0.143 7.97 8.62 8.47
8/20/2021 1:00:00 PM 20.95 69.71 0.143 7.96 8.7 8.47
8/20/2021 1:15:00 PM 21.15 70.07 0.143 8 8.52 8.48
8/20/2021 1:30:00 PM 21.16 70.088 0.143 7.97 8.4 8.45
8/20/2021 1:45:00 PM 21.24 70.232 0.143 8 8.23 8.43
8/20/2021 2:00:00 PM 21.23 70.214 0.143 7.98 8.59 8.39
8/20/2021 2:15:00 PM 21.26 70.268 0.144 7.98 8.09 8.39
8/20/2021 2:30:00 PM 21.25 70.25 0.144 7.97 8.19 8.38
8/20/2021 2:45:00 PM 21.28 70.304 0.144 7.97 8.33 8.37
8/20/2021 3:00:00 PM 21.32 70.376 0.144 7.98 7.97 8.37
8/20/2021 3:15:00 PM 21.38 70.484 0.144 7.99 8.13 8.37
8/20/2021 3:30:00 PM 21.44 70.592 0.144 8 8.08 8.37
8/20/2021 3:45:00 PM 21.48 70.664 0.144 8.01 8.07 8.36
8/20/2021 4:00:00 PM 21.52 70.736 0.144 8 8.07 8.33
8/20/2021 4:15:00 PM 21.55 70.79 0.144 7.99 7.88 8.32
8/20/2021 4:30:00 PM 21.58 70.844 0.144 7.99 7.86 8.31
8/20/2021 4:45:00 PM 21.61 70.898 0.145 8.06 7.78 8.31
8/20/2021 5:00:00 PM 21.61 70.898 0.145 8.36 7.79 8.29
8/20/2021 5:15:00 PM 21.63 70.934 0.145 8.48 7.61 8.27
8/20/2021 5:30:00 PM 21.64 70.952 0.145 8.31 7.82 8.24
8/20/2021 5:45:00 PM 21.65 70.97 0.145 8.3 7.79 8.23
8/20/2021 6:00:00 PM 21.65 70.97 0.145 8.34 7.68 8.21
8/20/2021 6:15:00 PM 21.63 70.934 0.146 8.3 7.44 8.19
8/20/2021 6:30:00 PM 21.63 70.934 0.146 8.3 7.42 8.17
8/20/2021 6:45:00 PM 21.62 70.916 0.146 8.29 7.43 8.15
8/20/2021 7:00:00 PM 21.61 70.898 0.146 8.32 7.42 8.13
8/20/2021 7:15:00 PM 21.59 70.862 0.146 8.3 7.4 8.11
8/20/2021 7:30:00 PM 21.56 70.808 0.146 8.33 7.71 8.08
8/20/2021 7:45:00 PM 21.54 70.772 0.146 8.33 7.27 8.06
8/20/2021 8:00:00 PM 21.51 70.718 0.147 8.33 7.58 8.04
8/20/2021 8:15:00 PM 21.48 70.664 0.147 8.32 7.48 8.03
8/20/2021 8:30:00 PM 21.45 70.61 0.147 8.31 7.42 8.02
8/20/2021 8:45:00 PM 21.41 70.538 0.147 8.39 7.83 8.02
8/20/2021 9:00:00 PM 21.38 70.484 0.147 8.35 7.72 8.01
8/20/2021 9:15:00 PM 21.34 70.412 0.147 8.23 7.58 8.01
8/20/2021 9:30:00 PM 21.3 70.34 0.147 8.16 7.63 8.01
8/20/2021 9:45:00 PM 21.26 70.268 0.148 8.1 7.9 8.01
8/20/2021 10:00:00 PM 21.22 70.196 0.148 8.09 7.7 8.01
8/20/2021 10:15:00 PM 21.18 70.124 0.148 8.11 7.49 8.01
8/20/2021 10:30:00 PM 21.15 70.07 0.148 9.09 7.36 8.03
8/20/2021 10:45:00 PM 21.11 69.998 0.148 10.19 7.48 8.03
8/20/2021 11:00:00 PM 21.07 69.926 0.148 10.3 7.5 8.03
8/20/2021 11:15:00 PM 21.04 69.872 0.149 10.38 7.67 8.03
8/20/2021 11:30:00 PM 21.01 69.818 0.148 10.42 7.57 8.04
8/20/2021 11:45:00 PM 20.98 69.764 0.149 10.45 7.83 8.04
8/21/2021 12:00:00 AM 20.95 69.71 0.149 10.45 7.67 8.05
8/21/2021 12:15:00 AM 20.91 69.638 0.149 10.49 7.63 8.06
8/21/2021 12:30:00 AM 20.88 69.584 0.149 10.49 7.67 8.06
8/21/2021 12:45:00 AM 20.85 69.53 0.149 10.52 7.59 8.06
8/21/2021 1:00:00 AM 20.81 69.458 0.15 10.54 7.65 8.07
8/21/2021 1:15:00 AM 20.78 69.404 0.15 10.54 7.52 8.07
8/21/2021 1:30:00 AM 20.75 69.35 0.15 10.54 7.35 8.08
8/21/2021 1:45:00 AM 20.71 69.278 0.15 10.55 7.26 8.09
8/21/2021 2:00:00 AM 20.68 69.224 0.15 10.54 7.04 8.09
8/21/2021 2:15:00 AM 20.65 69.17 0.15 10.57 7.16 8.1
8/21/2021 2:30:00 AM 20.62 69.116 0.151 10.58 7.68 8.11
8/21/2021 2:45:00 AM 20.59 69.062 0.151 10.58 7.7 8.11
8/21/2021 3:00:00 AM 20.56 69.008 0.151 10.58 7.11 8.11
8/21/2021 3:15:00 AM 20.53 68.954 0.151 10.57 7.53 8.12
8/21/2021 3:30:00 AM 20.5 68.9 0.151 10.59 7.54 8.12
8/21/2021 3:45:00 AM 20.47 68.846 0.151 10.55 7.51 8.12
8/21/2021 4:00:00 AM 20.44 68.792 0.151 10.54 7.08 8.13
8/21/2021 4:15:00 AM 20.42 68.756 0.152 10.53 7.04 8.13
8/21/2021 4:30:00 AM 20.39 68.702 0.152 10.52 7.02 8.14
8/21/2021 4:45:00 AM 20.37 68.666 0.152 10.52 7.13 8.15
8/21/2021 5:00:00 AM 20.34 68.612 0.15 10.52 7.56 8.18
8/21/2021 5:15:00 AM 20.32 68.576 0.149 10.51 8.1 8.19
8/21/2021 5:30:00 AM 20.3 68.54 0.148 10.48 9.07 8.17
8/21/2021 5:45:00 AM 20.28 68.504 0.148 10.46 9.8 8.17
8/21/2021 6:00:00 AM 20.26 68.468 0.149 10.44 8.76 8.17
8/21/2021 6:15:00 AM 20.24 68.432 0.15 10.44 8.86 8.18
8/21/2021 6:30:00 AM 20.21 68.378 0.15 10.44 9.65 8.18
8/21/2021 6:45:00 AM 20.19 68.342 0.15 10.42 8.94 8.18
8/21/2021 7:00:00 AM 20.17 68.306 0.151 10.41 8.35 8.18
8/21/2021 7:15:00 AM 20.16 68.288 0.151 10.39 8.24 8.2
8/21/2021 7:30:00 AM 20.15 68.27 0.151 10.38 8.15 8.22
8/21/2021 7:45:00 AM 20.15 68.27 0.151 10.36 8.84 8.24
8/21/2021 8:00:00 AM 20.15 68.27 0.151 10.35 9.1 8.27
8/21/2021 8:15:00 AM 20.17 68.306 0.15 10.32 9.34 8.3
8/21/2021 8:30:00 AM 20.19 68.342 0.15 10.32 8.83 8.33
8/21/2021 8:45:00 AM 20.22 68.396 0.151 10.32 8.22 8.36
8/21/2021 9:00:00 AM 20.25 68.45 0.151 10.28 7.53 8.4
8/21/2021 9:15:00 AM 20.29 68.522 0.152 10.32 7.82 8.43
8/21/2021 9:30:00 AM 20.32 68.576 0.152 10.31 7.71 8.44
8/21/2021 9:45:00 AM 20.35 68.63 0.153 10.31 7.16 8.44
8/21/2021 10:00:00 AM 20.37 68.666 0.153 10.29 7.93 8.44
8/21/2021 10:15:00 AM 20.39 68.702 0.154 10.28 7.42 8.44
8/21/2021 10:30:00 AM 20.43 68.774 0.154 10.29 7.27 8.44
8/21/2021 10:45:00 AM 20.46 68.828 0.154 10.29 7.24 8.45
8/21/2021 11:00:00 AM 20.48 68.864 0.154 10.29 7.27 8.46
8/21/2021 11:15:00 AM 20.53 68.954 0.154 10.29 7.09 8.49
8/21/2021 11:30:00 AM 20.58 69.044 0.154 10.3 7.54 8.5
8/21/2021 11:45:00 AM 20.64 69.152 0.154 10.32 7 8.51
8/21/2021 12:00:00 PM 20.78 69.404 0.154 10.35 7.02 8.55
8/21/2021 12:15:00 PM 20.86 69.548 0.154 10.35 7.19 8.57
8/21/2021 12:30:00 PM 20.94 69.692 0.155 10.36 6.69 8.6
8/21/2021 12:45:00 PM 21.11 69.998 0.155 10.36 7.01 8.62
8/21/2021 1:00:00 PM 21.3 70.34 0.155 10.42 6.61 8.63
8/21/2021 1:15:00 PM 21.39 70.502 0.155 10.42 6.58 8.61
8/21/2021 1:30:00 PM 21.44 70.592 0.156 10.42 6.36 8.58
8/21/2021 1:45:00 PM 21.58 70.844 0.155 10.42 6.52 8.58
8/21/2021 2:00:00 PM 21.67 71.006 0.156 10.43 6.28 8.58
8/21/2021 2:15:00 PM 21.79 71.222 0.156 10.44 6.24 8.58
8/21/2021 2:30:00 PM 21.88 71.384 0.156 10.45 5.96 8.57
8/21/2021 2:45:00 PM 21.98 71.564 0.157 10.44 6.15 8.55
8/21/2021 3:00:00 PM 22.07 71.726 0.157 10.44 6.05 8.54
8/21/2021 3:15:00 PM 22.19 71.942 0.157 10.44 5.97 8.52
8/21/2021 3:30:00 PM 22.26 72.068 0.157 10.43 6.07 8.49
8/21/2021 3:45:00 PM 22.38 72.284 0.157 10.43 5.84 8.46
8/21/2021 4:00:00 PM 22.44 72.392 0.157 10.42 6.07 8.41
8/21/2021 4:15:00 PM 22.51 72.518 0.158 10.42 5.84 8.39
8/21/2021 4:30:00 PM 22.55 72.59 0.158 10.39 5.85 8.36
8/21/2021 4:45:00 PM 22.59 72.662 0.158 10.4 5.69 8.33
8/21/2021 5:00:00 PM 22.6 72.68 0.158 10.36 5.9 8.28
8/21/2021 5:15:00 PM 22.61 72.698 0.158 10.36 5.42 8.25
8/21/2021 5:30:00 PM 22.61 72.698 0.158 10.34 5.81 8.22
8/21/2021 5:45:00 PM 22.55 72.59 0.159 10.32 5.67 8.2
8/21/2021 6:00:00 PM 22.5 72.5 0.159 10.29 5.55 8.18
8/21/2021 6:15:00 PM 22.47 72.446 0.159 10.24 5.26 8.14
8/21/2021 6:30:00 PM 22.44 72.392 0.159 10.23 5.65 8.1
8/21/2021 6:45:00 PM 22.39 72.302 0.159 10.21 5.3 8.07
8/21/2021 7:00:00 PM 22.35 72.23 0.159 10.21 5.32 8.04
8/21/2021 7:15:00 PM 22.29 72.122 0.159 10.17 5.5 8
8/21/2021 7:30:00 PM 22.23 72.014 0.159 10.13 5.47 7.98
8/21/2021 7:45:00 PM 22.18 71.924 0.16 10.1 5.33 7.95
8/21/2021 8:00:00 PM 22.12 71.816 0.16 10.08 5.33 7.93
8/21/2021 8:15:00 PM 22.07 71.726 0.16 10.05 6.03 7.91
8/21/2021 8:30:00 PM 22.01 71.618 0.16 10.04 5.44 7.9
8/21/2021 8:45:00 PM 21.96 71.528 0.16 10.02 5.6 7.9
8/21/2021 9:00:00 PM 21.92 71.456 0.161 10 5.55 7.89
8/21/2021 9:15:00 PM 21.87 71.366 0.161 9.99 5.64 7.88
8/21/2021 9:30:00 PM 21.83 71.294 0.161 9.97 5.83 7.88
8/21/2021 9:45:00 PM 21.79 71.222 0.161 9.99 5.78 7.89
8/21/2021 10:00:00 PM 21.74 71.132 0.161 9.99 5.6 7.88
8/21/2021 10:15:00 PM 21.71 71.078 0.161 9.99 5.88 7.89
8/21/2021 10:30:00 PM 21.67 71.006 0.161 9.97 5.82 7.89
8/21/2021 10:45:00 PM 21.64 70.952 0.161 9.97 5.82 7.89
8/21/2021 11:00:00 PM 21.61 70.898 0.161 10 5.71 7.9
8/21/2021 11:15:00 PM 21.58 70.844 0.161 10.01 5.47 7.9
8/21/2021 11:30:00 PM 21.54 70.772 0.161 10.04 5.83 7.9
8/21/2021 11:45:00 PM 21.51 70.718 0.161 10.02 5.51 7.9
8/22/2021 12:00:00 AM 21.47 70.646 0.161 10.03 5.7 7.9
8/22/2021 12:15:00 AM 21.44 70.592 0.161 10.02 5.55 7.91
8/22/2021 12:30:00 AM 21.41 70.538 0.161 10.06 5.75 7.91
8/22/2021 12:45:00 AM 21.39 70.502 0.161 10.05 5.76 7.91
8/22/2021 1:00:00 AM 21.37 70.466 0.161 10.04 5.53 7.92
8/22/2021 1:15:00 AM 21.35 70.43 0.161 10.05 5.46 7.93
8/22/2021 1:30:00 AM 21.33 70.394 0.161 10.07 5.67 7.93
8/22/2021 1:45:00 AM 21.31 70.358 0.162 10.12 5.77 7.93
8/22/2021 2:00:00 AM 21.28 70.304 0.162 10.18 5.42 7.93
8/22/2021 2:15:00 AM 21.25 70.25 0.162 10.21 5.53 7.94
8/22/2021 2:30:00 AM 21.23 70.214 0.162 10.23 5.45 7.94
8/22/2021 2:45:00 AM 21.2 70.16 0.162 10.23 5.67 7.95
8/22/2021 3:00:00 AM 21.17 70.106 0.162 10.23 5.43 7.95
8/22/2021 3:15:00 AM 21.14 70.052 0.162 10.23 5.58 7.96
8/22/2021 3:30:00 AM 21.1 69.98 0.162 10.24 5.47 7.98
8/22/2021 3:45:00 AM 21.06 69.908 0.162 10.24 5.28 7.98
8/22/2021 4:00:00 AM 21.02 69.836 0.162 10.24 5.56 7.99
8/22/2021 4:15:00 AM 20.99 69.782 0.162 10.28 5.28 7.99
8/22/2021 4:30:00 AM 20.95 69.71 0.162 10.28 5.32 8
8/22/2021 4:45:00 AM 20.91 69.638 0.162 10.3 5.51 8.01
8/22/2021 5:00:00 AM 20.87 69.566 0.162 10.29 5.39 8.01
8/22/2021 5:15:00 AM 20.83 69.494 0.163 10.32 5.31 8.02
8/22/2021 5:30:00 AM 20.8 69.44 0.163 10.32 5.73 8.03
8/22/2021 5:45:00 AM 20.75 69.35 0.163 10.34 5.9 8.04
8/22/2021 6:00:00 AM 20.72 69.296 0.163 10.33 5.96 8.05
8/22/2021 6:15:00 AM 20.68 69.224 0.163 10.35 5.5 8.05
8/22/2021 6:30:00 AM 20.64 69.152 0.163 10.36 5.69 8.06
8/22/2021 6:45:00 AM 20.62 69.116 0.163 10.38 5.23 8.08
8/22/2021 7:00:00 AM 20.59 69.062 0.163 10.38 5.48 8.11
8/22/2021 7:15:00 AM 20.58 69.044 0.163 10.39 5.31 8.14
8/22/2021 7:30:00 AM 20.57 69.026 0.163 10.41 5.31 8.18
8/22/2021 7:45:00 AM 20.56 69.008 0.164 10.42 5.18 8.21
8/22/2021 8:00:00 AM 20.55 68.99 0.164 10.44 5.41 8.24
8/22/2021 8:15:00 AM 20.55 68.99 0.164 10.46 5.15 8.26
8/22/2021 8:30:00 AM 20.56 69.008 0.164 10.5 4.86 8.3
8/22/2021 8:45:00 AM 20.61 69.098 0.164 10.52 4.75 8.38
8/22/2021 9:00:00 AM 20.68 69.224 0.164 10.58 5.1 8.47
8/22/2021 9:15:00 AM 20.76 69.368 0.164 10.63 4.98 8.55
8/22/2021 9:30:00 AM 20.84 69.512 0.164 10.67 4.72 8.59
8/22/2021 9:45:00 AM 20.85 69.53 0.164 10.69 4.68 8.61
8/22/2021 10:00:00 AM 20.9 69.62 0.165 10.71 4.75 8.62
8/22/2021 10:15:00 AM 20.98 69.764 0.165 10.76 4.62 8.66
8/22/2021 10:30:00 AM 21.08 69.944 0.165 10.79 4.67 8.7
8/22/2021 10:45:00 AM 21.26 70.268 0.165 10.85 4.84 8.72
8/22/2021 11:00:00 AM 21.38 70.484 0.165 10.89 4.49 8.74
8/22/2021 11:15:00 AM 21.44 70.592 0.165 10.9 4.72 8.75
8/22/2021 11:30:00 AM 21.49 70.682 0.165 10.91 4.62 8.74
8/22/2021 11:45:00 AM 21.59 70.862 0.165 10.91 4.71 8.75
8/22/2021 12:00:00 PM 21.62 70.916 0.165 10.93 4.5 8.73
8/22/2021 12:15:00 PM 21.62 70.916 0.165 10.93 4.46 8.7
8/22/2021 12:30:00 PM 21.62 70.916 0.166 10.92 4.48 8.66
8/22/2021 12:45:00 PM 21.63 70.934 0.166 10.92 4.46 8.62
8/22/2021 1:00:00 PM 21.63 70.934 0.166 10.91 4.35 8.58
8/22/2021 1:15:00 PM 21.64 70.952 0.166 10.89 4.42 8.58
8/22/2021 1:30:00 PM 21.72 71.096 0.166 10.9 4.36 8.63
8/22/2021 1:45:00 PM 21.77 71.186 0.166 10.91 4.3 8.67
8/22/2021 2:00:00 PM 21.79 71.222 0.166 10.91 4.48 8.69
8/22/2021 2:15:00 PM 21.81 71.258 0.166 10.91 4.26 8.67
8/22/2021 2:30:00 PM 21.87 71.366 0.166 10.9 4.34 8.67
8/22/2021 2:45:00 PM 21.95 71.51 0.166 10.89 4.51 8.67
8/22/2021 3:00:00 PM 22.01 71.618 0.166 10.88 4.32 8.69
8/22/2021 3:15:00 PM 22.09 71.762 0.167 10.88 4.22 8.7
8/22/2021 3:30:00 PM 22.14 71.852 0.167 10.85 4.11 8.7
8/22/2021 3:45:00 PM 22.21 71.978 0.167 10.86 4.56 8.7
8/22/2021 4:00:00 PM 22.22 71.996 0.167 10.85 4.52 8.64
8/22/2021 4:15:00 PM 22.23 72.014 0.167 10.82 4.12 8.59
8/22/2021 4:30:00 PM 22.28 72.104 0.167 10.8 4.27 8.54
8/22/2021 4:45:00 PM 22.29 72.122 0.167 10.77 4.36 8.5
8/22/2021 5:00:00 PM 22.29 72.122 0.167 10.74 4.29 8.46
8/22/2021 5:15:00 PM 22.27 72.086 0.168 10.71 4.22 8.41
8/22/2021 5:30:00 PM 22.27 72.086 0.168 10.68 4.19 8.38
8/22/2021 5:45:00 PM 22.28 72.104 0.168 10.65 4.32 8.34
8/22/2021 6:00:00 PM 22.26 72.068 0.168 10.63 4.16 8.3
8/22/2021 6:15:00 PM 22.25 72.05 0.168 10.6 4.13 8.27
8/22/2021 6:30:00 PM 22.25 72.05 0.168 10.59 4.02 8.24
8/22/2021 6:45:00 PM 22.25 72.05 0.168 10.57 4.15 8.23
8/22/2021 7:00:00 PM 22.24 72.032 0.168 10.54 4.39 8.21
8/22/2021 7:15:00 PM 22.22 71.996 0.168 10.53 4.25 8.16
8/22/2021 7:30:00 PM 22.2 71.96 0.168 10.49 4.2 8.11
8/22/2021 7:45:00 PM 22.17 71.906 0.169 10.46 4.25 8.05
8/22/2021 8:00:00 PM 22.14 71.852 0.169 10.44 4.04 7.99
8/22/2021 8:15:00 PM 22.11 71.798 0.169 10.41 4.46 7.95
8/22/2021 8:30:00 PM 22.07 71.726 0.169 10.39 4.32 7.91
8/22/2021 8:45:00 PM 22.03 71.654 0.169 10.36 4.41 7.88
8/22/2021 9:00:00 PM 22 71.6 0.169 10.33 4.61 7.86
8/22/2021 9:15:00 PM 21.97 71.546 0.169 10.3 4.42 7.85
8/22/2021 9:30:00 PM 21.93 71.474 0.169 10.28 4.52 7.84
8/22/2021 9:45:00 PM 21.9 71.42 0.17 10.25 4.45 7.83
8/22/2021 10:00:00 PM 21.87 71.366 0.17 10.23 4.6 7.83
8/22/2021 10:15:00 PM 21.84 71.312 0.17 10.21 4.45 7.84
8/22/2021 10:30:00 PM 21.81 71.258 0.17 10.2 4.4 7.83
8/22/2021 10:45:00 PM 21.78 71.204 0.17 10.18 4.4 7.83
8/22/2021 11:00:00 PM 21.75 71.15 0.17 10.17 4.61 7.83
8/22/2021 11:15:00 PM 21.73 71.114 0.17 10.15 4.53 7.83
8/22/2021 11:30:00 PM 21.7 71.06 0.17 10.14 4.52 7.83
8/22/2021 11:45:00 PM 21.68 71.024 0.17 10.12 4.61 7.83
8/23/2021 12:00:00 AM 21.65 70.97 0.17 10.11 4.53 7.84
8/23/2021 12:15:00 AM 21.62 70.916 0.169 10.1 4.63 7.87
8/23/2021 12:30:00 AM 21.59 70.862 0.169 10.08 4.78 7.86
8/23/2021 12:45:00 AM 21.57 70.826 0.168 10.08 4.67 7.86
8/23/2021 1:00:00 AM 21.55 70.79 0.168 10.05 5.24 7.84
8/23/2021 1:15:00 AM 21.52 70.736 0.168 10.02 5.67 7.85
8/23/2021 1:30:00 AM 21.5 70.7 0.168 10 5.56 7.85
8/23/2021 1:45:00 AM 21.48 70.664 0.168 9.99 5.27 7.86
8/23/2021 2:00:00 AM 21.46 70.628 0.169 9.97 5.12 7.85
8/23/2021 2:15:00 AM 21.44 70.592 0.169 9.96 5.22 7.86
8/23/2021 2:30:00 AM 21.42 70.556 0.169 9.94 5.48 7.86
8/23/2021 2:45:00 AM 21.4 70.52 0.17 9.92 5.52 7.86
8/23/2021 3:00:00 AM 21.38 70.484 0.17 9.9 5.4 7.87
8/23/2021 3:15:00 AM 21.36 70.448 0.17 9.89 5.1 7.86
8/23/2021 3:30:00 AM 21.35 70.43 0.17 9.87 4.97 7.87
8/23/2021 3:45:00 AM 21.33 70.394 0.17 9.86 4.93 7.88
8/23/2021 4:00:00 AM 21.32 70.376 0.171 9.85 5.06 7.87
8/23/2021 4:15:00 AM 21.31 70.358 0.171 9.83 4.78 7.87
8/23/2021 4:30:00 AM 21.3 70.34 0.171 9.82 5.15 7.88
8/23/2021 4:45:00 AM 21.28 70.304 0.171 9.8 4.99 7.89
8/23/2021 5:00:00 AM 21.27 70.286 0.171 9.79 5.12 7.87
8/23/2021 5:15:00 AM 21.26 70.268 0.17 9.78 5.02 7.89
8/23/2021 5:30:00 AM 21.24 70.232 0.17 9.77 5.35 7.9
8/23/2021 5:45:00 AM 21.23 70.214 0.171 9.76 4.95 7.9
8/23/2021 6:00:00 AM 21.22 70.196 0.17 9.74 4.88 7.9
8/23/2021 6:15:00 AM 21.2 70.16 0.17 9.72 4.9 7.89
8/23/2021 6:30:00 AM 21.19 70.142 0.17 9.71 4.95 7.9
8/23/2021 6:45:00 AM 21.17 70.106 0.17 9.7 4.7 7.92
8/23/2021 7:00:00 AM 21.16 70.088 0.17 9.7 4.88 7.94
8/23/2021 7:15:00 AM 21.14 70.052 0.17 9.7 4.8 7.96
8/23/2021 7:30:00 AM 21.13 70.034 0.17 9.7 4.72 7.96
8/23/2021 7:45:00 AM 21.11 69.998 0.17 9.69 4.7 7.99
8/23/2021 8:00:00 AM 21.1 69.98 0.17 9.69 4.62 8.01
8/23/2021 8:15:00 AM 21.1 69.98 0.171 9.7 4.7 8.07
8/23/2021 8:30:00 AM 21.12 70.016 0.171 9.71 4.67 8.14
8/23/2021 8:45:00 AM 21.16 70.088 0.171 9.73 4.77 8.25
8/23/2021 9:00:00 AM 21.19 70.142 0.171 9.76 4.72 8.33
8/23/2021 9:15:00 AM 21.2 70.16 0.171 9.77 4.63 8.38
8/23/2021 9:30:00 AM 21.23 70.214 0.171 9.79 4.78 8.42
8/23/2021 9:45:00 AM 21.31 70.358 0.171 9.8 4.75 8.48
8/23/2021 10:00:00 AM 21.38 70.484 0.171 9.87 4.63 8.54
8/23/2021 10:15:00 AM 21.43 70.574 0.171 9.88 4.66 8.58
8/23/2021 10:30:00 AM 21.53 70.754 0.171 9.94 4.43 8.64
8/23/2021 10:45:00 AM 21.59 70.862 0.171 9.96 4.27 8.68
8/23/2021 11:00:00 AM 21.79 71.222 0.171 10.03 4.32 8.75
8/23/2021 11:15:00 AM 21.97 71.546 0.171 10.11 4.49 8.8
8/23/2021 11:30:00 AM 22.2 71.96 0.171 10.17 4.3 8.84
8/23/2021 11:45:00 AM 22.35 72.23 0.171 10.25 4.3 8.86
8/23/2021 12:00:00 PM 22.47 72.446 0.172 10.32 4.35 8.88
8/23/2021 12:15:00 PM 22.66 72.788 0.172 10.35 4.17 8.88
8/23/2021 12:30:00 PM 22.88 73.184 0.172 10.4 4.41 8.87
8/23/2021 12:45:00 PM 23.07 73.526 0.172 10.49 4.14 8.89
8/23/2021 1:00:00 PM 23.1 73.58 0.172 10.51 4.2 8.86
8/23/2021 1:15:00 PM 23.14 73.652 0.173 10.51 4.14 8.84
8/23/2021 1:30:00 PM 23.1 73.58 0.173 10.53 4.09 8.8
8/23/2021 1:45:00 PM 23.14 73.652 0.173 10.54 4.14 8.81
8/23/2021 2:00:00 PM 23.21 73.778 0.173 10.54 4.23 8.81
8/23/2021 2:15:00 PM 23.35 74.03 0.173 10.57 4.03 8.84
8/23/2021 2:30:00 PM 23.39 74.102 0.173 10.6 3.97 8.8
8/23/2021 2:45:00 PM 23.4 74.12 0.173 10.55 4.35 8.77
8/23/2021 3:00:00 PM 23.39 74.102 0.173 10.53 3.99 8.71
8/23/2021 3:15:00 PM 23.45 74.21 0.173 10.49 4.22 8.63
8/23/2021 3:30:00 PM 23.46 74.228 0.173 10.46 4.07 8.62
8/23/2021 3:45:00 PM 23.42 74.156 0.173 10.45 3.88 8.56
8/23/2021 4:00:00 PM 23.4 74.12 0.173 10.39 3.98 8.49
8/23/2021 4:15:00 PM 23.42 74.156 0.173 10.37 3.98 8.48
8/23/2021 4:30:00 PM 23.43 74.174 0.173 10.38 3.88 8.5
8/23/2021 4:45:00 PM 23.41 74.138 0.173 10.37 4.04 8.52
8/23/2021 5:00:00 PM 23.37 74.066 0.173 10.35 3.92 8.46
8/23/2021 5:15:00 PM 23.33 73.994 0.173 10.3 3.93 8.37
8/23/2021 5:30:00 PM 23.33 73.994 0.173 10.26 4.19 8.35
8/23/2021 5:45:00 PM 23.33 73.994 0.173 10.25 3.89 8.35
8/23/2021 6:00:00 PM 23.32 73.976 0.173 10.2 4.4 8.33
8/23/2021 6:15:00 PM 23.28 73.904 0.173 10.16 4.01 8.28
8/23/2021 6:30:00 PM 23.24 73.832 0.173 10.11 4.06 8.21
8/23/2021 6:45:00 PM 23.18 73.724 0.173 10.04 4 8.13
8/23/2021 7:00:00 PM 23.13 73.634 0.173 9.97 4.02 8.06
8/23/2021 7:15:00 PM 23.09 73.562 0.173 9.89 3.82 8.01
8/23/2021 7:30:00 PM 23.04 73.472 0.173 9.86 3.98 7.95
8/23/2021 7:45:00 PM 22.98 73.364 0.173 9.8 3.98 7.9
8/23/2021 8:00:00 PM 22.92 73.256 0.173 9.75 3.92 7.85
8/23/2021 8:15:00 PM 22.85 73.13 0.173 9.7 4.74 7.81
8/23/2021 8:30:00 PM 22.79 73.022 0.173 9.66 4.72 7.78
8/23/2021 8:45:00 PM 22.72 72.896 0.173 9.62 4.19 7.75
8/23/2021 9:00:00 PM 22.66 72.788 0.173 9.58 4.16 7.74
8/23/2021 9:15:00 PM 22.6 72.68 0.174 9.53 4.36 7.72
8/23/2021 9:30:00 PM 22.54 72.57201 0.174 9.51 4.4 7.72
8/23/2021 9:45:00 PM 22.5 72.5 0.174 9.48 4.31 7.71
8/23/2021 10:00:00 PM 22.46 72.42799 0.174 9.43 4.31 7.7
8/23/2021 10:15:00 PM 22.43 72.374 0.174 9.43 4.59 7.72
8/23/2021 10:30:00 PM 22.4 72.32 0.174 9.41 4.53 7.71
8/23/2021 10:45:00 PM 22.37 72.266 0.174 9.39 4.56 7.71
8/23/2021 11:00:00 PM 22.34 72.212 0.174 9.37 4.42 7.7
8/23/2021 11:15:00 PM 22.31 72.158 0.174 9.35 4.74 7.71
8/23/2021 11:30:00 PM 22.28 72.104 0.174 9.33 4.33 7.72
8/23/2021 11:45:00 PM 22.23 72.014 0.174 9.32 4.46 7.72
8/24/2021 12:00:00 AM 22.18 71.924 0.174 9.29 4.65 7.72
8/24/2021 12:15:00 AM 22.13 71.834 0.174 9.29 4.61 7.72
8/24/2021 12:30:00 AM 22.08 71.744 0.174 9.24 4.42 7.73
8/24/2021 12:45:00 AM 22.02 71.636 0.174 9.24 4.21 7.74
8/24/2021 1:00:00 AM 21.96 71.528 0.174 9.22 4.22 7.75
8/24/2021 1:15:00 AM 21.91 71.438 0.174 9.18 4.32 7.75
8/24/2021 1:30:00 AM 21.85 71.33 0.174 9.19 4.32 7.75
8/24/2021 1:45:00 AM 21.79 71.222 0.174 9.17 4.14 7.77
8/24/2021 2:00:00 AM 21.74 71.132 0.174 9.19 4.51 7.78
8/24/2021 2:15:00 AM 21.69 71.042 0.175 9.17 4.19 7.78
8/24/2021 2:30:00 AM 21.65 70.97 0.175 9.19 4.24 7.79
8/24/2021 2:45:00 AM 21.61 70.898 0.175 9.2 4.37 7.79
8/24/2021 3:00:00 AM 21.56 70.808 0.175 9.21 4.21 7.8
8/24/2021 3:15:00 AM 21.52 70.736 0.175 9.21 4.32 7.81
8/24/2021 3:30:00 AM 21.48 70.664 0.175 9.22 4.28 7.82
8/24/2021 3:45:00 AM 21.44 70.592 0.175 9.22 4.15 7.83
8/24/2021 4:00:00 AM 21.4 70.52 0.175 9.22 5.18 7.83
8/24/2021 4:15:00 AM 21.35 70.43 0.175 9.22 4.42 7.84
8/24/2021 4:30:00 AM 21.31 70.358 0.175 9.21 5.21 7.83
8/24/2021 4:45:00 AM 21.26 70.268 0.175 9.21 4.45 7.86
8/24/2021 5:00:00 AM 21.21 70.17799 0.175 9.2 4.35 7.87
8/24/2021 5:15:00 AM 21.16 70.088 0.176 9.2 4.27 7.88
8/24/2021 5:30:00 AM 21.11 69.998 0.176 9.19 4.45 7.88
8/24/2021 5:45:00 AM 21.07 69.926 0.176 9.18 4.27 7.89
8/24/2021 6:00:00 AM 21.02 69.836 0.176 9.18 4.23 7.9
8/24/2021 6:15:00 AM 20.97 69.746 0.176 9.16 4.25 7.9
8/24/2021 6:30:00 AM 20.92 69.656 0.176 9.16 4.11 7.93
8/24/2021 6:45:00 AM 20.87 69.566 0.176 9.15 4.08 7.95
8/24/2021 7:00:00 AM 20.83 69.494 0.176 9.15 3.97 7.98
8/24/2021 7:15:00 AM 20.79 69.422 0.176 9.15 3.97 8.04
8/24/2021 7:30:00 AM 20.77 69.386 0.176 9.15 3.94 8.1
8/24/2021 7:45:00 AM 20.75 69.35 0.176 9.17 3.9 8.17
8/24/2021 8:00:00 AM 20.73 69.314 0.176 9.17 3.83 8.21
8/24/2021 8:15:00 AM 20.72 69.296 0.176 9.18 3.86 8.3
8/24/2021 8:30:00 AM 20.73 69.314 0.177 9.18 3.85 8.37
8/24/2021 8:45:00 AM 20.79 69.422 0.177 9.21 3.89 8.46
8/24/2021 9:00:00 AM 20.85 69.53 0.177 9.23 4.09 8.56
8/24/2021 9:15:00 AM 20.91 69.638 0.177 9.25 3.85 8.62
8/24/2021 9:30:00 AM 21 69.8 0.177 9.26 3.77 8.71
8/24/2021 9:45:00 AM 21.09 69.962 0.177 9.31 3.76 8.77
8/24/2021 10:00:00 AM 21.23 70.214 0.177 9.31 3.8 8.85
8/24/2021 10:15:00 AM 21.38 70.484 0.177 9.37 3.73 8.9
8/24/2021 10:30:00 AM 21.54 70.772 0.177 9.41 3.78 8.97
8/24/2021 10:45:00 AM 21.71 71.078 0.177 9.43 3.86 9
8/24/2021 11:00:00 AM 21.89 71.402 0.177 9.46 3.82 9.04
8/24/2021 11:15:00 AM 22.1 71.78 0.177 9.48 3.85 9.09
8/24/2021 11:30:00 AM 22.33 72.194 0.177 9.53 4.09 9.11
8/24/2021 11:45:00 AM 22.57 72.626 0.178 9.56 3.84 9.14
8/24/2021 12:00:00 PM 22.84 73.112 0.178 9.61 3.78 9.16
8/24/2021 12:15:00 PM 23.11 73.598 0.178 9.65 3.64 9.16
8/24/2021 12:30:00 PM 23.38 74.084 0.178 9.7 3.61 9.15
8/24/2021 12:45:00 PM 23.62 74.516 0.178 9.75 3.62 9.14
8/24/2021 1:00:00 PM 23.84 74.912 0.178 9.78 3.6 9.13
8/24/2021 1:15:00 PM 24.03 75.254 0.178 9.8 3.58 9.1
8/24/2021 1:30:00 PM 24.19 75.542 0.178 9.81 3.57 9.07
8/24/2021 1:45:00 PM 24.33 75.794 0.178 9.86 3.59 9.04
8/24/2021 2:00:00 PM 24.43 75.974 0.179 9.87 3.63 9
8/24/2021 2:15:00 PM 24.51 76.118 0.179 9.88 3.52 8.97
8/24/2021 2:30:00 PM 24.56 76.208 0.179 9.85 3.42 8.91
8/24/2021 2:45:00 PM 24.6 76.28 0.179 9.82 3.52 8.89
8/24/2021 3:00:00 PM 24.61 76.298 0.179 9.79 3.46 8.83
8/24/2021 3:15:00 PM 24.59 76.262 0.179 9.76 3.56 8.77
8/24/2021 3:30:00 PM 24.56 76.208 0.179 9.73 3.51 8.71
8/24/2021 3:45:00 PM 24.52 76.136 0.179 9.69 3.39 8.64
8/24/2021 4:00:00 PM 24.47 76.046 0.179 9.65 3.43 8.57
8/24/2021 4:15:00 PM 24.44 75.992 0.179 9.62 3.41 8.5
8/24/2021 4:30:00 PM 24.41 75.938 0.179 9.6 3.52 8.42
8/24/2021 4:45:00 PM 24.39 75.902 0.18 9.56 3.42 8.37
8/24/2021 5:00:00 PM 24.36 75.848 0.18 9.54 3.42 8.28
8/24/2021 5:15:00 PM 24.32 75.776 0.18 9.51 3.51 8.25
8/24/2021 5:30:00 PM 24.28 75.704 0.18 9.49 3.45 8.2
8/24/2021 5:45:00 PM 24.25 75.65 0.18 9.46 3.5 8.19
8/24/2021 6:00:00 PM 24.21 75.578 0.18 9.44 3.44 8.13
8/24/2021 6:15:00 PM 24.18 75.524 0.18 9.42 3.42 8.09
8/24/2021 6:30:00 PM 24.13 75.434 0.18 9.4 3.3 8.04
8/24/2021 6:45:00 PM 24.08 75.344 0.181 9.37 3.38 7.98
8/24/2021 7:00:00 PM 24.03 75.254 0.181 9.35 3.44 7.93
8/24/2021 7:15:00 PM 23.97 75.146 0.181 9.32 3.36 7.87
8/24/2021 7:30:00 PM 23.92 75.056 0.181 9.29 3.39 7.82
8/24/2021 7:45:00 PM 23.86 74.948 0.181 9.27 3.29 7.77
8/24/2021 8:00:00 PM 23.8 74.84 0.181 9.24 3.54 7.71
8/24/2021 8:15:00 PM 23.73 74.714 0.182 9.2 3.65 7.63
8/24/2021 8:30:00 PM 23.65 74.57 0.182 9.18 3.46 7.61
8/24/2021 8:45:00 PM 23.58 74.444 0.182 9.15 3.48 7.57
8/24/2021 9:00:00 PM 23.51 74.318 0.182 9.14 3.79 7.55
8/24/2021 9:15:00 PM 23.44 74.192 0.182 9.11 3.6 7.53
8/24/2021 9:30:00 PM 23.38 74.084 0.182 9.1 3.68 7.53
8/24/2021 9:45:00 PM 23.31 73.958 0.182 9.08 3.74 7.51
8/24/2021 10:00:00 PM 23.25 73.85 0.183 9.07 3.7 7.52
8/24/2021 10:15:00 PM 23.19 73.742 0.183 9.05 3.87 7.52
8/24/2021 10:30:00 PM 23.12 73.616 0.183 9.04 3.78 7.53
8/24/2021 10:45:00 PM 23.05 73.49 0.183 9.03 3.72 7.53
8/24/2021 11:00:00 PM 22.98 73.364 0.183 9.02 3.69 7.55
8/24/2021 11:15:00 PM 22.9 73.22 0.183 9.01 3.67 7.54
8/24/2021 11:30:00 PM 22.83 73.094 0.184 8.99 3.83 7.56
8/24/2021 11:45:00 PM 22.75 72.95 0.184 8.97 3.69 7.57
8/25/2021 12:00:00 AM 22.68 72.824 0.184 8.96 3.71 7.57
8/25/2021 12:15:00 AM 22.61 72.698 0.184 8.94 3.68 7.58
8/25/2021 12:30:00 AM 22.53 72.554 0.184 8.94 3.83 7.61
8/25/2021 12:45:00 AM 22.46 72.42799 0.184 8.92 4.47 7.62
8/25/2021 1:00:00 AM 22.4 72.32 0.184 8.92 3.86 7.62
8/25/2021 1:15:00 AM 22.32 72.176 0.184 8.92 3.84 7.64
8/25/2021 1:30:00 AM 22.25 72.05 0.185 8.9 3.82 7.65
8/25/2021 1:45:00 AM 22.18 71.924 0.185 8.89 3.63 7.65
8/25/2021 2:00:00 AM 22.11 71.798 0.185 8.87 3.64 7.68
8/25/2021 2:15:00 AM 22.04 71.672 0.185 8.86 3.76 7.68
8/25/2021 2:30:00 AM 21.96 71.528 0.185 8.86 3.62 7.71
8/25/2021 2:45:00 AM 21.89 71.402 0.185 8.85 3.61 7.7
8/25/2021 3:00:00 AM 21.82 71.276 0.185 8.85 3.52 7.71
8/25/2021 3:15:00 AM 21.76 71.168 0.186 8.83 3.81 7.73
8/25/2021 3:30:00 AM 21.69 71.042 0.186 8.82 4.01 7.75
8/25/2021 3:45:00 AM 21.63 70.934 0.186 8.81 3.82 7.74
8/25/2021 4:00:00 AM 21.58 70.844 0.186 8.79 3.73 7.76
8/25/2021 4:15:00 AM 21.52 70.736 0.186 8.79 3.55 7.77
8/25/2021 4:30:00 AM 21.47 70.646 0.186 8.78 3.74 7.77
8/25/2021 4:45:00 AM 21.43 70.574 0.186 8.78 3.78 7.79
8/25/2021 5:00:00 AM 21.39 70.502 0.186 8.77 3.87 7.81
8/25/2021 5:15:00 AM 21.35 70.43 0.186 8.76 3.95 7.81
8/25/2021 5:30:00 AM 21.32 70.376 0.186 8.76 4.13 7.81
8/25/2021 5:45:00 AM 21.29 70.32201 0.187 8.76 3.86 7.83
8/25/2021 6:00:00 AM 21.26 70.268 0.187 8.75 4.3 7.83
8/25/2021 6:15:00 AM 21.24 70.232 0.187 8.75 4.92 7.83
8/25/2021 6:30:00 AM 21.21 70.17799 0.187 8.75 4.38 7.85
8/25/2021 6:45:00 AM 21.19 70.142 0.187 8.73 3.93 7.85
8/25/2021 7:00:00 AM 21.17 70.106 0.187 8.75 4.42 7.89
8/25/2021 7:15:00 AM 21.16 70.088 0.187 8.75 3.17 7.88
8/25/2021 7:30:00 AM 21.15 70.07 0.187 8.76 3.25 7.99
8/25/2021 7:45:00 AM 21.15 70.07 0.187 8.77 3.3 8.07
8/25/2021 8:00:00 AM 21.16 70.088 0.187 8.78 3.21 8.15
8/25/2021 8:15:00 AM 21.16 70.088 0.187 8.79 3.16 8.22
8/25/2021 8:30:00 AM 21.18 70.124 0.187 8.81 3.18 8.32
8/25/2021 8:45:00 AM 21.21 70.17799 0.187 8.83 3.78 8.44
8/25/2021 9:00:00 AM 21.28 70.304 0.187 8.87 3.14 8.59
8/25/2021 9:15:00 AM 21.33 70.394 0.187 8.9 3.04 8.73
8/25/2021 9:30:00 AM 21.39 70.502 0.187 8.94 3.19 8.88
8/25/2021 9:45:00 AM 21.52 70.736 0.187 9 3.13 9
8/25/2021 10:00:00 AM 21.62 70.916 0.187 9.05 3.11 9.12
8/25/2021 10:15:00 AM 21.73 71.114 0.187 9.08 2.94 9.2
8/25/2021 10:30:00 AM 21.85 71.33 0.187 9.14 3.03 9.26
8/25/2021 10:45:00 AM 22 71.6 0.187 9.18 3.09 9.33
8/25/2021 11:00:00 AM 22.19 71.942 0.187 9.22 2.99 9.39
8/25/2021 11:15:00 AM 22.39 72.302 0.187 9.26 3.32 9.43
8/25/2021 11:30:00 AM 22.61 72.698 0.187 9.31 2.96 9.5
8/25/2021 11:45:00 AM 22.83 73.094 0.187 9.35 3.1 9.54
8/25/2021 12:00:00 PM 23.07 73.526 0.187 9.42 2.98 9.57
8/25/2021 12:15:00 PM 23.31 73.958 0.187 9.48 2.95 9.59
8/25/2021 12:30:00 PM 23.56 74.408 0.187 9.53 2.98 9.58
8/25/2021 12:45:00 PM 23.82 74.876 0.187 9.58 2.99 9.58
8/25/2021 1:00:00 PM 24.08 75.344 0.188 9.63 3.03 9.58
8/25/2021 1:15:00 PM 24.32 75.776 0.188 9.67 2.92 9.55
8/25/2021 1:30:00 PM 24.51 76.118 0.188 9.7 2.95 9.53
8/25/2021 1:45:00 PM 24.67 76.406 0.188 9.73 2.88 9.5
8/25/2021 2:00:00 PM 24.78 76.604 0.188 9.79 2.77 9.47
8/25/2021 2:15:00 PM 24.88 76.784 0.188 9.76 2.96 9.43
8/25/2021 2:30:00 PM 24.93 76.874 0.188 9.73 2.73 9.37
8/25/2021 2:45:00 PM 24.98 76.964 0.188 9.74 2.85 9.29
8/25/2021 3:00:00 PM 25.07 77.126 0.188 9.76 2.76 9.3
8/25/2021 3:15:00 PM 25.11 77.198 0.188 9.74 2.77 9.23
8/25/2021 3:30:00 PM 25.12 77.216 0.188 9.73 2.83 9.17
8/25/2021 3:45:00 PM 25.11 77.198 0.188 9.72 2.77 9.1
8/25/2021 4:00:00 PM 25.08 77.144 0.188 9.68 2.72 9.01
8/25/2021 4:15:00 PM 25.06 77.108 0.189 9.65 2.84 8.91
8/25/2021 4:30:00 PM 25.03 77.054 0.189 9.6 2.78 8.79
8/25/2021 4:45:00 PM 25 77 0.189 9.57 2.87 8.68
8/25/2021 5:00:00 PM 24.95 76.91 0.189 9.51 2.81 8.6
8/25/2021 5:15:00 PM 24.91 76.838 0.189 9.47 2.84 8.51
8/25/2021 5:30:00 PM 24.86 76.748 0.189 9.44 2.7 8.42
8/25/2021 5:45:00 PM 24.82 76.676 0.189 9.4 2.81 8.33
8/25/2021 6:00:00 PM 24.77 76.586 0.189 9.37 2.73 8.27
8/25/2021 6:15:00 PM 24.71 76.478 0.189 9.31 2.84 8.2
8/25/2021 6:30:00 PM 24.65 76.37 0.189 9.29 2.92 8.12
8/25/2021 6:45:00 PM 24.59 76.262 0.19 9.32 2.71 8.06
8/25/2021 7:00:00 PM 24.52 76.136 0.19 9.25 2.79 7.99
8/25/2021 7:15:00 PM 24.45 76.01 0.19 9.2 2.74 7.92
8/25/2021 7:30:00 PM 24.38 75.884 0.19 9.16 2.94 7.83
8/25/2021 7:45:00 PM 24.31 75.758 0.19 9.13 2.71 7.73
8/25/2021 8:00:00 PM 24.25 75.65 0.19 9.09 2.89 7.66
8/25/2021 8:15:00 PM 24.19 75.542 0.19 9.05 2.96 7.56
8/25/2021 8:30:00 PM 24.12 75.416 0.19 9.03 3 7.51
8/25/2021 8:45:00 PM 24.05 75.29 0.191 8.99 3.1 7.45
8/25/2021 9:00:00 PM 23.99 75.182 0.191 8.99 3.03 7.41
8/25/2021 9:15:00 PM 23.93 75.074 0.191 8.96 3 7.39
8/25/2021 9:30:00 PM 23.87 74.966 0.191 8.95 3.01 7.38
8/25/2021 9:45:00 PM 23.81 74.858 0.191 8.94 3.19 7.37
8/25/2021 10:00:00 PM 23.76 74.768 0.191 8.94 3.02 7.37
8/25/2021 10:15:00 PM 23.7 74.66 0.191 8.92 2.86 7.36
8/25/2021 10:30:00 PM 23.65 74.57 0.191 8.93 3.02 7.36
8/25/2021 10:45:00 PM 23.6 74.48 0.191 8.92 2.96 7.36
8/25/2021 11:00:00 PM 23.55 74.39 0.191 8.89 2.8 7.36
8/25/2021 11:15:00 PM 23.5 74.3 0.191 8.87 2.91 7.36
8/25/2021 11:30:00 PM 23.45 74.21 0.192 8.86 2.91 7.35
8/25/2021 11:45:00 PM 23.4 74.12 0.192 8.85 3.13 7.37
8/26/2021 12:00:00 AM 23.35 74.03 0.192 8.85 2.99 7.38
8/26/2021 12:15:00 AM 23.3 73.94 0.192 8.84 2.9 7.38
8/26/2021 12:30:00 AM 23.24 73.832 0.192 8.8 2.86 7.39
8/26/2021 12:45:00 AM 23.19 73.742 0.192 8.82 2.88 7.4
8/26/2021 1:00:00 AM 23.14 73.652 0.192 8.8 2.92 7.4
8/26/2021 1:15:00 AM 23.09 73.562 0.192 8.8 2.85 7.42
8/26/2021 1:30:00 AM 23.03 73.454 0.192 8.79 2.89 7.43
8/26/2021 1:45:00 AM 22.97 73.346 0.192 8.77 2.85 7.43
8/26/2021 2:00:00 AM 22.91 73.238 0.193 8.77 2.74 7.43
8/26/2021 2:15:00 AM 22.86 73.148 0.193 8.76 2.94 7.44
8/26/2021 2:30:00 AM 22.8 73.04 0.193 8.75 2.97 7.46
8/26/2021 2:45:00 AM 22.75 72.95 0.193 8.74 3.27 7.47
8/26/2021 3:00:00 AM 22.69 72.842 0.193 8.73 2.97 7.47
8/26/2021 3:15:00 AM 22.63 72.734 0.193 8.71 2.91 7.48
8/26/2021 3:30:00 AM 22.58 72.644 0.193 8.71 3 7.49
8/26/2021 3:45:00 AM 22.52 72.536 0.193 8.74 3 7.5
8/26/2021 4:00:00 AM 22.47 72.446 0.194 8.71 3.06 7.5
8/26/2021 4:15:00 AM 22.42 72.356 0.194 8.73 3.13 7.52
8/26/2021 4:30:00 AM 22.37 72.266 0.194 8.7 2.92 7.52
8/26/2021 4:45:00 AM 22.32 72.176 0.194 8.68 2.94 7.55
8/26/2021 5:00:00 AM 22.28 72.104 0.194 8.69 3.15 7.54
8/26/2021 5:15:00 AM 22.25 72.05 0.194 8.72 3.16 7.56
8/26/2021 5:30:00 AM 22.21 71.978 0.195 8.68 3.07 7.57
8/26/2021 5:45:00 AM 22.18 71.924 0.194 8.69 3.22 7.56
8/26/2021 6:00:00 AM 22.15 71.87 0.195 8.69 2.98 7.57
8/26/2021 6:15:00 AM 22.12 71.816 0.195 8.66 3.02 7.57
8/26/2021 6:30:00 AM 22.08 71.744 0.195 8.69 2.94 7.6
8/26/2021 6:45:00 AM 22.06 71.708 0.195 8.68 3.06 7.62
8/26/2021 7:00:00 AM 22.03 71.654 0.195 8.64 2.95 7.65
8/26/2021 7:15:00 AM 22.01 71.618 0.195 8.68 2.92 7.69
8/26/2021 7:30:00 AM 21.99 71.582 0.195 8.67 2.95 7.72
8/26/2021 7:45:00 AM 21.97 71.546 0.195 8.66 2.76 7.76
8/26/2021 8:00:00 AM 21.96 71.528 0.195 8.68 2.96 7.84
8/26/2021 8:15:00 AM 21.94 71.492 0.195 8.68 2.84 7.87
8/26/2021 8:30:00 AM 21.93 71.474 0.196 8.7 2.83 7.99
8/26/2021 8:45:00 AM 21.94 71.492 0.195 8.72 2.87 8.11
8/26/2021 9:00:00 AM 21.95 71.51 0.195 8.74 2.87 8.23
8/26/2021 9:15:00 AM 21.98 71.564 0.195 8.76 3 8.38
8/26/2021 9:30:00 AM 22.01 71.618 0.195 8.8 2.9 8.52
8/26/2021 9:45:00 AM 22.07 71.726 0.195 8.83 3 8.67
8/26/2021 10:00:00 AM 22.13 71.834 0.195 8.86 2.91 8.81
8/26/2021 10:15:00 AM 22.21 71.978 0.195 8.91 3.01 8.97
8/26/2021 10:30:00 AM 22.28 72.104 0.195 8.97 2.87 9.11
8/26/2021 10:45:00 AM 22.39 72.302 0.195 9.01 2.94 9.24
8/26/2021 11:00:00 AM 22.46 72.42799 0.195 9.09 2.96 9.32
8/26/2021 11:15:00 AM 22.51 72.518 0.195 9.1 3.09 9.32
8/26/2021 11:30:00 AM 22.55 72.59 0.195 9.12 2.84 9.33
8/26/2021 11:45:00 AM 22.61 72.698 0.195 9.13 2.78 9.32
8/26/2021 12:00:00 PM 22.71 72.878 0.195 9.15 2.91 9.34
8/26/2021 12:15:00 PM 22.83 73.094 0.195 9.18 2.79 9.38
8/26/2021 12:30:00 PM 22.93 73.274 0.195 9.22 2.75 9.44
8/26/2021 12:45:00 PM 23.03 73.454 0.195 9.27 2.94 9.55
8/26/2021 1:00:00 PM 23.12 73.616 0.195 9.34 2.88 9.61
8/26/2021 1:15:00 PM 23.2 73.76 0.195 9.39 2.75 9.66
8/26/2021 1:30:00 PM 23.27 73.886 0.195 9.42 2.75 9.68
8/26/2021 1:45:00 PM 23.34 74.012 0.195 9.45 2.83 9.68
8/26/2021 2:00:00 PM 23.42 74.156 0.195 9.47 2.79 9.68
8/26/2021 2:15:00 PM 23.52 74.336 0.195 9.49 2.82 9.71
8/26/2021 2:30:00 PM 23.67 74.606 0.195 9.55 2.74 9.76
8/26/2021 2:45:00 PM 23.85 74.93 0.195 9.6 2.75 9.75
8/26/2021 3:00:00 PM 23.98 75.164 0.195 9.64 2.83 9.77
8/26/2021 3:15:00 PM 24.11 75.398 0.195 9.67 2.7 9.81
8/26/2021 3:30:00 PM 24.22 75.596 0.195 9.73 2.68 9.82
8/26/2021 3:45:00 PM 24.3 75.74 0.195 9.74 2.83 9.79
8/26/2021 4:00:00 PM 24.34 75.812 0.195 9.75 2.73 9.7
8/26/2021 4:15:00 PM 24.36 75.848 0.195 9.74 2.9 9.65
8/26/2021 4:30:00 PM 24.41 75.938 0.195 9.72 2.64 9.57
8/26/2021 4:45:00 PM 24.44 75.992 0.195 9.76 2.78 9.5
8/26/2021 5:00:00 PM 24.44 75.992 0.195 9.65 2.75 9.4
8/26/2021 5:15:00 PM 24.44 75.992 0.195 9.67 2.68 9.29
8/26/2021 5:30:00 PM 24.44 75.992 0.195 9.59 2.67 9.19
8/26/2021 5:45:00 PM 24.43 75.974 0.196 9.53 2.69 9.05
8/26/2021 6:00:00 PM 24.4 75.92 0.196 9.48 2.69 8.93
8/26/2021 6:15:00 PM 24.37 75.866 0.196 9.41 2.75 8.8
8/26/2021 6:30:00 PM 24.32 75.776 0.196 9.35 2.64 8.68
8/26/2021 6:45:00 PM 24.27 75.686 0.196 9.27 2.61 8.55
8/26/2021 7:00:00 PM 24.21 75.578 0.196 9.2 2.66 8.41
8/26/2021 7:15:00 PM 24.15 75.47 0.197 9.13 2.69 8.28
8/26/2021 7:30:00 PM 24.08 75.344 0.197 9.07 2.73 8.15
8/26/2021 7:45:00 PM 24 75.2 0.197 9 2.63 8
8/26/2021 8:00:00 PM 23.9 75.02 0.197 8.97 2.93 7.87
8/26/2021 8:15:00 PM 23.82 74.876 0.197 8.92 2.75 7.76
8/26/2021 8:30:00 PM 23.73 74.714 0.197 8.92 2.89 7.65
8/26/2021 8:45:00 PM 23.64 74.552 0.198 8.85 2.75 7.59
8/26/2021 9:00:00 PM 23.56 74.408 0.198 8.81 3.28 7.51
8/26/2021 9:15:00 PM 23.49 74.282 0.198 8.77 2.87 7.48
8/26/2021 9:30:00 PM 23.42 74.156 0.198 8.76 3 7.47
8/26/2021 9:45:00 PM 23.35 74.03 0.198 8.75 2.95 7.45
8/26/2021 10:00:00 PM 23.28 73.904 0.198 8.73 2.93 7.41
8/26/2021 10:15:00 PM 23.22 73.796 0.198 8.7 2.77 7.42
8/26/2021 10:30:00 PM 23.16 73.688 0.198 8.7 3.13 7.41
8/26/2021 10:45:00 PM 23.1 73.58 0.198 8.69 3.27 7.41
8/26/2021 11:00:00 PM 23.04 73.472 0.198 8.71 2.92 7.41
8/26/2021 11:15:00 PM 22.99 73.382 0.198 8.67 2.82 7.42
8/26/2021 11:30:00 PM 22.94 73.292 0.198 8.64 2.89 7.42
8/26/2021 11:45:00 PM 22.89 73.202 0.198 8.65 3.02 7.43
8/27/2021 12:00:00 AM 22.84 73.112 0.198 8.65 3.06 7.42
8/27/2021 12:15:00 AM 22.8 73.04 0.198 8.63 2.9 7.43
8/27/2021 12:30:00 AM 22.76 72.968 0.199 8.63 2.99 7.44
8/27/2021 12:45:00 AM 22.73 72.914 0.199 8.63 3.43 7.43
8/27/2021 1:00:00 AM 22.7 72.86 0.199 8.63 3.17 7.44
8/27/2021 1:15:00 AM 22.68 72.824 0.199 8.62 3.15 7.45
8/27/2021 1:30:00 AM 22.67 72.806 0.199 8.61 3.06 7.44
8/27/2021 1:45:00 AM 22.65 72.77 0.199 8.63 2.89 7.43
8/27/2021 2:00:00 AM 22.63 72.734 0.199 8.65 3.58 7.44
8/27/2021 2:15:00 AM 22.62 72.716 0.199 8.66 2.89 7.45
8/27/2021 2:30:00 AM 22.6 72.68 0.199 8.63 3.02 7.45
8/27/2021 2:45:00 AM 22.58 72.644 0.199 8.62 2.94 7.46
8/27/2021 3:00:00 AM 22.56 72.608 0.2 8.61 2.93 7.47
8/27/2021 3:15:00 AM 22.53 72.554 0.2 8.6 3.66 7.47
8/27/2021 3:30:00 AM 22.5 72.5 0.2 8.58 3.02 7.48
8/27/2021 3:45:00 AM 22.48 72.464 0.2 8.6 3.09 7.46
8/27/2021 4:00:00 AM 22.46 72.42799 0.2 8.62 3.13 7.48
8/27/2021 4:15:00 AM 22.44 72.392 0.2 8.66 3.32 7.48
8/27/2021 4:30:00 AM 22.41 72.338 0.2 8.61 3.03 7.47
8/27/2021 4:45:00 AM 22.39 72.302 0.2 8.57 3.12 7.48
8/27/2021 5:00:00 AM 22.37 72.266 0.201 8.57 3.08 7.49
8/27/2021 5:15:00 AM 22.35 72.23 0.201 8.57 3 7.48
8/27/2021 5:30:00 AM 22.33 72.194 0.201 8.57 3.12 7.49
8/27/2021 5:45:00 AM 22.3 72.14 0.201 8.56 2.99 7.5
8/27/2021 6:00:00 AM 22.28 72.104 0.201 8.56 2.87 7.5
8/27/2021 6:15:00 AM 22.25 72.05 0.201 8.55 3.09 7.5
8/27/2021 6:30:00 AM 22.22 71.996 0.201 8.56 2.93 7.51
8/27/2021 6:45:00 AM 22.2 71.96 0.201 8.67 2.84 7.53
8/27/2021 7:00:00 AM 22.17 71.906 0.202 8.58 2.91 7.54
8/27/2021 7:15:00 AM 22.15 71.87 0.202 8.58 2.99 7.6
8/27/2021 7:30:00 AM 22.14 71.852 0.202 8.6 2.84 7.66
8/27/2021 7:45:00 AM 22.12 71.816 0.202 8.62 2.93 7.7
8/27/2021 8:00:00 AM 22.12 71.816 0.202 8.65 2.87 7.76
8/27/2021 8:15:00 AM 22.11 71.798 0.202 8.65 2.69 7.88
8/27/2021 8:30:00 AM 22.11 71.798 0.202 8.66 2.93 7.93
8/27/2021 8:45:00 AM 22.12 71.816 0.202 8.7 2.88 8.04
8/27/2021 9:00:00 AM 22.13 71.834 0.202 8.77 2.83 8.13
8/27/2021 9:15:00 AM 22.13 71.834 0.202 8.72 2.89 8.23
8/27/2021 9:30:00 AM 22.14 71.852 0.202 8.75 2.78 8.29
8/27/2021 9:45:00 AM 22.16 71.888 0.202 8.73 2.89 8.41
8/27/2021 10:00:00 AM 22.19 71.942 0.202 8.75 2.85 8.53
8/27/2021 10:15:00 AM 22.22 71.996 0.202 8.77 3.11 8.64
8/27/2021 10:30:00 AM 22.26 72.068 0.201 8.89 2.82 8.78
8/27/2021 10:45:00 AM 22.37 72.266 0.201 8.87 2.83 8.96
8/27/2021 11:00:00 AM 22.5 72.5 0.201 8.94 2.91 9.11
8/27/2021 11:15:00 AM 22.53 72.554 0.201 9.01 2.86 9.21
8/27/2021 11:30:00 AM 22.62 72.716 0.201 9.08 20.56 9.32
8/27/2021 11:45:00 AM 22.73 72.914 0.201 9.13 2.78 9.48
8/27/2021 12:00:00 PM 22.84 73.112 0.201 9.18 2.65 9.55
8/27/2021 12:15:00 PM 22.98 73.364 0.201 9.24 2.64 9.63
8/27/2021 12:30:00 PM 23.16 73.688 0.201 9.35 2.53 9.74
8/27/2021 12:45:00 PM 23.32 73.976 0.201 9.4 2.52 9.82
8/27/2021 1:00:00 PM 23.45 74.21 0.201 9.46 2.55 9.87
8/27/2021 1:15:00 PM 23.61 74.498 0.201 9.51 2.61 9.92
8/27/2021 1:30:00 PM 23.86 74.948 0.201 9.62 2.53 9.97
8/27/2021 1:45:00 PM 24.13 75.434 0.201 9.68 2.44 9.98
8/27/2021 2:00:00 PM 24.38 75.884 0.201 9.73 2.45 9.94
8/27/2021 2:15:00 PM 24.58 76.244 0.201 9.88 2.46 9.9
8/27/2021 2:30:00 PM 24.79 76.622 0.201 9.94 2.41 9.85
8/27/2021 2:45:00 PM 24.99 76.982 0.201 9.84 2.52 9.77
8/27/2021 3:00:00 PM 25.14 77.252 0.201 9.85 2.52 9.71
8/27/2021 3:15:00 PM 25.22 77.396 0.201 9.87 2.47 9.63
8/27/2021 3:30:00 PM 25.19 77.342 0.201 9.82 3.33 9.56
8/27/2021 3:45:00 PM 25.12 77.216 0.201 9.79 2.48 9.48
8/27/2021 4:00:00 PM 25.1 77.18 0.202 9.76 2.53 9.38
8/27/2021 4:15:00 PM 25.08 77.144 0.202 9.72 2.57 9.25
8/27/2021 4:30:00 PM 25.06 77.108 0.202 9.69 2.46 9.18
8/27/2021 4:45:00 PM 25.02 77.036 0.202 9.66 2.55 9.08
8/27/2021 5:00:00 PM 24.96 76.92799 0.202 9.59 2.57 8.93
8/27/2021 5:15:00 PM 24.92 76.856 0.202 9.53 2.43 8.88
8/27/2021 5:30:00 PM 24.86 76.748 0.202 9.49 2.44 8.82
8/27/2021 5:45:00 PM 24.79 76.622 0.202 9.42 2.49 8.71
8/27/2021 6:00:00 PM 24.72 76.496 0.203 9.36 2.52 8.6
8/27/2021 6:15:00 PM 24.63 76.334 0.203 9.29 2.31 8.47
8/27/2021 6:30:00 PM 24.57 76.226 0.203 9.22 2.34 8.36
8/27/2021 6:45:00 PM 24.52 76.136 0.203 9.19 2.4 8.3
8/27/2021 7:00:00 PM 24.45 76.01 0.203 9.12 2.46 8.18
8/27/2021 7:15:00 PM 24.38 75.884 0.203 9.07 2.41 8.09
8/27/2021 7:30:00 PM 24.31 75.758 0.203 9.02 2.5 8.01
8/27/2021 7:45:00 PM 24.23 75.614 0.204 8.98 2.42 7.92
8/27/2021 8:00:00 PM 24.14 75.452 0.204 8.93 2.42 7.81
8/27/2021 8:15:00 PM 24.05 75.29 0.204 8.89 2.56 7.69
8/27/2021 8:30:00 PM 23.97 75.146 0.204 8.96 2.49 7.6
8/27/2021 8:45:00 PM 23.9 75.02 0.204 8.83 2.65 7.52
8/27/2021 9:00:00 PM 23.83 74.894 0.204 8.8 2.7 7.45
8/27/2021 9:15:00 PM 23.77 74.786 0.205 8.75 2.72 7.4
8/27/2021 9:30:00 PM 23.71 74.67799 0.204 8.78 2.6 7.36
8/27/2021 9:45:00 PM 23.65 74.57 0.205 8.7 2.55 7.32
8/27/2021 10:00:00 PM 23.61 74.498 0.205 8.69 2.62 7.32
8/27/2021 10:15:00 PM 23.57 74.426 0.205 8.68 2.72 7.31
8/27/2021 10:30:00 PM 23.52 74.336 0.205 8.69 2.64 7.31
8/27/2021 10:45:00 PM 23.48 74.264 0.205 8.71 2.76 7.31
8/27/2021 11:00:00 PM 23.45 74.21 0.205 8.78 2.6 7.3
8/27/2021 11:15:00 PM 23.41 74.138 0.205 8.78 2.75 7.32
8/27/2021 11:30:00 PM 23.37 74.066 0.205 8.77 2.6 7.29
8/27/2021 11:45:00 PM 23.33 73.994 0.205 8.75 2.61 7.31
8/28/2021 12:00:00 AM 23.29 73.922 0.205 8.71 2.65 7.32
8/28/2021 12:15:00 AM 23.24 73.832 0.205 8.73 2.67 7.31
8/28/2021 12:30:00 AM 23.19 73.742 0.205 8.78 2.61 7.32
8/28/2021 12:45:00 AM 23.14 73.652 0.205 8.77 2.56 7.33
8/28/2021 1:00:00 AM 23.08 73.544 0.205 8.74 2.67 7.35
8/28/2021 1:15:00 AM 23.03 73.454 0.205 8.65 2.61 7.34
8/28/2021 1:30:00 AM 22.98 73.364 0.205 8.64 2.64 7.34
8/28/2021 1:45:00 AM 22.93 73.274 0.205 8.62 3.17 7.35
8/28/2021 2:00:00 AM 22.87 73.166 0.205 8.63 2.74 7.37
8/28/2021 2:15:00 AM 22.83 73.094 0.205 8.7 2.82 7.36
8/28/2021 2:30:00 AM 22.78 73.004 0.205 8.6 2.83 7.37
8/28/2021 2:45:00 AM 22.73 72.914 0.205 8.61 2.76 7.38
8/28/2021 3:00:00 AM 22.68 72.824 0.205 8.58 2.88 7.4
8/28/2021 3:15:00 AM 22.63 72.734 0.205 8.58 2.88 7.41
8/28/2021 3:30:00 AM 22.6 72.68 0.205 8.59 2.81 7.4
8/28/2021 3:45:00 AM 22.57 72.626 0.205 8.55 2.81 7.4
8/28/2021 4:00:00 AM 22.53 72.554 0.206 8.56 3.06 7.42
8/28/2021 4:15:00 AM 22.5 72.5 0.206 8.57 2.61 7.41
8/28/2021 4:30:00 AM 22.48 72.464 0.206 8.53 2.58 7.44
8/28/2021 4:45:00 AM 22.46 72.42799 0.206 8.54 2.67 7.43
8/28/2021 5:00:00 AM 22.43 72.374 0.206 8.54 2.79 7.44
8/28/2021 5:15:00 AM 22.41 72.338 0.206 8.54 2.77 7.44
8/28/2021 5:30:00 AM 22.39 72.302 0.206 8.56 2.67 7.45
8/28/2021 5:45:00 AM 22.37 72.266 0.206 8.57 2.58 7.45
8/28/2021 6:00:00 AM 22.35 72.23 0.206 8.58 2.72 7.45
8/28/2021 6:15:00 AM 22.33 72.194 0.206 8.58 2.57 7.46
8/28/2021 6:30:00 AM 22.31 72.158 0.206 8.55 2.69 7.47
8/28/2021 6:45:00 AM 22.3 72.14 0.206 8.53 2.59 7.47
8/28/2021 7:00:00 AM 22.28 72.104 0.207 8.64 2.58 7.5
8/28/2021 7:15:00 AM 22.26 72.068 0.207 8.55 2.54 7.52
8/28/2021 7:30:00 AM 22.24 72.032 0.207 8.56 3.14 7.65
8/28/2021 7:45:00 AM 22.23 72.014 0.206 8.59 4.15 7.83
8/28/2021 8:00:00 AM 22.23 72.014 0.207 8.57 3.89 7.84
8/28/2021 8:15:00 AM 22.23 72.014 0.208 8.58 3.83 7.89
8/28/2021 8:30:00 AM 22.21 71.978 0.209 8.6 3.77 7.96
8/28/2021 8:45:00 AM 22.2 71.96 0.208 8.63 3.81 8.05
8/28/2021 9:00:00 AM 22.21 71.978 0.207 8.63 3.52 8.19
8/28/2021 9:15:00 AM 22.21 71.978 0.206 8.67 3.59 8.26
8/28/2021 9:30:00 AM 22.21 71.978 0.205 8.67 3.57 8.31
8/28/2021 9:45:00 AM 22.21 71.978 0.205 8.68 3.81 8.34
8/28/2021 10:00:00 AM 22.22 71.996 0.204 8.68 3.68 8.34
8/28/2021 10:15:00 AM 22.23 72.014 0.203 8.68 3.42 8.37
8/28/2021 10:30:00 AM 22.26 72.068 0.203 8.71 3.56 8.45
8/28/2021 10:45:00 AM 22.3 72.14 0.202 8.72 3.56 8.54
8/28/2021 11:00:00 AM 22.39 72.302 0.202 8.76 3.6 8.69
8/28/2021 11:15:00 AM 22.45 72.41 0.202 8.81 3.47 8.81
8/28/2021 11:30:00 AM 22.49 72.482 0.202 8.84 3.57 8.88
8/28/2021 11:45:00 AM 22.52 72.536 0.202 8.85 3.59 8.9
8/28/2021 12:00:00 PM 22.61 72.698 0.202 8.91 4.46 8.97
8/28/2021 12:15:00 PM 22.67 72.806 0.203 8.93 3.78 9.02
8/28/2021 12:30:00 PM 22.75 72.95 0.203 8.96 3.82 9.06
8/28/2021 12:45:00 PM 22.76 72.968 0.203 8.96 3.46 8.98
8/28/2021 1:00:00 PM 22.84 73.112 0.204 8.97 3.6 9.04
8/28/2021 1:15:00 PM 22.96 73.328 0.204 9 3.33 9.07
8/28/2021 1:30:00 PM 23.12 73.616 0.204 9.21 3.61 9.23
8/28/2021 1:45:00 PM 23.15 73.67 0.204 9.11 3.38 9.26
8/28/2021 2:00:00 PM 23.19 73.742 0.203 9.18 3.42 9.23
8/28/2021 2:15:00 PM 23.25 73.85 0.203 9.14 3.33 9.18
8/28/2021 2:30:00 PM 23.3 73.94 0.203 9.17 3.35 9.12
8/28/2021 2:45:00 PM 23.35 74.03 0.202 9.16 3.49 9.16
8/28/2021 3:00:00 PM 23.43 74.174 0.201 9.17 3.32 9.16
8/28/2021 3:15:00 PM 23.46 74.228 0.199 9.17 3.42 9.14
8/28/2021 3:30:00 PM 23.53 74.354 0.198 9.25 3.7 9.19
8/28/2021 3:45:00 PM 23.54 74.372 0.196 9.2 3.81 9.16
8/28/2021 4:00:00 PM 23.59 74.462 0.194 9.25 4.08 9.11
8/28/2021 4:15:00 PM 23.63 74.534 0.193 9.24 3.97 9.04
8/28/2021 4:30:00 PM 23.68 74.624 0.191 9.2 4.17 8.95
8/28/2021 4:45:00 PM 23.76 74.768 0.19 9.24 4.6 8.89
8/28/2021 5:00:00 PM 23.8 74.84 0.188 9.2 4.71 8.77
8/28/2021 5:15:00 PM 23.84 74.912 0.186 9.17 5.16 8.72
8/28/2021 5:30:00 PM 23.85 74.93 0.185 9.15 5.4 8.62
8/28/2021 5:45:00 PM 23.84 74.912 0.183 9.12 5.96 8.54
8/28/2021 6:00:00 PM 23.82 74.876 0.182 9.07 6.28 8.46
8/28/2021 6:15:00 PM 23.8 74.84 0.18 9.02 6.34 8.34
8/28/2021 6:30:00 PM 23.76 74.768 0.179 8.96 6.66 8.22
8/28/2021 6:45:00 PM 23.72 74.696 0.178 8.88 7.05 8.15
8/28/2021 7:00:00 PM 23.69 74.642 0.177 8.84 6.87 8.09
8/28/2021 7:15:00 PM 23.66 74.588 0.176 8.81 7.38 8.07
8/28/2021 7:30:00 PM 23.61 74.498 0.175 8.78 7.91 8.02
8/28/2021 7:45:00 PM 23.55 74.39 0.174 8.74 7.85 7.96
8/28/2021 8:00:00 PM 23.49 74.282 0.173 8.7 7.68 7.85
8/28/2021 8:15:00 PM 23.42 74.156 0.172 8.69 8.42 7.76
8/28/2021 8:30:00 PM 23.37 74.066 0.172 8.64 8.31 7.69
8/28/2021 8:45:00 PM 23.32 73.976 0.171 8.62 7.95 7.64
8/28/2021 9:00:00 PM 23.28 73.904 0.171 8.62 8.38 7.6
8/28/2021 9:15:00 PM 23.24 73.832 0.17 8.56 7.75 7.57
8/28/2021 9:30:00 PM 23.21 73.778 0.17 8.58 7.65 7.55
8/28/2021 9:45:00 PM 23.17 73.706 0.17 8.55 7.37 7.54
8/28/2021 10:00:00 PM 23.13 73.634 0.17 8.54 7.63 7.53
8/28/2021 10:15:00 PM 23.09 73.562 0.169 8.52 7.41 7.54
8/28/2021 10:30:00 PM 23.06 73.508 0.169 8.53 7.16 7.53
8/28/2021 10:45:00 PM 23.02 73.436 0.169 8.52 6.98 7.53
8/28/2021 11:00:00 PM 22.99 73.382 0.169 8.5 6.61 7.54
8/28/2021 11:15:00 PM 22.96 73.328 0.169 8.5 6.62 7.52
8/28/2021 11:30:00 PM 22.94 73.292 0.169 8.48 6.62 7.52
8/28/2021 11:45:00 PM 22.9 73.22 0.169 8.47 6.15 7.54
8/29/2021 12:00:00 AM 22.87 73.166 0.169 8.47 6.15 7.54
8/29/2021 12:15:00 AM 22.84 73.112 0.169 8.46 5.82 7.54
8/29/2021 12:30:00 AM 22.81 73.058 0.169 8.46 5.86 7.54
8/29/2021 12:45:00 AM 22.78 73.004 0.169 8.46 5.81 7.54
8/29/2021 1:00:00 AM 22.75 72.95 0.169 8.46 5.62 7.54
8/29/2021 1:15:00 AM 22.72 72.896 0.169 8.45 5.16 7.56
8/29/2021 1:30:00 AM 22.7 72.86 0.169 8.44 5.12 7.56
8/29/2021 1:45:00 AM 22.67 72.806 0.169 8.42 4.98 7.56
8/29/2021 2:00:00 AM 22.64 72.752 0.169 8.42 4.68 7.56
8/29/2021 2:15:00 AM 22.62 72.716 0.169 8.43 4.72 7.56
8/29/2021 2:30:00 AM 22.59 72.662 0.17 8.42 4.91 7.58
8/29/2021 2:45:00 AM 22.56 72.608 0.17 8.43 5 7.56
8/29/2021 3:00:00 AM 22.53 72.554 0.17 8.42 4.75 7.54
8/29/2021 3:15:00 AM 22.5 72.5 0.17 8.41 4.65 7.58
8/29/2021 3:30:00 AM 22.47 72.446 0.17 8.4 4.5 7.59
8/29/2021 3:45:00 AM 22.44 72.392 0.171 8.4 4.47 7.58
8/29/2021 4:00:00 AM 22.4 72.32 0.171 8.4 4.33 7.6
8/29/2021 4:15:00 AM 22.37 72.266 0.171 8.39 4.21 7.59
8/29/2021 4:30:00 AM 22.34 72.212 0.171 8.35 4.19 7.6
8/29/2021 4:45:00 AM 22.31 72.158 0.172 8.38 3.92 7.61
8/29/2021 5:00:00 AM 22.29 72.122 0.172 8.37 4.02 7.6
8/29/2021 5:15:00 AM 22.26 72.068 0.172 8.38 4.35 7.6
8/29/2021 5:30:00 AM 22.23 72.014 0.172 8.47 4.01 7.62
8/29/2021 5:45:00 AM 22.21 71.978 0.172 8.38 3.91 7.62
8/29/2021 6:00:00 AM 22.19 71.942 0.173 8.39 3.71 7.63
8/29/2021 6:15:00 AM 22.17 71.906 0.173 8.38 3.71 7.62
8/29/2021 6:30:00 AM 22.15 71.87 0.173 8.39 3.65 7.63
8/29/2021 6:45:00 AM 22.13 71.834 0.173 8.37 3.56 7.61
8/29/2021 7:00:00 AM 22.12 71.816 0.174 8.38 3.67 7.66
8/29/2021 7:15:00 AM 22.1 71.78 0.174 8.38 3.52 7.69
8/29/2021 7:30:00 AM 22.09 71.762 0.174 8.39 3.49 7.74
8/29/2021 7:45:00 AM 22.08 71.744 0.174 8.39 3.43 7.78
8/29/2021 8:00:00 AM 22.09 71.762 0.174 8.4 3.4 7.87
8/29/2021 8:15:00 AM 22.11 71.798 0.174 8.42 3.42 7.99
8/29/2021 8:30:00 AM 22.13 71.834 0.175 8.46 3.39 8.11
8/29/2021 8:45:00 AM 22.15 71.87 0.175 8.47 3.24 8.24
8/29/2021 9:00:00 AM 22.16 71.888 0.175 8.51 3.23 8.32
8/29/2021 9:15:00 AM 22.21 71.978 0.175 8.53 3.34 8.47
8/29/2021 9:30:00 AM 22.25 72.05 0.175 8.57 3.28 8.58
8/29/2021 9:45:00 AM 22.3 72.14 0.175 8.61 3.15 8.73
8/29/2021 10:00:00 AM 22.36 72.248 0.175 8.67 3.27 8.83
8/29/2021 10:15:00 AM 22.41 72.338 0.175 8.7 3.15 8.93
8/29/2021 10:30:00 AM 22.49 72.482 0.175 8.75 3.29 9.02
8/29/2021 10:45:00 AM 22.58 72.644 0.176 8.81 3.21 9.14
8/29/2021 11:00:00 AM 22.67 72.806 0.176 8.87 3.21 9.24
8/29/2021 11:15:00 AM 22.74 72.932 0.176 8.93 3.09 9.32
8/29/2021 11:30:00 AM 22.86 73.148 0.176 9 3.17 9.42
8/29/2021 11:45:00 AM 22.98 73.364 0.176 9.06 3.13 9.48
8/29/2021 12:00:00 PM 23.07 73.526 0.176 9.1 3.05 9.5
8/29/2021 12:15:00 PM 23.14 73.652 0.176 9.15 3.12 9.55
8/29/2021 12:30:00 PM 23.23 73.814 0.176 9.19 3.06 9.57
8/29/2021 12:45:00 PM 23.33 73.994 0.176 9.24 2.91 9.6
8/29/2021 1:00:00 PM 23.56 74.408 0.177 9.32 2.98 9.64
8/29/2021 1:15:00 PM 23.71 74.67799 0.177 9.38 3.04 9.67
8/29/2021 1:30:00 PM 23.82 74.876 0.177 9.42 2.97 9.7
8/29/2021 1:45:00 PM 24.01 75.218 0.177 9.47 2.96 9.73
8/29/2021 2:00:00 PM 24.19 75.542 0.177 9.54 2.93 9.72
8/29/2021 2:15:00 PM 24.23 75.614 0.177 9.52 2.83 9.62
8/29/2021 2:30:00 PM 24.22 75.596 0.178 9.51 2.93 9.6
8/29/2021 2:45:00 PM 24.26 75.668 0.178 9.52 3.05 9.58
8/29/2021 3:00:00 PM 24.28 75.704 0.178 9.5 2.92 9.48
8/29/2021 3:15:00 PM 24.25 75.65 0.178 9.45 2.84 9.31
8/29/2021 3:30:00 PM 24.26 75.668 0.179 9.43 3.03 9.23
8/29/2021 3:45:00 PM 24.27 75.686 0.179 9.4 2.77 9.16
8/29/2021 4:00:00 PM 24.24 75.632 0.179 9.32 2.78 9.03
8/29/2021 4:15:00 PM 24.21 75.578 0.179 9.23 3.04 8.93
8/29/2021 4:30:00 PM 24.21 75.578 0.18 9.23 2.9 8.93
8/29/2021 4:45:00 PM 24.2 75.56 0.18 9.22 3.05 8.89
8/29/2021 5:00:00 PM 24.16 75.488 0.18 9.16 2.87 8.78
8/29/2021 5:15:00 PM 24.13 75.434 0.18 9.12 2.86 8.73
8/29/2021 5:30:00 PM 24.1 75.38 0.18 9.08 3.04 8.69
8/29/2021 5:45:00 PM 24.07 75.326 0.18 9.06 2.81 8.64
8/29/2021 6:00:00 PM 24.07 75.326 0.181 9.03 2.86 8.66
8/29/2021 6:15:00 PM 24.06 75.308 0.181 9.02 2.75 8.66
8/29/2021 6:30:00 PM 24.03 75.254 0.181 9.03 2.75 8.62
8/29/2021 6:45:00 PM 23.97 75.146 0.181 8.98 2.85 8.49
8/29/2021 7:00:00 PM 23.93 75.074 0.181 8.92 2.86 8.34
8/29/2021 7:15:00 PM 23.87 74.966 0.182 8.92 2.82 8.15
8/29/2021 7:30:00 PM 23.81 74.858 0.182 8.83 2.76 7.97
8/29/2021 7:45:00 PM 23.75 74.75 0.182 8.76 2.83 7.83
8/29/2021 8:00:00 PM 23.69 74.642 0.182 8.69 3.09 7.71
8/29/2021 8:15:00 PM 23.65 74.57 0.183 8.65 2.92 7.62
8/29/2021 8:30:00 PM 23.59 74.462 0.183 8.61 2.87 7.55
8/29/2021 8:45:00 PM 23.53 74.354 0.183 8.58 2.85 7.48
8/29/2021 9:00:00 PM 23.46 74.228 0.183 8.56 2.86 7.43
8/29/2021 9:15:00 PM 23.4 74.12 0.184 8.53 2.87 7.39
8/29/2021 9:30:00 PM 23.34 74.012 0.184 8.52 2.9 7.37
8/29/2021 9:45:00 PM 23.29 73.922 0.184 8.51 2.96 7.37
8/29/2021 10:00:00 PM 23.23 73.814 0.184 8.48 2.94 7.36
8/29/2021 10:15:00 PM 23.18 73.724 0.184 8.46 2.89 7.36
8/29/2021 10:30:00 PM 23.13 73.634 0.184 8.45 2.98 7.36
8/29/2021 10:45:00 PM 23.08 73.544 0.184 8.44 2.97 7.35
8/29/2021 11:00:00 PM 23.03 73.454 0.185 8.47 2.99 7.36
8/29/2021 11:15:00 PM 22.99 73.382 0.185 8.46 3 7.37
8/29/2021 11:30:00 PM 22.95 73.31 0.185 8.42 2.98 7.37
8/29/2021 11:45:00 PM 22.92 73.256 0.185 8.43 2.93 7.38
8/30/2021 12:00:00 AM 22.88 73.184 0.185 8.42 2.96 7.38
8/30/2021 12:15:00 AM 22.85 73.13 0.185 8.41 3.08 7.39
8/30/2021 12:30:00 AM 22.81 73.058 0.185 8.42 3.12 7.37
8/30/2021 12:45:00 AM 22.78 73.004 0.186 8.4 2.93 7.38
8/30/2021 1:00:00 AM 22.75 72.95 0.186 8.39 2.88 7.39
8/30/2021 1:15:00 AM 22.71 72.878 0.186 8.38 2.84 7.39
8/30/2021 1:30:00 AM 22.68 72.824 0.186 8.38 2.96 7.4
8/30/2021 1:45:00 AM 22.66 72.788 0.186 8.38 3.18 7.4
8/30/2021 2:00:00 AM 22.63 72.734 0.186 8.36 3.05 7.4
8/30/2021 2:15:00 AM 22.59 72.662 0.186 8.35 2.93 7.4
8/30/2021 2:30:00 AM 22.56 72.608 0.187 8.36 3.01 7.4
8/30/2021 2:45:00 AM 22.52 72.536 0.187 8.34 2.87 7.41
8/30/2021 3:00:00 AM 22.49 72.482 0.187 8.33 2.87 7.41
8/30/2021 3:15:00 AM 22.47 72.446 0.187 8.33 2.93 7.41
8/30/2021 3:30:00 AM 22.43 72.374 0.187 8.32 3.6 7.42
8/30/2021 3:45:00 AM 22.41 72.338 0.188 8.33 2.91 7.43
8/30/2021 4:00:00 AM 22.39 72.302 0.188 8.32 3.01 7.41
8/30/2021 4:15:00 AM 22.37 72.266 0.188 8.33 2.87 7.44
8/30/2021 4:30:00 AM 22.34 72.212 0.188 8.33 2.86 7.43
8/30/2021 4:45:00 AM 22.31 72.158 0.188 8.34 2.89 7.44
8/30/2021 5:00:00 AM 22.28 72.104 0.188 8.33 3.01 7.43
8/30/2021 5:15:00 AM 22.25 72.05 0.189 8.32 4.02 7.43
8/30/2021 5:30:00 AM 22.22 71.996 0.189 8.33 3.01 7.45
8/30/2021 5:45:00 AM 22.18 71.924 0.189 8.41 3.29 7.45
8/30/2021 6:00:00 AM 22.15 71.87 0.189 8.32 2.96 7.45
8/30/2021 6:15:00 AM 22.12 71.816 0.189 8.32 2.88 7.47
8/30/2021 6:30:00 AM 22.09 71.762 0.19 8.33 3.06 7.47
8/30/2021 6:45:00 AM 22.06 71.708 0.189 8.4 2.76 7.48
8/30/2021 7:00:00 AM 22.03 71.654 0.19 8.43 2.75 7.49
8/30/2021 7:15:00 AM 22 71.6 0.19 8.41 2.78 7.53
8/30/2021 7:30:00 AM 21.99 71.582 0.19 8.41 2.8 7.59
8/30/2021 7:45:00 AM 21.98 71.564 0.19 8.39 2.73 7.66
8/30/2021 8:00:00 AM 21.97 71.546 0.19 8.42 2.75 7.77
8/30/2021 8:15:00 AM 21.99 71.582 0.19 8.45 2.76 7.94
8/30/2021 8:30:00 AM 22.04 71.672 0.19 8.5 2.76 8.13
8/30/2021 8:45:00 AM 22.1 71.78 0.19 8.54 2.82 8.29
8/30/2021 9:00:00 AM 22.18 71.924 0.19 8.65 2.84 8.46
8/30/2021 9:15:00 AM 22.24 72.032 0.19 8.65 2.71 8.63
8/30/2021 9:30:00 AM 22.3 72.14 0.19 8.71 2.75 8.78
8/30/2021 9:45:00 AM 22.33 72.194 0.19 8.75 2.8 8.87
8/30/2021 10:00:00 AM 22.39 72.302 0.19 8.82 2.75 9.03
8/30/2021 10:15:00 AM 22.51 72.518 0.189 8.91 2.71 9.2
8/30/2021 10:30:00 AM 22.59 72.662 0.189 8.97 2.8 9.28
8/30/2021 10:45:00 AM 22.65 72.77 0.189 9.01 2.82 9.34
8/30/2021 11:00:00 AM 22.75 72.95 0.189 9.06 2.74 9.41
8/30/2021 11:15:00 AM 22.95 73.31 0.189 9.11 2.7 9.51
8/30/2021 11:30:00 AM 23.09 73.562 0.189 9.18 2.66 9.56
8/30/2021 11:45:00 AM 23.13 73.634 0.189 9.21 2.65 9.54
8/30/2021 12:00:00 PM 23.24 73.832 0.189 9.26 2.73 9.6
8/30/2021 12:15:00 PM 23.39 74.102 0.189 9.31 2.8 9.62
8/30/2021 12:30:00 PM 23.48 74.264 0.189 9.49 2.99 9.59
8/30/2021 12:45:00 PM 23.57 74.426 0.19 9.47 2.75 9.6
8/30/2021 1:00:00 PM 23.67 74.606 0.19 9.49 2.89 9.58
8/30/2021 1:15:00 PM 23.78 74.804 0.19 9.51 2.62 9.6
8/30/2021 1:30:00 PM 24.05 75.29 0.19 9.58 2.62 9.64
8/30/2021 1:45:00 PM 24.31 75.758 0.19 9.66 2.32 9.66
8/30/2021 2:00:00 PM 24.56 76.208 0.19 9.69 2.3 9.68
8/30/2021 2:15:00 PM 24.74 76.532 0.19 9.76 2.28 9.74
8/30/2021 2:30:00 PM 24.82 76.676 0.19 9.77 2.26 9.73
8/30/2021 2:45:00 PM 24.92 76.856 0.19 10.96 2.16 9.71
8/30/2021 3:00:00 PM 24.97 76.946 0.19 10.59 2.24 9.63
8/30/2021 3:15:00 PM 24.87 76.766 0.19 10.56 2.37 9.48
8/30/2021 3:30:00 PM 24.67 76.406 0.187 10.48 2.84 9.14
8/30/2021 3:45:00 PM 24.46 76.028 0.182 10.34 3.65 8.8
8/30/2021 4:00:00 PM 24.38 75.884 0.181 10.27 3.94 8.64
8/30/2021 4:15:00 PM 24.29 75.722 0.178 10.14 4.75 8.52
8/30/2021 4:30:00 PM 24.18 75.524 0.176 9.99 7.54 8.41
8/30/2021 4:45:00 PM 24.14 75.452 0.175 9.92 10.62 8.38
8/30/2021 5:00:00 PM 24.1 75.38 0.176 9.85 8.82 8.39
8/30/2021 5:15:00 PM 24.02 75.236 0.175 9.79 11.44 8.32
8/30/2021 5:30:00 PM 23.93 75.074 0.177 9.74 10.72 8.23
8/30/2021 5:45:00 PM 23.87 74.966 0.181 9.7 7.38 8.2
8/30/2021 6:00:00 PM 23.84 74.912 0.183 9.67 6.12 8.16
8/30/2021 6:15:00 PM 23.81 74.858 0.184 9.67 5.91 8.12
8/30/2021 6:30:00 PM 23.77 74.786 0.185 9.63 5.97 8.07
8/30/2021 6:45:00 PM 23.72 74.696 0.186 9.61 5.06 8.03
8/30/2021 7:00:00 PM 23.66 74.588 0.186 9.53 4.64 7.92
8/30/2021 7:15:00 PM 23.58 74.444 0.186 9.5 4.51 7.87
8/30/2021 7:30:00 PM 23.5 74.3 0.186 9.47 4.31 7.79
8/30/2021 7:45:00 PM 23.41 74.138 0.187 9.44 4.03 7.66
8/30/2021 8:00:00 PM 23.33 73.994 0.188 9.42 3.84 7.58
8/30/2021 8:15:00 PM 23.25 73.85 0.188 9.41 3.75 7.49
8/30/2021 8:30:00 PM 23.18 73.724 0.189 9.41 3.49 7.42
8/30/2021 8:45:00 PM 23.1 73.58 0.189 9.38 3.29 7.38
8/30/2021 9:00:00 PM 23.03 73.454 0.19 9.37 3.09 7.33
8/30/2021 9:15:00 PM 22.95 73.31 0.19 9.35 3.01 7.31
8/30/2021 9:30:00 PM 22.87 73.166 0.19 9.32 3.17 7.3
8/30/2021 9:45:00 PM 22.79 73.022 0.191 9.3 2.95 7.3
8/30/2021 10:00:00 PM 22.71 72.878 0.191 9.28 3.18 7.29
8/30/2021 10:15:00 PM 22.63 72.734 0.191 9.27 2.95 7.29
8/30/2021 10:30:00 PM 22.56 72.608 0.192 9.23 2.8 7.31
8/30/2021 10:45:00 PM 22.49 72.482 0.192 9.24 2.84 7.3
8/30/2021 11:00:00 PM 22.42 72.356 0.192 9.21 3.03 7.29
8/30/2021 11:15:00 PM 22.35 72.23 0.192 9.21 3.29 7.31
8/30/2021 11:30:00 PM 22.28 72.104 0.192 9.21 2.94 7.32
8/30/2021 11:45:00 PM 22.21 71.978 0.192 9.2 3 7.31
8/31/2021 12:00:00 AM 22.14 71.852 0.192 9.19 2.65 7.32
8/31/2021 12:15:00 AM 22.06 71.708 0.192 9.18 3 7.31
8/31/2021 12:30:00 AM 21.99 71.582 0.192 9.18 3.11 7.34
8/31/2021 12:45:00 AM 21.92 71.456 0.193 9.17 2.72 7.34
8/31/2021 1:00:00 AM 21.84 71.312 0.193 9.16 2.65 7.33
8/31/2021 1:15:00 AM 21.77 71.186 0.192 9.16 2.68 7.36
8/31/2021 1:30:00 AM 21.7 71.06 0.192 9.15 2.77 7.37
8/31/2021 1:45:00 AM 21.63 70.934 0.193 9.15 2.68 7.39
8/31/2021 2:00:00 AM 21.57 70.826 0.193 9.12 2.61 7.37
8/31/2021 2:15:00 AM 21.5 70.7 0.193 9.1 2.79 7.4
8/31/2021 2:30:00 AM 21.43 70.574 0.193 9.12 2.75 7.42
8/31/2021 2:45:00 AM 21.37 70.466 0.193 9.13 2.83 7.42
8/31/2021 3:00:00 AM 21.3 70.34 0.193 9.09 4.49 7.43
8/31/2021 3:15:00 AM 21.24 70.232 0.193 9.11 2.98 7.44
8/31/2021 3:30:00 AM 21.18 70.124 0.194 9.1 2.95 7.46
8/31/2021 3:45:00 AM 21.12 70.016 0.194 9.09 3.12 7.47
8/31/2021 4:00:00 AM 21.06 69.908 0.194 9.08 3.3 7.48
8/31/2021 4:15:00 AM 21 69.8 0.194 9.08 3.38 7.5
8/31/2021 4:30:00 AM 20.94 69.692 0.194 9.07 2.82 7.51
8/31/2021 4:45:00 AM 20.88 69.584 0.194 9.07 2.75 7.51
8/31/2021 5:00:00 AM 20.82 69.476 0.194 9.07 2.61 7.53
8/31/2021 5:15:00 AM 20.76 69.368 0.195 9.05 2.66 7.54
8/31/2021 5:30:00 AM 20.71 69.278 0.195 9.04 2.68 7.55
8/31/2021 5:45:00 AM 20.66 69.188 0.195 9.01 2.71 7.56
8/31/2021 6:00:00 AM 20.6 69.08 0.195 9.03 2.69 7.57
8/31/2021 6:15:00 AM 20.55 68.99 0.195 9.02 2.6 7.56
8/31/2021 6:30:00 AM 20.49 68.882 0.196 9.02 2.65 7.59
8/31/2021 6:45:00 AM 20.44 68.792 0.196 9.01 2.59 7.59
8/31/2021 7:00:00 AM 20.39 68.702 0.196 9.01 2.67 7.62
8/31/2021 7:15:00 AM 20.35 68.63 0.196 9.01 2.73 7.71
8/31/2021 7:30:00 AM 20.32 68.576 0.196 9.02 2.66 7.78
8/31/2021 7:45:00 AM 20.29 68.522 0.196 9.03 2.51 7.87
8/31/2021 8:00:00 AM 20.28 68.504 0.196 9.05 2.7 8
8/31/2021 8:15:00 AM 20.28 68.504 0.196 9.09 2.67 8.2
8/31/2021 8:30:00 AM 20.29 68.522 0.196 9.11 2.63 8.34
8/31/2021 8:45:00 AM 20.32 68.576 0.196 9.17 2.67 8.52
8/31/2021 9:00:00 AM 20.37 68.666 0.196 9.19 2.77 8.69
8/31/2021 9:15:00 AM 20.43 68.774 0.196 9.25 2.74 8.88
8/31/2021 9:30:00 AM 20.49 68.882 0.196 9.3 2.54 9.03
8/31/2021 9:45:00 AM 20.53 68.954 0.196 9.35 2.56 9.16
8/31/2021 10:00:00 AM 20.61 69.098 0.196 9.41 2.58 9.33
8/31/2021 10:15:00 AM 20.75 69.35 0.196 9.51 2.52 9.44
8/31/2021 10:30:00 AM 20.93 69.674 0.196 9.53 2.54 9.58
8/31/2021 10:45:00 AM 21.04 69.872 0.196 9.63 2.53 9.66
8/31/2021 11:00:00 AM 21.23 70.214 0.196 9.67 2.56 9.73
8/31/2021 11:15:00 AM 21.48 70.664 0.196 9.8 2.61 9.84
8/31/2021 11:30:00 AM 21.69 71.042 0.196 9.87 2.54 9.9
8/31/2021 11:45:00 AM 21.9 71.42 0.196 9.96 2.52 9.94
8/31/2021 12:00:00 PM 22.16 71.888 0.196 10.01 2.53 9.97
8/31/2021 12:15:00 PM 22.44 72.392 0.196 10.11 2.53 10.01
8/31/2021 12:30:00 PM 22.71 72.878 0.196 10.17 2.61 9.99
8/31/2021 12:45:00 PM 23.01 73.418 0.197 10.24 2.51 10.01
8/31/2021 1:00:00 PM 23.26 73.868 0.197 10.29 2.55 10
8/31/2021 1:15:00 PM 23.51 74.318 0.197 10.35 2.56 9.97
8/31/2021 1:30:00 PM 23.8 74.84 0.197 10.37 2.41 9.9
8/31/2021 1:45:00 PM 24.05 75.29 0.197 10.44 2.44 9.88
8/31/2021 2:00:00 PM 24.23 75.614 0.197 10.48 2.44 9.83
8/31/2021 2:15:00 PM 24.34 75.812 0.197 10.48 2.4 9.73
8/31/2021 2:30:00 PM 24.41 75.938 0.198 10.5 2.39 9.7
8/31/2021 2:45:00 PM 24.5 76.1 0.198 10.52 2.45 9.67
8/31/2021 3:00:00 PM 24.51 76.118 0.198 10.5 2.4 9.59
8/31/2021 3:15:00 PM 24.54 76.172 0.198 10.51 2.53 9.54
8/31/2021 3:30:00 PM 24.51 76.118 0.198 10.49 2.59 9.49
8/31/2021 3:45:00 PM 24.43 75.974 0.198 10.47 2.55 9.4
8/31/2021 4:00:00 PM 24.34 75.812 0.199 10.45 2.55 9.3
8/31/2021 4:15:00 PM 24.27 75.686 0.199 10.42 2.58 9.26
8/31/2021 4:30:00 PM 24.24 75.632 0.199 10.38 2.51 9.22
8/31/2021 4:45:00 PM 24.2 75.56 0.199 10.37 2.53 9.18
8/31/2021 5:00:00 PM 24.16 75.488 0.199 10.33 2.46 9.15
8/31/2021 5:15:00 PM 24.11 75.398 0.2 10.32 2.5 9.09
8/31/2021 5:30:00 PM 24.08 75.344 0.2 10.28 2.54 9.02
8/31/2021 5:45:00 PM 24.02 75.236 0.2 10.27 2.54 8.95
8/31/2021 6:00:00 PM 23.95 75.11 0.2 10.2 3.09 8.82
8/31/2021 6:15:00 PM 23.88 74.984 0.2 10.15 2.59 8.68
8/31/2021 6:30:00 PM 23.79 74.82201 0.201 10.05 2.5 8.55
8/31/2021 6:45:00 PM 23.7 74.66 0.201 9.98 2.51 8.4
8/31/2021 7:00:00 PM 23.6 74.48 0.201 9.91 2.46 8.26
8/31/2021 7:15:00 PM 23.51 74.318 0.201 9.85 2.49 8.08
8/31/2021 7:30:00 PM 23.42 74.156 0.202 9.76 2.84 7.92
8/31/2021 7:45:00 PM 23.34 74.012 0.202 9.71 2.41 7.79
8/31/2021 8:00:00 PM 23.24 73.832 0.202 9.63 2.45 7.67
8/31/2021 8:15:00 PM 23.15 73.67 0.203 9.58 2.48 7.53
8/31/2021 8:30:00 PM 23.06 73.508 0.203 9.53 2.54 7.44
8/31/2021 8:45:00 PM 22.98 73.364 0.203 9.5 2.65 7.38
8/31/2021 9:00:00 PM 22.9 73.22 0.203 9.48 2.49 7.29
8/31/2021 9:15:00 PM 22.81 73.058 0.203 9.45 2.54 7.27
8/31/2021 9:30:00 PM 22.73 72.914 0.204 9.4 2.43 7.22
8/31/2021 9:45:00 PM 22.64 72.752 0.204 9.39 2.52 7.21
8/31/2021 10:00:00 PM 22.57 72.626 0.204 9.37 2.68 7.17
8/31/2021 10:15:00 PM 22.49 72.482 0.204 9.36 2.43 7.14
8/31/2021 10:30:00 PM 22.43 72.374 0.204 9.35 2.66 7.17
8/31/2021 10:45:00 PM 22.36 72.248 0.204 9.33 2.55 7.2
8/31/2021 11:00:00 PM 22.3 72.14 0.204 9.32 2.61 7.18
8/31/2021 11:15:00 PM 22.24 72.032 0.204 9.3 3 7.19
8/31/2021 11:30:00 PM 22.17 71.906 0.204 9.29 2.76 7.21
8/31/2021 11:45:00 PM 22.12 71.816 0.204 9.28 2.76 7.21
9/1/2021 12:00:00 AM 22.06 71.708 0.204 9.28 2.5 7.23
9/1/2021 12:15:00 AM 22.01 71.618 0.204 9.28 2.53 7.21
9/1/2021 12:30:00 AM 21.96 71.528 0.203 9.27 2.6 7.24
9/1/2021 12:45:00 AM 21.9 71.42 0.204 9.25 2.83 7.24
9/1/2021 1:00:00 AM 21.85 71.33 0.204 9.25 2.79 7.22
9/1/2021 1:15:00 AM 21.81 71.258 0.203 9.25 2.63 7.25
9/1/2021 1:30:00 AM 21.77 71.186 0.204 9.25 2.6 7.27
9/1/2021 1:45:00 AM 21.73 71.114 0.204 9.24 2.77 7.25
9/1/2021 2:00:00 AM 21.68 71.024 0.204 9.25 2.59 7.27
9/1/2021 2:15:00 AM 21.64 70.952 0.204 9.25 2.53 7.28
9/1/2021 2:30:00 AM 21.6 70.88 0.204 9.23 2.47 7.22
9/1/2021 2:45:00 AM 21.57 70.826 0.204 9.23 2.47 7.28
9/1/2021 3:00:00 AM 21.54 70.772 0.204 9.23 2.75 7.29
9/1/2021 3:15:00 AM 21.5 70.7 0.204 9.23 2.54 7.32
9/1/2021 3:30:00 AM 21.46 70.628 0.204 9.22 2.66 7.3
9/1/2021 3:45:00 AM 21.43 70.574 0.204 9.22 2.72 7.3
9/1/2021 4:00:00 AM 21.4 70.52 0.204 9.22 2.6 7.32
9/1/2021 4:15:00 AM 21.37 70.466 0.204 9.21 2.78 7.32
9/1/2021 4:30:00 AM 21.34 70.412 0.204 9.2 2.57 7.33
9/1/2021 4:45:00 AM 21.3 70.34 0.204 9.2 2.69 7.32
9/1/2021 5:00:00 AM 21.27 70.286 0.204 9.19 2.8 7.35
9/1/2021 5:15:00 AM 21.23 70.214 0.204 9.19 2.85 7.36
9/1/2021 5:30:00 AM 21.19 70.142 0.204 9.21 2.61 7.36
9/1/2021 5:45:00 AM 21.16 70.088 0.204 9.2 2.71 7.35
9/1/2021 6:00:00 AM 21.12 70.016 0.204 9.19 2.53 7.37
9/1/2021 6:15:00 AM 21.09 69.962 0.204 9.18 2.73 7.39
9/1/2021 6:30:00 AM 21.06 69.908 0.204 9.17 2.68 7.37
9/1/2021 6:45:00 AM 21.02 69.836 0.205 9.17 2.67 7.4
9/1/2021 7:00:00 AM 20.99 69.782 0.205 9.16 2.77 7.39
9/1/2021 7:15:00 AM 20.96 69.728 0.205 9.15 2.61 7.38
9/1/2021 7:30:00 AM 20.92 69.656 0.205 9.16 2.5 7.44
9/1/2021 7:45:00 AM 20.9 69.62 0.205 9.16 2.62 7.49
9/1/2021 8:00:00 AM 20.88 69.584 0.204 9.16 2.64 7.48
9/1/2021 8:15:00 AM 20.86 69.548 0.205 9.17 2.61 7.54
9/1/2021 8:30:00 AM 20.84 69.512 0.204 9.15 2.73 7.64
9/1/2021 8:45:00 AM 20.82 69.476 0.204 9.18 2.66 7.67
9/1/2021 9:00:00 AM 20.81 69.458 0.204 9.17 2.63 7.7
9/1/2021 9:15:00 AM 20.8 69.44 0.204 9.2 2.64 7.86
9/1/2021 9:30:00 AM 20.79 69.422 0.204 9.22 2.61 7.98
9/1/2021 9:45:00 AM 20.79 69.422 0.204 9.23 2.65 8.09
9/1/2021 10:00:00 AM 20.8 69.44 0.204 9.26 2.65 8.26
9/1/2021 10:15:00 AM 20.81 69.458 0.204 9.28 2.67 8.38
9/1/2021 10:30:00 AM 20.82 69.476 0.203 9.31 2.56 8.5
9/1/2021 10:45:00 AM 20.83 69.494 0.203 9.35 2.65 8.63
9/1/2021 11:00:00 AM 20.84 69.512 0.203 9.37 2.68 8.71
9/1/2021 11:15:00 AM 20.86 69.548 0.202 9.41 2.63 8.82
9/1/2021 11:30:00 AM 20.87 69.566 0.202 9.45 2.6 8.94
9/1/2021 11:45:00 AM 20.88 69.584 0.202 9.47 2.69 8.99
9/1/2021 12:00:00 PM 20.89 69.602 0.201 9.49 2.73 9.04
9/1/2021 12:15:00 PM 20.91 69.638 0.201 9.54 2.65 9.1
9/1/2021 12:30:00 PM 20.92 69.656 0.201 9.56 2.66 9.17
9/1/2021 12:45:00 PM 20.94 69.692 0.2 9.57 2.69 9.23
9/1/2021 1:00:00 PM 20.96 69.728 0.2 9.61 2.68 9.27
9/1/2021 1:15:00 PM 20.98 69.764 0.2 9.65 2.63 9.36
9/1/2021 1:30:00 PM 20.98 69.764 0.199 9.66 2.75 9.38
9/1/2021 1:45:00 PM 20.99 69.782 0.199 9.68 2.81 9.41
9/1/2021 2:00:00 PM 20.98 69.764 0.199 9.69 2.8 9.38
9/1/2021 2:15:00 PM 20.97 69.746 0.199 9.66 2.71 9.28
9/1/2021 2:30:00 PM 20.97 69.746 0.199 9.65 2.81 9.22
9/1/2021 2:45:00 PM 20.96 69.728 0.198 9.64 2.78 9.21
9/1/2021 3:00:00 PM 20.95 69.71 0.199 9.64 2.8 9.15
9/1/2021 3:15:00 PM 20.93 69.674 0.198 9.61 2.97 9.05
9/1/2021 3:30:00 PM 20.9 69.62 0.198 9.56 2.83 8.96
9/1/2021 3:45:00 PM 20.87 69.566 0.198 9.54 2.91 8.86
9/1/2021 4:00:00 PM 20.83 69.494 0.198 9.51 3.02 8.83
9/1/2021 4:15:00 PM 20.77 69.386 0.197 9.47 3.08 8.77
9/1/2021 4:30:00 PM 20.71 69.278 0.197 9.44 3.11 8.67
9/1/2021 4:45:00 PM 20.63 69.134 0.196 9.37 3.08 8.61
9/1/2021 5:00:00 PM 20.55 68.99 0.196 9.38 3.42 8.56
9/1/2021 5:15:00 PM 20.47 68.846 0.195 9.34 3.44 8.49
9/1/2021 5:30:00 PM 20.4 68.72 0.195 9.31 3.98 8.45
9/1/2021 5:45:00 PM 20.33 68.594 0.194 9.28 4.33 8.42
9/1/2021 6:00:00 PM 20.26 68.468 0.194 9.27 4.37 8.45
9/1/2021 6:15:00 PM 20.19 68.342 0.195 9.25 5.39 8.42
9/1/2021 6:30:00 PM 20.13 68.234 0.197 9.24 6.1 8.43
9/1/2021 6:45:00 PM 20.07 68.126 0.198 9.23 6.07 8.37
9/1/2021 7:00:00 PM 20.02 68.036 0.199 9.21 6.28 8.32
9/1/2021 7:15:00 PM 20 68 0.198 9.19 6.15 8.26
9/1/2021 7:30:00 PM 19.99 67.982 0.197 9.17 6.04 8.2
9/1/2021 7:45:00 PM 19.97 67.946 0.197 9.13 5.86 8.11
9/1/2021 8:00:00 PM 19.96 67.92799 0.197 9.14 5.39 8.06
9/1/2021 8:15:00 PM 19.95 67.91 0.197 9.12 5.41 8
9/1/2021 8:30:00 PM 19.93 67.874 0.197 9.11 5.22 7.96
9/1/2021 8:45:00 PM 19.91 67.838 0.197 9.11 5.28 7.95
9/1/2021 9:00:00 PM 19.89 67.802 0.197 9.09 5.08 7.9
9/1/2021 9:15:00 PM 19.85 67.73 0.197 9.07 4.68 7.9
9/1/2021 9:30:00 PM 19.82 67.676 0.197 9.06 4.64 7.85
9/1/2021 9:45:00 PM 19.78 67.604 0.198 9.05 4.2 7.9
9/1/2021 10:00:00 PM 19.75 67.55 0.198 9.16 4.38 7.91
9/1/2021 10:15:00 PM 19.71 67.478 0.199 9.04 4.15 7.89
9/1/2021 10:30:00 PM 19.67 67.406 0.199 9.03 4.06 7.92
9/1/2021 10:45:00 PM 19.63 67.334 0.2 9.02 4.04 7.93
9/1/2021 11:00:00 PM 19.58 67.244 0.2 9.02 3.66 7.94
9/1/2021 11:15:00 PM 19.54 67.172 0.2 9.02 3.77 7.96
9/1/2021 11:30:00 PM 19.48 67.064 0.201 9.01 4.02 7.99
9/1/2021 11:45:00 PM 19.43 66.974 0.201 9.01 4.23 8
9/2/2021 12:00:00 AM 19.38 66.884 0.201 9.01 4.27 8.01
9/2/2021 12:15:00 AM 19.32 66.776 0.202 9 3.72 8.02
9/2/2021 12:30:00 AM 19.25 66.65 0.202 8.98 3.69 8.03
9/2/2021 12:45:00 AM 19.19 66.542 0.202 8.98 3.79 8.05
9/2/2021 1:00:00 AM 19.12 66.416 0.202 8.95 4.37 8.08
9/2/2021 1:15:00 AM 19.05 66.29 0.202 8.97 3.96 8.09
9/2/2021 1:30:00 AM 18.97 66.146 0.202 8.96 4.04 8.11
9/2/2021 1:45:00 AM 18.9 66.02 0.201 8.96 4.22 8.15
9/2/2021 2:00:00 AM 18.84 65.912 0.201 8.95 4.14 8.17
9/2/2021 2:15:00 AM 18.78 65.804 0.201 8.96 4.33 8.21
9/2/2021 2:30:00 AM 18.72 65.696 0.201 8.95 4.18 8.22
9/2/2021 2:45:00 AM 18.65 65.57 0.201 8.94 4.34 8.24
9/2/2021 3:00:00 AM 18.58 65.444 0.2 8.93 4.29 8.26
9/2/2021 3:15:00 AM 18.51 65.318 0.201 8.93 4.28 8.28
9/2/2021 3:30:00 AM 18.43 65.174 0.201 8.92 4.45 8.3
9/2/2021 3:45:00 AM 18.35 65.03 0.202 8.91 4.36 8.31
9/2/2021 4:00:00 AM 18.27 64.886 0.203 8.9 4.27 8.33
9/2/2021 4:15:00 AM 18.2 64.76 0.204 8.89 4.45 8.36
9/2/2021 4:30:00 AM 18.12 64.616 0.204 8.89 4.24 8.38
9/2/2021 4:45:00 AM 18.04 64.472 0.205 8.88 4.3 8.39
9/2/2021 5:00:00 AM 17.97 64.346 0.205 8.88 4.26 8.4
9/2/2021 5:15:00 AM 17.89 64.202 0.204 8.87 4.05 8.4
9/2/2021 5:30:00 AM 17.82 64.076 0.204 8.86 4.1 8.44
9/2/2021 5:45:00 AM 17.74 63.932 0.204 8.85 4.17 8.46
9/2/2021 6:00:00 AM 17.67 63.806 0.204 8.84 4.17 8.47
9/2/2021 6:15:00 AM 17.59 63.662 0.204 8.83 3.96 8.48
9/2/2021 6:30:00 AM 17.52 63.536 0.204 8.82 4.22 8.5
9/2/2021 6:45:00 AM 17.45 63.41 0.203 8.82 4.02 8.52
9/2/2021 7:00:00 AM 17.38 63.284 0.203 8.81 4.17 8.55
9/2/2021 7:15:00 AM 17.33 63.194 0.203 8.81 3.91 8.6
9/2/2021 7:30:00 AM 17.28 63.104 0.203 8.82 3.97 8.66
9/2/2021 7:45:00 AM 17.23 63.014 0.203 8.83 3.94 8.73
9/2/2021 8:00:00 AM 17.21 62.978 0.204 8.84 4.01 8.81
9/2/2021 8:15:00 AM 17.2 62.96 0.204 8.86 3.8 8.89
9/2/2021 8:30:00 AM 17.22 62.996 0.204 8.87 3.72 8.96
9/2/2021 8:45:00 AM 17.25 63.05 0.204 8.9 3.83 9.04
9/2/2021 9:00:00 AM 17.29 63.122 0.205 8.93 3.63 9.09
9/2/2021 9:15:00 AM 17.36 63.248 0.205 8.96 3.84 9.18
9/2/2021 9:30:00 AM 17.46 63.428 0.206 9 3.73 9.25
9/2/2021 9:45:00 AM 17.56 63.608 0.206 9.01 3.66 9.33
9/2/2021 10:00:00 AM 17.7 63.86 0.207 9.09 3.67 9.41
9/2/2021 10:15:00 AM 17.84 64.112 0.207 9.12 3.65 9.49</